Peotone Weather
Station Historical Data
Daily Summary for March 7, 2012 Units:  Both    English   Metric
« Previous Day
Next Day »
Daily Weekly Monthly Yearly Custom
  High: Low: Average:
Temperature: 66.7 °F /  19.3 °C 50.0 °F /  10 °C 58.9 °F /  14.9 °C
Dew Point: 52.4 °F /  11.3 °C 32.9 °F /  0.5 °C 43.5 °F /  6.4 °C
Humidity: 71% 49% 57%
Wind Speed: 41.0mph /  66km/h - 16.4mph /  26.4km/h
Wind Gust: 41.0mph /  66km/h - -
Wind- - South
Pressure: 30.08 in /  1018.5 hPa 29.87 in /  1011.4 hPa -
Precipitation: 0.00 in /  0 mm    
Historical Graphs
 
 
Tabular Data for March 7, 2012
Time Temperature Dew Point Pressure Wind Wind Speed Wind Gust Humidity Rainfall Rate (Hourly) solar Conditions
00:00 54.0 °F /  12.2 °C 37.3 °F /  2.9 °C 30.06in /  1017.8hPa South 12.0mph /  19.3km/h 21.0mph /  33.8km/h 53% 0.00in /  0mm 0.00 W/m2
00:01 53.9 °F /  12.2 °C 37.2 °F /  2.9 °C 30.06in /  1017.8hPa South 6.0mph /  9.7km/h 21.0mph /  33.8km/h 53% 0.00in /  0mm 0.00 W/m2
00:02 53.9 °F /  12.2 °C 36.7 °F /  2.6 °C 30.07in /  1018.2hPa South 9.0mph /  14.5km/h 21.0mph /  33.8km/h 52% 0.00in /  0mm 0.00 W/m2
00:03 53.9 °F /  12.2 °C 36.7 °F /  2.6 °C 30.06in /  1017.8hPa South 12.0mph /  19.3km/h 21.0mph /  33.8km/h 52% 0.00in /  0mm 0.00 W/m2
00:05 53.8 °F /  12.1 °C 37.1 °F /  2.8 °C 30.06in /  1017.8hPa South 6.0mph /  9.7km/h 21.0mph /  33.8km/h 53% 0.00in /  0mm 0.00 W/m2
00:07 53.7 °F /  12.1 °C 37.0 °F /  2.8 °C 30.06in /  1017.8hPa SSE 10.0mph /  16.1km/h 21.0mph /  33.8km/h 53% 0.00in /  0mm 0.00 W/m2
00:08 53.7 °F /  12.1 °C 37.0 °F /  2.8 °C 30.06in /  1017.8hPa SSE 12.0mph /  19.3km/h 21.0mph /  33.8km/h 53% 0.00in /  0mm 0.00 W/m2
00:11 53.7 °F /  12.1 °C 37.0 °F /  2.8 °C 30.07in /  1018.2hPa South 9.0mph /  14.5km/h 20.0mph /  32.2km/h 53% 0.00in /  0mm 0.00 W/m2
00:13 53.5 °F /  11.9 °C 36.8 °F /  2.7 °C 30.07in /  1018.2hPa South 5.0mph /  8km/h 20.0mph /  32.2km/h 53% 0.00in /  0mm 0.00 W/m2
00:14 53.5 °F /  11.9 °C 36.8 °F /  2.7 °C 30.07in /  1018.2hPa South 10.0mph /  16.1km/h 20.0mph /  32.2km/h 53% 0.00in /  0mm 0.00 W/m2
00:16 53.4 °F /  11.9 °C 36.7 °F /  2.6 °C 30.07in /  1018.2hPa South 12.0mph /  19.3km/h 20.0mph /  32.2km/h 53% 0.00in /  0mm 0.00 W/m2
00:18 53.4 °F /  11.9 °C 36.7 °F /  2.6 °C 30.07in /  1018.2hPa South 15.0mph /  24.1km/h 21.0mph /  33.8km/h 53% 0.00in /  0mm 0.00 W/m2
00:19 53.4 °F /  11.9 °C 36.7 °F /  2.6 °C 30.07in /  1018.2hPa South 10.0mph /  16.1km/h 21.0mph /  33.8km/h 53% 0.00in /  0mm 0.00 W/m2
00:21 53.3 °F /  11.8 °C 36.6 °F /  2.6 °C 30.07in /  1018.2hPa South 15.0mph /  24.1km/h 19.0mph /  30.6km/h 53% 0.00in /  0mm 0.00 W/m2
00:23 53.2 °F /  11.8 °C 36.5 °F /  2.5 °C 30.07in /  1018.2hPa SSE 4.0mph /  6.4km/h 19.0mph /  30.6km/h 53% 0.00in /  0mm 0.00 W/m2
00:24 53.2 °F /  11.8 °C 36.5 °F /  2.5 °C 30.07in /  1018.2hPa South 15.0mph /  24.1km/h 19.0mph /  30.6km/h 53% 0.00in /  0mm 0.00 W/m2
00:26 53.1 °F /  11.7 °C 36.4 °F /  2.4 °C 30.07in /  1018.2hPa South 10.0mph /  16.1km/h 24.0mph /  38.6km/h 53% 0.00in /  0mm 0.00 W/m2
00:28 53.1 °F /  11.7 °C 36.4 °F /  2.4 °C 30.07in /  1018.2hPa South 6.0mph /  9.7km/h 26.0mph /  41.8km/h 53% 0.00in /  0mm 0.00 W/m2
00:29 53.1 °F /  11.7 °C 36.4 °F /  2.4 °C 30.07in /  1018.2hPa South 11.0mph /  17.7km/h 26.0mph /  41.8km/h 53% 0.00in /  0mm 0.00 W/m2
00:31 53.1 °F /  11.7 °C 36.0 °F /  2.2 °C 30.07in /  1018.2hPa South 9.0mph /  14.5km/h 17.0mph /  27.4km/h 52% 0.00in /  0mm 0.00 W/m2
00:32 53.1 °F /  11.7 °C 36.4 °F /  2.4 °C 30.07in /  1018.2hPa South 17.0mph /  27.4km/h 17.0mph /  27.4km/h 53% 0.00in /  0mm 0.00 W/m2
00:33 53.1 °F /  11.7 °C 36.0 °F /  2.2 °C 30.07in /  1018.2hPa South 10.0mph /  16.1km/h 17.0mph /  27.4km/h 52% 0.00in /  0mm 0.00 W/m2
00:34 53.1 °F /  11.7 °C 36.0 °F /  2.2 °C 30.07in /  1018.2hPa South 15.0mph /  24.1km/h 17.0mph /  27.4km/h 52% 0.00in /  0mm 0.00 W/m2
00:35 53.1 °F /  11.7 °C 36.0 °F /  2.2 °C 30.07in /  1018.2hPa South 12.0mph /  19.3km/h 17.0mph /  27.4km/h 52% 0.00in /  0mm 0.00 W/m2
00:36 53.1 °F /  11.7 °C 36.0 °F /  2.2 °C 30.07in /  1018.2hPa SSE 15.0mph /  24.1km/h 20.0mph /  32.2km/h 52% 0.00in /  0mm 0.00 W/m2
00:38 53.1 °F /  11.7 °C 36.0 °F /  2.2 °C 30.07in /  1018.2hPa South 14.0mph /  22.5km/h 20.0mph /  32.2km/h 52% 0.00in /  0mm 0.00 W/m2
00:40 53.1 °F /  11.7 °C 36.0 °F /  2.2 °C 30.07in /  1018.2hPa South 10.0mph /  16.1km/h 12.0mph /  19.3km/h 52% 0.00in /  0mm 0.00 W/m2
00:41 53.1 °F /  11.7 °C 36.0 °F /  2.2 °C 30.07in /  1018.2hPa SSW 11.0mph /  17.7km/h 20.0mph /  32.2km/h 52% 0.00in /  0mm 0.00 W/m2
00:43 53.1 °F /  11.7 °C 36.0 °F /  2.2 °C 30.07in /  1018.2hPa SSW 16.0mph /  25.7km/h 20.0mph /  32.2km/h 52% 0.00in /  0mm 0.00 W/m2
00:44 53.1 °F /  11.7 °C 36.0 °F /  2.2 °C 30.07in /  1018.2hPa South 10.0mph /  16.1km/h 20.0mph /  32.2km/h 52% 0.00in /  0mm 0.00 W/m2
00:45 53.1 °F /  11.7 °C 35.5 °F /  1.9 °C 30.07in /  1018.2hPa SSE 11.0mph /  17.7km/h 20.0mph /  32.2km/h 51% 0.00in /  0mm 0.00 W/m2
00:47 53.1 °F /  11.7 °C 35.5 °F /  1.9 °C 30.07in /  1018.2hPa SSW 17.0mph /  27.4km/h 20.0mph /  32.2km/h 51% 0.00in /  0mm 0.00 W/m2
00:48 53.1 °F /  11.7 °C 35.5 °F /  1.9 °C 30.07in /  1018.2hPa SSE 23.0mph /  37km/h 23.0mph /  37km/h 51% 0.00in /  0mm 0.00 W/m2
00:49 53.1 °F /  11.7 °C 35.5 °F /  1.9 °C 30.07in /  1018.2hPa South 11.0mph /  17.7km/h 26.0mph /  41.8km/h 51% 0.00in /  0mm 0.00 W/m2
00:50 53.0 °F /  11.7 °C 35.4 °F /  1.9 °C 30.07in /  1018.2hPa South 12.0mph /  19.3km/h 21.0mph /  33.8km/h 51% 0.00in /  0mm 0.00 W/m2
00:51 53.0 °F /  11.7 °C 35.4 °F /  1.9 °C 30.07in /  1018.2hPa SSW 18.0mph /  29km/h 21.0mph /  33.8km/h 51% 0.00in /  0mm 0.00 W/m2
00:52 53.0 °F /  11.7 °C 35.4 °F /  1.9 °C 30.07in /  1018.2hPa South 11.0mph /  17.7km/h 21.0mph /  33.8km/h 51% 0.00in /  0mm 0.00 W/m2
00:53 53.0 °F /  11.7 °C 35.4 °F /  1.9 °C 30.07in /  1018.2hPa SSE 10.0mph /  16.1km/h 21.0mph /  33.8km/h 51% 0.00in /  0mm 0.00 W/m2
00:55 53.0 °F /  11.7 °C 35.4 °F /  1.9 °C 30.07in /  1018.2hPa South 10.0mph /  16.1km/h 21.0mph /  33.8km/h 51% 0.00in /  0mm 0.00 W/m2
00:57 53.0 °F /  11.7 °C 34.9 °F /  1.6 °C 30.07in /  1018.2hPa South 10.0mph /  16.1km/h 23.0mph /  37km/h 50% 0.00in /  0mm 0.00 W/m2
00:58 53.0 °F /  11.7 °C 34.9 °F /  1.6 °C 30.07in /  1018.2hPa South 23.0mph /  37km/h 23.0mph /  37km/h 50% 0.00in /  0mm 0.00 W/m2
00:59 53.0 °F /  11.7 °C 34.9 °F /  1.6 °C 30.07in /  1018.2hPa SSE 6.0mph /  9.7km/h 23.0mph /  37km/h 50% 0.00in /  0mm 0.00 W/m2
01:00 53.0 °F /  11.7 °C 34.9 °F /  1.6 °C 30.07in /  1018.2hPa South 7.0mph /  11.3km/h 23.0mph /  37km/h 50% 0.00in /  0mm 0.00 W/m2
01:01 52.9 °F /  11.6 °C 34.8 °F /  1.6 °C 30.07in /  1018.2hPa South 12.0mph /  19.3km/h 18.0mph /  29km/h 50% 0.00in /  0mm 0.00 W/m2
01:02 52.9 °F /  11.6 °C 34.8 °F /  1.6 °C 30.08in /  1018.5hPa South 16.0mph /  25.7km/h 18.0mph /  29km/h 50% 0.00in /  0mm 0.00 W/m2
01:03 52.9 °F /  11.6 °C 34.8 °F /  1.6 °C 30.07in /  1018.2hPa South 17.0mph /  27.4km/h 20.0mph /  32.2km/h 50% 0.00in /  0mm 0.00 W/m2
01:04 52.8 °F /  11.6 °C 34.7 °F /  1.5 °C 30.07in /  1018.2hPa South 9.0mph /  14.5km/h 23.0mph /  37km/h 50% 0.00in /  0mm 0.00 W/m2
01:05 52.8 °F /  11.6 °C 34.7 °F /  1.5 °C 30.07in /  1018.2hPa SSE 4.0mph /  6.4km/h 23.0mph /  37km/h 50% 0.00in /  0mm 0.00 W/m2
01:06 52.7 °F /  11.5 °C 34.6 °F /  1.4 °C 30.07in /  1018.2hPa SSE 14.0mph /  22.5km/h 23.0mph /  37km/h 50% 0.00in /  0mm 0.00 W/m2
01:07 52.7 °F /  11.5 °C 34.6 °F /  1.4 °C 30.07in /  1018.2hPa South 13.0mph /  20.9km/h 23.0mph /  37km/h 50% 0.00in /  0mm 0.00 W/m2
01:08 52.7 °F /  11.5 °C 34.6 °F /  1.4 °C 30.07in /  1018.2hPa SE 13.0mph /  20.9km/h 23.0mph /  37km/h 50% 0.00in /  0mm 0.00 W/m2
01:09 52.6 °F /  11.4 °C 34.5 °F /  1.4 °C 30.07in /  1018.2hPa South 13.0mph /  20.9km/h 23.0mph /  37km/h 50% 0.00in /  0mm 0.00 W/m2
01:10 52.6 °F /  11.4 °C 34.5 °F /  1.4 °C 30.07in /  1018.2hPa SSE 4.0mph /  6.4km/h 23.0mph /  37km/h 50% 0.00in /  0mm 0.00 W/m2
01:12 52.5 °F /  11.4 °C 34.4 °F /  1.3 °C 30.08in /  1018.5hPa SSW 13.0mph /  20.9km/h 13.0mph /  20.9km/h 50% 0.00in /  0mm 0.00 W/m2
01:13 52.5 °F /  11.4 °C 34.4 °F /  1.3 °C 30.08in /  1018.5hPa SSE 12.0mph /  19.3km/h 21.0mph /  33.8km/h 50% 0.00in /  0mm 0.00 W/m2
01:14 52.4 °F /  11.3 °C 34.8 °F /  1.6 °C 30.07in /  1018.2hPa South 15.0mph /  24.1km/h 21.0mph /  33.8km/h 51% 0.00in /  0mm 0.00 W/m2
01:15 52.4 °F /  11.3 °C 34.8 °F /  1.6 °C 30.07in /  1018.2hPa SSE 12.0mph /  19.3km/h 21.0mph /  33.8km/h 51% 0.00in /  0mm 0.00 W/m2
01:17 52.2 °F /  11.2 °C 34.6 °F /  1.4 °C 30.07in /  1018.2hPa South 12.0mph /  19.3km/h 21.0mph /  33.8km/h 51% 0.00in /  0mm 0.00 W/m2
01:18 52.1 °F /  11.2 °C 34.5 °F /  1.4 °C 30.07in /  1018.2hPa South 9.0mph /  14.5km/h 22.0mph /  35.4km/h 51% 0.00in /  0mm 0.00 W/m2
01:19 52.1 °F /  11.2 °C 34.5 °F /  1.4 °C 30.07in /  1018.2hPa SSE 11.0mph /  17.7km/h 22.0mph /  35.4km/h 51% 0.00in /  0mm 0.00 W/m2
01:20 52.0 °F /  11.1 °C 34.5 °F /  1.4 °C 30.07in /  1018.2hPa South 9.0mph /  14.5km/h 15.0mph /  24.1km/h 51% 0.00in /  0mm 0.00 W/m2
01:23 51.8 °F /  11 °C 34.3 °F /  1.3 °C 30.07in /  1018.2hPa South 7.0mph /  11.3km/h 16.0mph /  25.7km/h 51% 0.00in /  0mm 0.00 W/m2
01:24 51.7 °F /  10.9 °C 34.2 °F /  1.2 °C 30.07in /  1018.2hPa South 7.0mph /  11.3km/h 18.0mph /  29km/h 51% 0.00in /  0mm 0.00 W/m2
01:25 51.7 °F /  10.9 °C 34.2 °F /  1.2 °C 30.07in /  1018.2hPa SSE 11.0mph /  17.7km/h 18.0mph /  29km/h 51% 0.00in /  0mm 0.00 W/m2
01:26 51.6 °F /  10.9 °C 34.6 °F /  1.4 °C 30.07in /  1018.2hPa South 11.0mph /  17.7km/h 18.0mph /  29km/h 52% 0.00in /  0mm 0.00 W/m2
01:28 51.6 °F /  10.9 °C 34.6 °F /  1.4 °C 30.07in /  1018.2hPa South 12.0mph /  19.3km/h 25.0mph /  40.2km/h 52% 0.00in /  0mm 0.00 W/m2
01:29 51.5 °F /  10.8 °C 34.5 °F /  1.4 °C 30.07in /  1018.2hPa South 15.0mph /  24.1km/h 25.0mph /  40.2km/h 52% 0.00in /  0mm 0.00 W/m2
01:30 51.5 °F /  10.8 °C 34.5 °F /  1.4 °C 30.07in /  1018.2hPa ESE 12.0mph /  19.3km/h 15.0mph /  24.1km/h 52% 0.00in /  0mm 0.00 W/m2
01:31 51.4 °F /  10.8 °C 34.4 °F /  1.3 °C 30.07in /  1018.2hPa SSW 16.0mph /  25.7km/h 16.0mph /  25.7km/h 52% 0.00in /  0mm 0.00 W/m2
01:33 51.3 °F /  10.7 °C 34.3 °F /  1.3 °C 30.07in /  1018.2hPa South 14.0mph /  22.5km/h 18.0mph /  29km/h 52% 0.00in /  0mm 0.00 W/m2
01:35 51.3 °F /  10.7 °C 34.3 °F /  1.3 °C 30.07in /  1018.2hPa South 10.0mph /  16.1km/h 18.0mph /  29km/h 52% 0.00in /  0mm 0.00 W/m2
01:36 51.2 °F /  10.7 °C 34.2 °F /  1.2 °C 30.07in /  1018.2hPa South 16.0mph /  25.7km/h 18.0mph /  29km/h 52% 0.00in /  0mm 0.00 W/m2
01:38 51.2 °F /  10.7 °C 34.2 °F /  1.2 °C 30.07in /  1018.2hPa South 11.0mph /  17.7km/h 20.0mph /  32.2km/h 52% 0.00in /  0mm 0.00 W/m2
01:40 51.1 °F /  10.6 °C 34.1 °F /  1.2 °C 30.07in /  1018.2hPa SSE 17.0mph /  27.4km/h 20.0mph /  32.2km/h 52% 0.00in /  0mm 0.00 W/m2
01:41 51.0 °F /  10.6 °C 34.0 °F /  1.1 °C 30.07in /  1018.2hPa SSE 11.0mph /  17.7km/h 17.0mph /  27.4km/h 52% 0.00in /  0mm 0.00 W/m2
01:42 51.0 °F /  10.6 °C 34.0 °F /  1.1 °C 30.07in /  1018.2hPa SSE 12.0mph /  19.3km/h 19.0mph /  30.6km/h 52% 0.00in /  0mm 0.00 W/m2
01:44 51.0 °F /  10.6 °C 34.0 °F /  1.1 °C 30.08in /  1018.5hPa South 9.0mph /  14.5km/h 19.0mph /  30.6km/h 52% 0.00in /  0mm 0.00 W/m2
01:45 51.0 °F /  10.6 °C 34.0 °F /  1.1 °C 30.07in /  1018.2hPa SSE 9.0mph /  14.5km/h 19.0mph /  30.6km/h 52% 0.00in /  0mm 0.00 W/m2
01:46 51.0 °F /  10.6 °C 34.0 °F /  1.1 °C 30.07in /  1018.2hPa SSE 9.0mph /  14.5km/h 19.0mph /  30.6km/h 52% 0.00in /  0mm 0.00 W/m2
01:47 50.9 °F /  10.5 °C 33.9 °F /  1.1 °C 30.07in /  1018.2hPa SSE 11.0mph /  17.7km/h 19.0mph /  30.6km/h 52% 0.00in /  0mm 0.00 W/m2
01:49 50.9 °F /  10.5 °C 33.9 °F /  1.1 °C 30.08in /  1018.5hPa South 7.0mph /  11.3km/h 19.0mph /  30.6km/h 52% 0.00in /  0mm 0.00 W/m2
01:50 50.9 °F /  10.5 °C 33.9 °F /  1.1 °C 30.08in /  1018.5hPa SSE 16.0mph /  25.7km/h 20.0mph /  32.2km/h 52% 0.00in /  0mm 0.00 W/m2
01:51 50.8 °F /  10.4 °C 33.8 °F /  1 °C 30.07in /  1018.2hPa South 12.0mph /  19.3km/h 20.0mph /  32.2km/h 52% 0.00in /  0mm 0.00 W/m2
01:52 50.8 °F /  10.4 °C 33.8 °F /  1 °C 30.08in /  1018.5hPa South 12.0mph /  19.3km/h 20.0mph /  32.2km/h 52% 0.00in /  0mm 0.00 W/m2
01:54 50.7 °F /  10.4 °C 33.7 °F /  0.9 °C 30.07in /  1018.2hPa South 11.0mph /  17.7km/h 21.0mph /  33.8km/h 52% 0.00in /  0mm 0.00 W/m2
01:55 50.7 °F /  10.4 °C 33.7 °F /  0.9 °C 30.08in /  1018.5hPa SSW 12.0mph /  19.3km/h 21.0mph /  33.8km/h 52% 0.00in /  0mm 0.00 W/m2
01:56 50.7 °F /  10.4 °C 33.7 °F /  0.9 °C 30.08in /  1018.5hPa South 16.0mph /  25.7km/h 21.0mph /  33.8km/h 52% 0.00in /  0mm 0.00 W/m2
01:57 50.7 °F /  10.4 °C 33.7 °F /  0.9 °C 30.07in /  1018.2hPa South 14.0mph /  22.5km/h 21.0mph /  33.8km/h 52% 0.00in /  0mm 0.00 W/m2
01:59 50.6 °F /  10.3 °C 33.6 °F /  0.9 °C 30.08in /  1018.5hPa South 10.0mph /  16.1km/h 21.0mph /  33.8km/h 52% 0.00in /  0mm 0.00 W/m2
02:00 50.6 °F /  10.3 °C 33.6 °F /  0.9 °C 30.08in /  1018.5hPa SSE 10.0mph /  16.1km/h 21.0mph /  33.8km/h 52% 0.00in /  0mm 0.00 W/m2
02:01 50.6 °F /  10.3 °C 33.6 °F /  0.9 °C 30.07in /  1018.2hPa SSE 12.0mph /  19.3km/h 20.0mph /  32.2km/h 52% 0.00in /  0mm 0.00 W/m2
02:02 50.6 °F /  10.3 °C 33.6 °F /  0.9 °C 30.08in /  1018.5hPa South 6.0mph /  9.7km/h 20.0mph /  32.2km/h 52% 0.00in /  0mm 0.00 W/m2
02:05 50.5 °F /  10.3 °C 33.5 °F /  0.8 °C 30.08in /  1018.5hPa South 17.0mph /  27.4km/h 20.0mph /  32.2km/h 52% 0.00in /  0mm 0.00 W/m2
02:06 50.4 °F /  10.2 °C 33.5 °F /  0.8 °C 30.08in /  1018.5hPa South 8.0mph /  12.9km/h 20.0mph /  32.2km/h 52% 0.00in /  0mm 0.00 W/m2
02:08 50.4 °F /  10.2 °C 33.5 °F /  0.8 °C 30.08in /  1018.5hPa SSE 13.0mph /  20.9km/h 20.0mph /  32.2km/h 52% 0.00in /  0mm 0.00 W/m2
02:10 50.4 °F /  10.2 °C 33.5 °F /  0.8 °C 30.07in /  1018.2hPa South 12.0mph /  19.3km/h 12.0mph /  19.3km/h 52% 0.00in /  0mm 0.00 W/m2
02:11 50.4 °F /  10.2 °C 33.5 °F /  0.8 °C 30.07in /  1018.2hPa SSE 6.0mph /  9.7km/h 12.0mph /  19.3km/h 52% 0.00in /  0mm 0.00 W/m2
02:13 50.3 °F /  10.2 °C 33.4 °F /  0.8 °C 30.07in /  1018.2hPa SSW 12.0mph /  19.3km/h 14.0mph /  22.5km/h 52% 0.00in /  0mm 0.00 W/m2
02:15 50.3 °F /  10.2 °C 33.4 °F /  0.8 °C 30.08in /  1018.5hPa South 4.0mph /  6.4km/h 17.0mph /  27.4km/h 52% 0.00in /  0mm 0.00 W/m2
02:16 50.3 °F /  10.2 °C 33.4 °F /  0.8 °C 30.07in /  1018.2hPa South 12.0mph /  19.3km/h 19.0mph /  30.6km/h 52% 0.00in /  0mm 0.00 W/m2
02:17 50.3 °F /  10.2 °C 33.4 °F /  0.8 °C 30.07in /  1018.2hPa SSE 7.0mph /  11.3km/h 19.0mph /  30.6km/h 52% 0.00in /  0mm 0.00 W/m2
02:18 50.3 °F /  10.2 °C 33.4 °F /  0.8 °C 30.07in /  1018.2hPa SSE 7.0mph /  11.3km/h 19.0mph /  30.6km/h 52% 0.00in /  0mm 0.00 W/m2
02:20 50.3 °F /  10.2 °C 33.4 °F /  0.8 °C 30.07in /  1018.2hPa South 11.0mph /  17.7km/h 13.0mph /  20.9km/h 52% 0.00in /  0mm 0.00 W/m2
02:21 50.3 °F /  10.2 °C 33.4 °F /  0.8 °C 30.07in /  1018.2hPa SSE 11.0mph /  17.7km/h 13.0mph /  20.9km/h 52% 0.00in /  0mm 0.00 W/m2
02:22 50.3 °F /  10.2 °C 33.4 °F /  0.8 °C 30.07in /  1018.2hPa SSE 6.0mph /  9.7km/h 15.0mph /  24.1km/h 52% 0.00in /  0mm 0.00 W/m2
02:23 50.2 °F /  10.1 °C 33.3 °F /  0.7 °C 30.08in /  1018.5hPa SSE 12.0mph /  19.3km/h 20.0mph /  32.2km/h 52% 0.00in /  0mm 0.00 W/m2
02:26 50.2 °F /  10.1 °C 33.7 °F /  0.9 °C 30.08in /  1018.5hPa SSE 10.0mph /  16.1km/h 20.0mph /  32.2km/h 53% 0.00in /  0mm 0.00 W/m2
02:27 50.2 °F /  10.1 °C 33.7 °F /  0.9 °C 30.08in /  1018.5hPa South 10.0mph /  16.1km/h 20.0mph /  32.2km/h 53% 0.00in /  0mm 0.00 W/m2
02:29 50.1 °F /  10.1 °C 33.2 °F /  0.7 °C 30.08in /  1018.5hPa SSE 6.0mph /  9.7km/h 20.0mph /  32.2km/h 52% 0.00in /  0mm 0.00 W/m2
02:31 50.1 °F /  10.1 °C 33.2 °F /  0.7 °C 30.08in /  1018.5hPa South 6.0mph /  9.7km/h 13.0mph /  20.9km/h 52% 0.00in /  0mm 0.00 W/m2
02:32 50.1 °F /  10.1 °C 33.2 °F /  0.7 °C 30.08in /  1018.5hPa SE 10.0mph /  16.1km/h 14.0mph /  22.5km/h 52% 0.00in /  0mm 0.00 W/m2
02:33 50.1 °F /  10.1 °C 33.2 °F /  0.7 °C 30.08in /  1018.5hPa South 10.0mph /  16.1km/h 14.0mph /  22.5km/h 52% 0.00in /  0mm 0.00 W/m2
02:34 50.1 °F /  10.1 °C 33.2 °F /  0.7 °C 30.08in /  1018.5hPa South 7.0mph /  11.3km/h 14.0mph /  22.5km/h 52% 0.00in /  0mm 0.00 W/m2
02:36 50.1 °F /  10.1 °C 33.7 °F /  0.9 °C 30.07in /  1018.2hPa South 13.0mph /  20.9km/h 15.0mph /  24.1km/h 53% 0.00in /  0mm 0.00 W/m2
02:38 50.1 °F /  10.1 °C 33.2 °F /  0.7 °C 30.07in /  1018.2hPa South 17.0mph /  27.4km/h 17.0mph /  27.4km/h 52% 0.00in /  0mm 0.00 W/m2
02:39 50.1 °F /  10.1 °C 33.7 °F /  0.9 °C 30.07in /  1018.2hPa SE 6.0mph /  9.7km/h 17.0mph /  27.4km/h 53% 0.00in /  0mm 0.00 W/m2
02:42 50.0 °F /  10 °C 33.1 °F /  0.6 °C 30.07in /  1018.2hPa SSE 9.0mph /  14.5km/h 14.0mph /  22.5km/h 52% 0.00in /  0mm 0.00 W/m2
02:44 50.0 °F /  10 °C 33.1 °F /  0.6 °C 30.07in /  1018.2hPa South 4.0mph /  6.4km/h 15.0mph /  24.1km/h 52% 0.00in /  0mm 0.00 W/m2
02:45 50.0 °F /  10 °C 33.1 °F /  0.6 °C 30.07in /  1018.2hPa South 11.0mph /  17.7km/h 17.0mph /  27.4km/h 52% 0.00in /  0mm 0.00 W/m2
02:47 50.0 °F /  10 °C 33.1 °F /  0.6 °C 30.07in /  1018.2hPa South 13.0mph /  20.9km/h 17.0mph /  27.4km/h 52% 0.00in /  0mm 0.00 W/m2
02:49 50.0 °F /  10 °C 33.1 °F /  0.6 °C 30.07in /  1018.2hPa South 6.0mph /  9.7km/h 17.0mph /  27.4km/h 52% 0.00in /  0mm 0.00 W/m2
02:50 50.1 °F /  10.1 °C 33.2 °F /  0.7 °C 30.07in /  1018.2hPa SSE 10.0mph /  16.1km/h 11.0mph /  17.7km/h 52% 0.00in /  0mm 0.00 W/m2
02:52 50.1 °F /  10.1 °C 33.2 °F /  0.7 °C 30.07in /  1018.2hPa SSE 6.0mph /  9.7km/h 15.0mph /  24.1km/h 52% 0.00in /  0mm 0.00 W/m2
02:55 50.1 °F /  10.1 °C 33.2 °F /  0.7 °C 30.07in /  1018.2hPa South 12.0mph /  19.3km/h 17.0mph /  27.4km/h 52% 0.00in /  0mm 0.00 W/m2
02:56 50.2 °F /  10.1 °C 33.3 °F /  0.7 °C 30.07in /  1018.2hPa South 11.0mph /  17.7km/h 20.0mph /  32.2km/h 52% 0.00in /  0mm 0.00 W/m2
02:57 50.2 °F /  10.1 °C 33.3 °F /  0.7 °C 30.07in /  1018.2hPa South 5.0mph /  8km/h 20.0mph /  32.2km/h 52% 0.00in /  0mm 0.00 W/m2
02:58 50.2 °F /  10.1 °C 33.3 °F /  0.7 °C 30.07in /  1018.2hPa South 9.0mph /  14.5km/h 20.0mph /  32.2km/h 52% 0.00in /  0mm 0.00 W/m2
03:00 50.3 °F /  10.2 °C 33.4 °F /  0.8 °C 30.07in /  1018.2hPa SSW 14.0mph /  22.5km/h 14.0mph /  22.5km/h 52% 0.00in /  0mm 0.00 W/m2
03:01 50.3 °F /  10.2 °C 32.9 °F /  0.5 °C 30.07in /  1018.2hPa South 19.0mph /  30.6km/h 19.0mph /  30.6km/h 51% 0.00in /  0mm 0.00 W/m2
03:02 50.4 °F /  10.2 °C 33.0 °F /  0.6 °C 30.07in /  1018.2hPa SSE 11.0mph /  17.7km/h 19.0mph /  30.6km/h 51% 0.00in /  0mm 0.00 W/m2
03:04 50.5 °F /  10.3 °C 33.1 °F /  0.6 °C 30.07in /  1018.2hPa SSE 9.0mph /  14.5km/h 19.0mph /  30.6km/h 51% 0.00in /  0mm 0.00 W/m2
03:05 50.5 °F /  10.3 °C 33.1 °F /  0.6 °C 30.07in /  1018.2hPa South 10.0mph /  16.1km/h 19.0mph /  30.6km/h 51% 0.00in /  0mm 0.00 W/m2
03:06 50.5 °F /  10.3 °C 33.1 °F /  0.6 °C 30.07in /  1018.2hPa South 11.0mph /  17.7km/h 19.0mph /  30.6km/h 51% 0.00in /  0mm 0.00 W/m2
03:07 50.6 °F /  10.3 °C 33.2 °F /  0.7 °C 30.07in /  1018.2hPa SSE 11.0mph /  17.7km/h 19.0mph /  30.6km/h 51% 0.00in /  0mm 0.00 W/m2
03:08 50.6 °F /  10.3 °C 33.2 °F /  0.7 °C 30.07in /  1018.2hPa SSE 13.0mph /  20.9km/h 19.0mph /  30.6km/h 51% 0.00in /  0mm 0.00 W/m2
03:09 50.7 °F /  10.4 °C 33.2 °F /  0.7 °C 30.07in /  1018.2hPa South 4.0mph /  6.4km/h 19.0mph /  30.6km/h 51% 0.00in /  0mm 0.00 W/m2
03:10 50.7 °F /  10.4 °C 33.2 °F /  0.7 °C 30.07in /  1018.2hPa South 7.0mph /  11.3km/h 9.0mph /  14.5km/h 51% 0.00in /  0mm 0.00 W/m2
03:11 50.7 °F /  10.4 °C 33.2 °F /  0.7 °C 30.07in /  1018.2hPa South 15.0mph /  24.1km/h 21.0mph /  33.8km/h 51% 0.00in /  0mm 0.00 W/m2
03:12 50.7 °F /  10.4 °C 33.2 °F /  0.7 °C 30.07in /  1018.2hPa South 13.0mph /  20.9km/h 21.0mph /  33.8km/h 51% 0.00in /  0mm 0.00 W/m2
03:13 50.7 °F /  10.4 °C 33.2 °F /  0.7 °C 30.07in /  1018.2hPa South 10.0mph /  16.1km/h 21.0mph /  33.8km/h 51% 0.00in /  0mm 0.00 W/m2
03:15 50.8 °F /  10.4 °C 33.3 °F /  0.7 °C 30.07in /  1018.2hPa South 6.0mph /  9.7km/h 21.0mph /  33.8km/h 51% 0.00in /  0mm 0.00 W/m2
03:16 50.9 °F /  10.5 °C 33.4 °F /  0.8 °C 30.07in /  1018.2hPa SSW 15.0mph /  24.1km/h 21.0mph /  33.8km/h 51% 0.00in /  0mm 0.00 W/m2
03:17 50.9 °F /  10.5 °C 33.4 °F /  0.8 °C 30.07in /  1018.2hPa South 13.0mph /  20.9km/h 21.0mph /  33.8km/h 51% 0.00in /  0mm 0.00 W/m2
03:18 50.9 °F /  10.5 °C 33.4 °F /  0.8 °C 30.07in /  1018.2hPa SSW 16.0mph /  25.7km/h 21.0mph /  33.8km/h 51% 0.00in /  0mm 0.00 W/m2
03:20 51.0 °F /  10.6 °C 33.5 °F /  0.8 °C 30.07in /  1018.2hPa South 14.0mph /  22.5km/h 19.0mph /  30.6km/h 51% 0.00in /  0mm 0.00 W/m2
03:21 51.0 °F /  10.6 °C 33.5 °F /  0.8 °C 30.07in /  1018.2hPa SSW 14.0mph /  22.5km/h 19.0mph /  30.6km/h 51% 0.00in /  0mm 0.00 W/m2
03:22 51.0 °F /  10.6 °C 33.5 °F /  0.8 °C 30.07in /  1018.2hPa SSE 7.0mph /  11.3km/h 19.0mph /  30.6km/h 51% 0.00in /  0mm 0.00 W/m2
03:23 51.1 °F /  10.6 °C 33.6 °F /  0.9 °C 30.08in /  1018.5hPa SSE 17.0mph /  27.4km/h 19.0mph /  30.6km/h 51% 0.00in /  0mm 0.00 W/m2
03:26 51.1 °F /  10.6 °C 33.6 °F /  0.9 °C 30.08in /  1018.5hPa South 12.0mph /  19.3km/h 19.0mph /  30.6km/h 51% 0.00in /  0mm 0.00 W/m2
03:28 51.1 °F /  10.6 °C 33.6 °F /  0.9 °C 30.07in /  1018.2hPa SSE 7.0mph /  11.3km/h 19.0mph /  30.6km/h 51% 0.00in /  0mm 0.00 W/m2
03:29 51.1 °F /  10.6 °C 33.1 °F /  0.6 °C 30.07in /  1018.2hPa South 16.0mph /  25.7km/h 20.0mph /  32.2km/h 50% 0.00in /  0mm 0.00 W/m2
03:31 51.2 °F /  10.7 °C 33.2 °F /  0.7 °C 30.07in /  1018.2hPa SSE 17.0mph /  27.4km/h 18.0mph /  29km/h 50% 0.00in /  0mm 0.00 W/m2
03:32 51.2 °F /  10.7 °C 33.2 °F /  0.7 °C 30.07in /  1018.2hPa South 16.0mph /  25.7km/h 18.0mph /  29km/h 50% 0.00in /  0mm 0.00 W/m2
03:33 51.2 °F /  10.7 °C 33.2 °F /  0.7 °C 30.07in /  1018.2hPa South 12.0mph /  19.3km/h 22.0mph /  35.4km/h 50% 0.00in /  0mm 0.00 W/m2
03:35 51.3 °F /  10.7 °C 33.3 °F /  0.7 °C 30.07in /  1018.2hPa SSE 10.0mph /  16.1km/h 22.0mph /  35.4km/h 50% 0.00in /  0mm 0.00 W/m2
03:37 51.4 °F /  10.8 °C 33.4 °F /  0.8 °C 30.07in /  1018.2hPa South 20.0mph /  32.2km/h 22.0mph /  35.4km/h 50% 0.00in /  0mm 0.00 W/m2
03:38 51.4 °F /  10.8 °C 33.4 °F /  0.8 °C 30.07in /  1018.2hPa South 16.0mph /  25.7km/h 22.0mph /  35.4km/h 50% 0.00in /  0mm 0.00 W/m2
03:40 51.5 °F /  10.8 °C 33.5 °F /  0.8 °C 30.07in /  1018.2hPa SSE 10.0mph /  16.1km/h 18.0mph /  29km/h 50% 0.00in /  0mm 0.00 W/m2
03:42 51.6 °F /  10.9 °C 33.1 °F /  0.6 °C 30.07in /  1018.2hPa SSE 11.0mph /  17.7km/h 18.0mph /  29km/h 49% 0.00in /  0mm 0.00 W/m2
03:43 51.6 °F /  10.9 °C 33.6 °F /  0.9 °C 30.07in /  1018.2hPa SSW 10.0mph /  16.1km/h 18.0mph /  29km/h 50% 0.00in /  0mm 0.00 W/m2
03:45 51.7 °F /  10.9 °C 33.7 °F /  0.9 °C 30.07in /  1018.2hPa South 6.0mph /  9.7km/h 20.0mph /  32.2km/h 50% 0.00in /  0mm 0.00 W/m2
03:46 51.7 °F /  10.9 °C 33.2 °F /  0.7 °C 30.07in /  1018.2hPa SSW 19.0mph /  30.6km/h 20.0mph /  32.2km/h 49% 0.00in /  0mm 0.00 W/m2
03:47 51.7 °F /  10.9 °C 33.2 °F /  0.7 °C 30.07in /  1018.2hPa South 22.0mph /  35.4km/h 22.0mph /  35.4km/h 49% 0.00in /  0mm 0.00 W/m2
03:48 51.7 °F /  10.9 °C 33.2 °F /  0.7 °C 30.07in /  1018.2hPa South 12.0mph /  19.3km/h 25.0mph /  40.2km/h 49% 0.00in /  0mm 0.00 W/m2
03:50 51.8 °F /  11 °C 33.3 °F /  0.7 °C 30.07in /  1018.2hPa South 19.0mph /  30.6km/h 19.0mph /  30.6km/h 49% 0.00in /  0mm 0.00 W/m2
03:51 51.8 °F /  11 °C 33.3 °F /  0.7 °C 30.07in /  1018.2hPa SSE 10.0mph /  16.1km/h 19.0mph /  30.6km/h 49% 0.00in /  0mm 0.00 W/m2
03:52 51.8 °F /  11 °C 33.3 °F /  0.7 °C 30.07in /  1018.2hPa South 13.0mph /  20.9km/h 19.0mph /  30.6km/h 49% 0.00in /  0mm 0.00 W/m2
03:53 51.9 °F /  11.1 °C 33.4 °F /  0.8 °C 30.07in /  1018.2hPa South 5.0mph /  8km/h 22.0mph /  35.4km/h 49% 0.00in /  0mm 0.00 W/m2
03:55 51.9 °F /  11.1 °C 33.4 °F /  0.8 °C 30.07in /  1018.2hPa South 12.0mph /  19.3km/h 22.0mph /  35.4km/h 49% 0.00in /  0mm 0.00 W/m2
03:57 51.9 °F /  11.1 °C 33.4 °F /  0.8 °C 30.07in /  1018.2hPa SSE 12.0mph /  19.3km/h 22.0mph /  35.4km/h 49% 0.00in /  0mm 0.00 W/m2
03:58 51.9 °F /  11.1 °C 33.4 °F /  0.8 °C 30.08in /  1018.5hPa SSE 13.0mph /  20.9km/h 22.0mph /  35.4km/h 49% 0.00in /  0mm 0.00 W/m2
03:59 52.0 °F /  11.1 °C 33.5 °F /  0.8 °C 30.08in /  1018.5hPa SSE 11.0mph /  17.7km/h 25.0mph /  40.2km/h 49% 0.00in /  0mm 0.00 W/m2
04:00 52.0 °F /  11.1 °C 33.5 °F /  0.8 °C 30.08in /  1018.5hPa SSE 12.0mph /  19.3km/h 21.0mph /  33.8km/h 49% 0.00in /  0mm 0.00 W/m2
04:02 52.0 °F /  11.1 °C 33.5 °F /  0.8 °C 30.08in /  1018.5hPa SSE 16.0mph /  25.7km/h 21.0mph /  33.8km/h 49% 0.00in /  0mm 0.00 W/m2
04:03 52.0 °F /  11.1 °C 33.5 °F /  0.8 °C 30.08in /  1018.5hPa SSE 22.0mph /  35.4km/h 22.0mph /  35.4km/h 49% 0.00in /  0mm 0.00 W/m2
04:04 52.0 °F /  11.1 °C 33.5 °F /  0.8 °C 30.07in /  1018.2hPa South 9.0mph /  14.5km/h 24.0mph /  38.6km/h 49% 0.00in /  0mm 0.00 W/m2
04:05 52.0 °F /  11.1 °C 33.5 °F /  0.8 °C 30.08in /  1018.5hPa South 16.0mph /  25.7km/h 26.0mph /  41.8km/h 49% 0.00in /  0mm 0.00 W/m2
04:07 52.0 °F /  11.1 °C 33.5 °F /  0.8 °C 30.07in /  1018.2hPa South 11.0mph /  17.7km/h 26.0mph /  41.8km/h 49% 0.00in /  0mm 0.00 W/m2
04:08 52.0 °F /  11.1 °C 33.5 °F /  0.8 °C 30.08in /  1018.5hPa South 18.0mph /  29km/h 26.0mph /  41.8km/h 49% 0.00in /  0mm 0.00 W/m2
04:09 52.0 °F /  11.1 °C 33.5 °F /  0.8 °C 30.07in /  1018.2hPa SSE 17.0mph /  27.4km/h 26.0mph /  41.8km/h 49% 0.00in /  0mm 0.00 W/m2
04:11 51.9 °F /  11.1 °C 33.4 °F /  0.8 °C 30.08in /  1018.5hPa South 12.0mph /  19.3km/h 18.0mph /  29km/h 49% 0.00in /  0mm 0.00 W/m2
04:12 51.9 °F /  11.1 °C 33.4 °F /  0.8 °C 30.07in /  1018.2hPa SSE 10.0mph /  16.1km/h 20.0mph /  32.2km/h 49% 0.00in /  0mm 0.00 W/m2
04:13 52.0 °F /  11.1 °C 33.5 °F /  0.8 °C 30.07in /  1018.2hPa South 13.0mph /  20.9km/h 20.0mph /  32.2km/h 49% 0.00in /  0mm 0.00 W/m2
04:14 52.0 °F /  11.1 °C 33.5 °F /  0.8 °C 30.07in /  1018.2hPa SSW 11.0mph /  17.7km/h 20.0mph /  32.2km/h 49% 0.00in /  0mm 0.00 W/m2
04:16 51.9 °F /  11.1 °C 33.4 °F /  0.8 °C 30.07in /  1018.2hPa SSE 15.0mph /  24.1km/h 22.0mph /  35.4km/h 49% 0.00in /  0mm 0.00 W/m2
04:17 51.9 °F /  11.1 °C 33.4 °F /  0.8 °C 30.07in /  1018.2hPa SSE 17.0mph /  27.4km/h 22.0mph /  35.4km/h 49% 0.00in /  0mm 0.00 W/m2
04:18 51.9 °F /  11.1 °C 33.4 °F /  0.8 °C 30.08in /  1018.5hPa South 18.0mph /  29km/h 22.0mph /  35.4km/h 49% 0.00in /  0mm 0.00 W/m2
04:19 51.9 °F /  11.1 °C 33.9 °F /  1.1 °C 30.08in /  1018.5hPa South 10.0mph /  16.1km/h 22.0mph /  35.4km/h 50% 0.00in /  0mm 0.00 W/m2
04:23 51.9 °F /  11.1 °C 33.9 °F /  1.1 °C 30.07in /  1018.2hPa South 15.0mph /  24.1km/h 23.0mph /  37km/h 50% 0.00in /  0mm 0.00 W/m2
04:24 51.9 °F /  11.1 °C 33.9 °F /  1.1 °C 30.08in /  1018.5hPa South 13.0mph /  20.9km/h 23.0mph /  37km/h 50% 0.00in /  0mm 0.00 W/m2
04:25 51.8 °F /  11 °C 33.8 °F /  1 °C 30.07in /  1018.2hPa SSE 12.0mph /  19.3km/h 23.0mph /  37km/h 50% 0.00in /  0mm 0.00 W/m2
04:26 51.8 °F /  11 °C 33.8 °F /  1 °C 30.08in /  1018.5hPa South 13.0mph /  20.9km/h 25.0mph /  40.2km/h 50% 0.00in /  0mm 0.00 W/m2
04:28 51.8 °F /  11 °C 33.8 °F /  1 °C 30.08in /  1018.5hPa South 16.0mph /  25.7km/h 25.0mph /  40.2km/h 50% 0.00in /  0mm 0.00 W/m2
04:29 51.8 °F /  11 °C 33.8 °F /  1 °C 30.08in /  1018.5hPa South 14.0mph /  22.5km/h 25.0mph /  40.2km/h 50% 0.00in /  0mm 0.00 W/m2
04:30 51.8 °F /  11 °C 33.8 °F /  1 °C 30.08in /  1018.5hPa South 13.0mph /  20.9km/h 16.0mph /  25.7km/h 50% 0.00in /  0mm 0.00 W/m2
04:31 51.8 °F /  11 °C 33.8 °F /  1 °C 30.07in /  1018.2hPa South 10.0mph /  16.1km/h 19.0mph /  30.6km/h 50% 0.00in /  0mm 0.00 W/m2
04:33 51.8 °F /  11 °C 33.8 °F /  1 °C 30.08in /  1018.5hPa South 15.0mph /  24.1km/h 25.0mph /  40.2km/h 50% 0.00in /  0mm 0.00 W/m2
04:35 51.7 °F /  10.9 °C 33.7 °F /  0.9 °C 30.07in /  1018.2hPa South 10.0mph /  16.1km/h 25.0mph /  40.2km/h 50% 0.00in /  0mm 0.00 W/m2
04:36 51.7 °F /  10.9 °C 33.7 °F /  0.9 °C 30.08in /  1018.5hPa South 14.0mph /  22.5km/h 25.0mph /  40.2km/h 50% 0.00in /  0mm 0.00 W/m2
04:38 51.7 °F /  10.9 °C 33.7 °F /  0.9 °C 30.07in /  1018.2hPa SSE 10.0mph /  16.1km/h 25.0mph /  40.2km/h 50% 0.00in /  0mm 0.00 W/m2
04:39 51.7 °F /  10.9 °C 34.2 °F /  1.2 °C 30.07in /  1018.2hPa South 13.0mph /  20.9km/h 25.0mph /  40.2km/h 51% 0.00in /  0mm 0.00 W/m2
04:40 51.7 °F /  10.9 °C 34.2 °F /  1.2 °C 30.08in /  1018.5hPa SSE 19.0mph /  30.6km/h 19.0mph /  30.6km/h 51% 0.00in /  0mm 0.00 W/m2
04:41 51.7 °F /  10.9 °C 34.2 °F /  1.2 °C 30.08in /  1018.5hPa SSW 11.0mph /  17.7km/h 19.0mph /  30.6km/h 51% 0.00in /  0mm 0.00 W/m2
04:42 51.6 °F /  10.9 °C 34.1 °F /  1.2 °C 30.07in /  1018.2hPa South 12.0mph /  19.3km/h 24.0mph /  38.6km/h 51% 0.00in /  0mm 0.00 W/m2
04:44 51.6 °F /  10.9 °C 34.1 °F /  1.2 °C 30.07in /  1018.2hPa South 11.0mph /  17.7km/h 24.0mph /  38.6km/h 51% 0.00in /  0mm 0.00 W/m2
04:46 51.6 °F /  10.9 °C 34.1 °F /  1.2 °C 30.08in /  1018.5hPa South 12.0mph /  19.3km/h 24.0mph /  38.6km/h 51% 0.00in /  0mm 0.00 W/m2
04:47 51.5 °F /  10.8 °C 34.0 °F /  1.1 °C 30.08in /  1018.5hPa South 11.0mph /  17.7km/h 24.0mph /  38.6km/h 51% 0.00in /  0mm 0.00 W/m2
04:48 51.5 °F /  10.8 °C 34.0 °F /  1.1 °C 30.08in /  1018.5hPa SSW 18.0mph /  29km/h 24.0mph /  38.6km/h 51% 0.00in /  0mm 0.00 W/m2
04:49 51.5 °F /  10.8 °C 34.0 °F /  1.1 °C 30.07in /  1018.2hPa SSE 7.0mph /  11.3km/h 24.0mph /  38.6km/h 51% 0.00in /  0mm 0.00 W/m2
04:51 51.5 °F /  10.8 °C 34.0 °F /  1.1 °C 30.08in /  1018.5hPa SSE 12.0mph /  19.3km/h 25.0mph /  40.2km/h 51% 0.00in /  0mm 0.00 W/m2
04:53 51.5 °F /  10.8 °C 34.0 °F /  1.1 °C 30.07in /  1018.2hPa SSE 14.0mph /  22.5km/h 25.0mph /  40.2km/h 51% 0.00in /  0mm 0.00 W/m2
04:54 51.5 °F /  10.8 °C 34.0 °F /  1.1 °C 30.08in /  1018.5hPa South 13.0mph /  20.9km/h 25.0mph /  40.2km/h 51% 0.00in /  0mm 0.00 W/m2
04:56 51.5 °F /  10.8 °C 34.0 °F /  1.1 °C 30.07in /  1018.2hPa South 13.0mph /  20.9km/h 25.0mph /  40.2km/h 51% 0.00in /  0mm 0.00 W/m2
04:57 51.5 °F /  10.8 °C 34.0 °F /  1.1 °C 30.07in /  1018.2hPa SSE 10.0mph /  16.1km/h 25.0mph /  40.2km/h 51% 0.00in /  0mm 0.00 W/m2
04:58 51.5 °F /  10.8 °C 34.0 °F /  1.1 °C 30.08in /  1018.5hPa South 15.0mph /  24.1km/h 25.0mph /  40.2km/h 51% 0.00in /  0mm 0.00 W/m2
04:59 51.5 °F /  10.8 °C 34.0 °F /  1.1 °C 30.08in /  1018.5hPa South 16.0mph /  25.7km/h 25.0mph /  40.2km/h 51% 0.00in /  0mm 0.00 W/m2
05:01 51.5 °F /  10.8 °C 34.0 °F /  1.1 °C 30.08in /  1018.5hPa South 13.0mph /  20.9km/h 17.0mph /  27.4km/h 51% 0.00in /  0mm 0.00 W/m2
05:02 51.5 °F /  10.8 °C 34.0 °F /  1.1 °C 30.08in /  1018.5hPa South 6.0mph /  9.7km/h 17.0mph /  27.4km/h 51% 0.00in /  0mm 0.00 W/m2
05:03 51.5 °F /  10.8 °C 34.0 °F /  1.1 °C 30.08in /  1018.5hPa South 15.0mph /  24.1km/h 24.0mph /  38.6km/h 51% 0.00in /  0mm 0.00 W/m2
05:04 51.5 °F /  10.8 °C 34.0 °F /  1.1 °C 30.08in /  1018.5hPa SSW 11.0mph /  17.7km/h 24.0mph /  38.6km/h 51% 0.00in /  0mm 0.00 W/m2
05:06 51.6 °F /  10.9 °C 34.1 °F /  1.2 °C 30.08in /  1018.5hPa SSW 19.0mph /  30.6km/h 24.0mph /  38.6km/h 51% 0.00in /  0mm 0.00 W/m2
05:07 51.6 °F /  10.9 °C 34.1 °F /  1.2 °C 30.08in /  1018.5hPa South 6.0mph /  9.7km/h 24.0mph /  38.6km/h 51% 0.00in /  0mm 0.00 W/m2
05:08 51.6 °F /  10.9 °C 34.1 °F /  1.2 °C 30.08in /  1018.5hPa South 15.0mph /  24.1km/h 24.0mph /  38.6km/h 51% 0.00in /  0mm 0.00 W/m2
05:09 51.6 °F /  10.9 °C 34.1 °F /  1.2 °C 30.08in /  1018.5hPa South 11.0mph /  17.7km/h 24.0mph /  38.6km/h 51% 0.00in /  0mm 0.00 W/m2
05:12 51.6 °F /  10.9 °C 34.1 °F /  1.2 °C 30.08in /  1018.5hPa SSW 12.0mph /  19.3km/h 28.0mph /  45.1km/h 51% 0.00in /  0mm 0.00 W/m2
05:13 51.7 °F /  10.9 °C 34.2 °F /  1.2 °C 30.08in /  1018.5hPa South 15.0mph /  24.1km/h 28.0mph /  45.1km/h 51% 0.00in /  0mm 0.00 W/m2
05:14 51.7 °F /  10.9 °C 34.2 °F /  1.2 °C 30.08in /  1018.5hPa SSE 11.0mph /  17.7km/h 28.0mph /  45.1km/h 51% 0.00in /  0mm 0.00 W/m2
05:18 51.7 °F /  10.9 °C 34.2 °F /  1.2 °C 30.07in /  1018.2hPa South 12.0mph /  19.3km/h 28.0mph /  45.1km/h 51% 0.00in /  0mm 0.00 W/m2
05:19 51.7 °F /  10.9 °C 34.2 °F /  1.2 °C 30.08in /  1018.5hPa South 26.0mph /  41.8km/h 28.0mph /  45.1km/h 51% 0.00in /  0mm 0.00 W/m2
05:23 51.7 °F /  10.9 °C 34.2 °F /  1.2 °C 30.08in /  1018.5hPa South 18.0mph /  29km/h 23.0mph /  37km/h 51% 0.00in /  0mm 0.00 W/m2
05:24 51.7 °F /  10.9 °C 34.2 °F /  1.2 °C 30.08in /  1018.5hPa SSW 15.0mph /  24.1km/h 23.0mph /  37km/h 51% 0.00in /  0mm 0.00 W/m2
05:25 51.7 °F /  10.9 °C 34.2 °F /  1.2 °C 30.08in /  1018.5hPa SSE 10.0mph /  16.1km/h 23.0mph /  37km/h 51% 0.00in /  0mm 0.00 W/m2
05:29 51.7 °F /  10.9 °C 34.2 °F /  1.2 °C 30.08in /  1018.5hPa South 13.0mph /  20.9km/h 24.0mph /  38.6km/h 51% 0.00in /  0mm 0.00 W/m2
05:30 51.7 °F /  10.9 °C 34.2 °F /  1.2 °C 30.08in /  1018.5hPa SSE 19.0mph /  30.6km/h 24.0mph /  38.6km/h 51% 0.00in /  0mm 0.00 W/m2
05:31 51.6 °F /  10.9 °C 34.1 °F /  1.2 °C 30.08in /  1018.5hPa South 10.0mph /  16.1km/h 22.0mph /  35.4km/h 51% 0.00in /  0mm 0.00 W/m2
05:34 51.6 °F /  10.9 °C 34.1 °F /  1.2 °C 30.08in /  1018.5hPa South 26.0mph /  41.8km/h 26.0mph /  41.8km/h 51% 0.00in /  0mm 0.00 W/m2
05:35 51.7 °F /  10.9 °C 34.2 °F /  1.2 °C 30.08in /  1018.5hPa South 15.0mph /  24.1km/h 26.0mph /  41.8km/h 51% 0.00in /  0mm 0.00 W/m2
05:36 51.7 °F /  10.9 °C 34.2 °F /  1.2 °C 30.08in /  1018.5hPa SSE 11.0mph /  17.7km/h 26.0mph /  41.8km/h 51% 0.00in /  0mm 0.00 W/m2
05:39 51.7 °F /  10.9 °C 34.2 °F /  1.2 °C 30.07in /  1018.2hPa South 13.0mph /  20.9km/h 26.0mph /  41.8km/h 51% 0.00in /  0mm 0.00 W/m2
05:40 51.7 °F /  10.9 °C 34.2 °F /  1.2 °C 30.07in /  1018.2hPa SSW 17.0mph /  27.4km/h 18.0mph /  29km/h 51% 0.00in /  0mm 0.00 W/m2
05:41 51.7 °F /  10.9 °C 34.2 °F /  1.2 °C 30.07in /  1018.2hPa South 25.0mph /  40.2km/h 25.0mph /  40.2km/h 51% 0.00in /  0mm 0.00 W/m2
05:44 51.7 °F /  10.9 °C 34.2 °F /  1.2 °C 30.07in /  1018.2hPa South 16.0mph /  25.7km/h 25.0mph /  40.2km/h 51% 0.00in /  0mm 0.00 W/m2
05:45 51.7 °F /  10.9 °C 34.2 °F /  1.2 °C 30.08in /  1018.5hPa South 13.0mph /  20.9km/h 25.0mph /  40.2km/h 51% 0.00in /  0mm 0.00 W/m2
05:46 51.6 °F /  10.9 °C 34.1 °F /  1.2 °C 30.08in /  1018.5hPa SSW 16.0mph /  25.7km/h 26.0mph /  41.8km/h 51% 0.00in /  0mm 0.00 W/m2
05:48 51.7 °F /  10.9 °C 34.2 °F /  1.2 °C 30.08in /  1018.5hPa SSW 16.0mph /  25.7km/h 26.0mph /  41.8km/h 51% 0.00in /  0mm 0.00 W/m2
05:50 51.7 °F /  10.9 °C 34.2 °F /  1.2 °C 30.08in /  1018.5hPa SSE 11.0mph /  17.7km/h 26.0mph /  41.8km/h 51% 0.00in /  0mm 0.00 W/m2
05:51 51.7 °F /  10.9 °C 34.2 °F /  1.2 °C 30.08in /  1018.5hPa SSE 11.0mph /  17.7km/h 23.0mph /  37km/h 51% 0.00in /  0mm 0.00 W/m2
05:54 51.7 °F /  10.9 °C 34.2 °F /  1.2 °C 30.08in /  1018.5hPa South 16.0mph /  25.7km/h 23.0mph /  37km/h 51% 0.00in /  0mm 0.00 W/m2
05:55 51.7 °F /  10.9 °C 34.2 °F /  1.2 °C 30.08in /  1018.5hPa SE 14.0mph /  22.5km/h 24.0mph /  38.6km/h 51% 0.00in /  0mm 0.00 W/m2
05:56 51.7 °F /  10.9 °C 34.2 °F /  1.2 °C 30.08in /  1018.5hPa South 23.0mph /  37km/h 27.0mph /  43.5km/h 51% 0.00in /  0mm 0.00 W/m2
05:59 51.7 °F /  10.9 °C 34.2 °F /  1.2 °C 30.08in /  1018.5hPa SSE 24.0mph /  38.6km/h 31.0mph /  49.9km/h 51% 0.00in /  0mm 0.00 W/m2
06:00 51.7 °F /  10.9 °C 34.2 °F /  1.2 °C 30.08in /  1018.5hPa South 13.0mph /  20.9km/h 22.0mph /  35.4km/h 51% 0.00in /  0mm 0.00 W/m2
06:01 51.7 °F /  10.9 °C 34.2 °F /  1.2 °C 30.08in /  1018.5hPa South 18.0mph /  29km/h 22.0mph /  35.4km/h 51% 0.00in /  0mm 0.00 W/m2
06:02 51.7 °F /  10.9 °C 34.2 °F /  1.2 °C 30.08in /  1018.5hPa South 20.0mph /  32.2km/h 22.0mph /  35.4km/h 51% 0.00in /  0mm 0.00 W/m2
06:04 51.8 °F /  11 °C 34.3 °F /  1.3 °C 30.08in /  1018.5hPa SSE 10.0mph /  16.1km/h 24.0mph /  38.6km/h 51% 0.00in /  0mm 0.00 W/m2
06:05 51.7 °F /  10.9 °C 34.2 °F /  1.2 °C 30.08in /  1018.5hPa South 13.0mph /  20.9km/h 24.0mph /  38.6km/h 51% 0.00in /  0mm 0.00 W/m2
06:06 51.7 °F /  10.9 °C 34.2 °F /  1.2 °C 30.08in /  1018.5hPa SSE 16.0mph /  25.7km/h 24.0mph /  38.6km/h 51% 0.00in /  0mm 0.00 W/m2
06:07 51.7 °F /  10.9 °C 34.2 °F /  1.2 °C 30.08in /  1018.5hPa South 12.0mph /  19.3km/h 24.0mph /  38.6km/h 51% 0.00in /  0mm 0.00 W/m2
06:09 51.7 °F /  10.9 °C 34.2 °F /  1.2 °C 30.08in /  1018.5hPa South 6.0mph /  9.7km/h 28.0mph /  45.1km/h 51% 0.00in /  0mm 0.00 W/m2
06:10 51.8 °F /  11 °C 34.3 °F /  1.3 °C 30.08in /  1018.5hPa South 14.0mph /  22.5km/h 22.0mph /  35.4km/h 51% 0.00in /  0mm 0.00 W/m2
06:11 51.8 °F /  11 °C 34.3 °F /  1.3 °C 30.08in /  1018.5hPa SE 14.0mph /  22.5km/h 22.0mph /  35.4km/h 51% 0.00in /  0mm 0.00 W/m2
06:12 51.8 °F /  11 °C 34.3 °F /  1.3 °C 30.08in /  1018.5hPa South 13.0mph /  20.9km/h 22.0mph /  35.4km/h 51% 0.00in /  0mm 0.00 W/m2
06:14 51.9 °F /  11.1 °C 34.4 °F /  1.3 °C 30.08in /  1018.5hPa South 24.0mph /  38.6km/h 24.0mph /  38.6km/h 51% 0.00in /  0mm 0.00 W/m2
06:15 51.9 °F /  11.1 °C 34.4 °F /  1.3 °C 30.08in /  1018.5hPa SSW 16.0mph /  25.7km/h 24.0mph /  38.6km/h 51% 0.00in /  0mm 0.00 W/m2
06:16 51.9 °F /  11.1 °C 34.4 °F /  1.3 °C 30.08in /  1018.5hPa South 17.0mph /  27.4km/h 24.0mph /  38.6km/h 51% 0.00in /  0mm 0.00 W/m2
06:17 51.9 °F /  11.1 °C 34.4 °F /  1.3 °C 30.08in /  1018.5hPa South 20.0mph /  32.2km/h 25.0mph /  40.2km/h 51% 0.00in /  0mm 0.00 W/m2
06:19 51.9 °F /  11.1 °C 34.4 °F /  1.3 °C 30.08in /  1018.5hPa SSE 13.0mph /  20.9km/h 25.0mph /  40.2km/h 51% 0.00in /  0mm 0.00 W/m2
06:21 51.9 °F /  11.1 °C 34.4 °F /  1.3 °C 30.08in /  1018.5hPa SSE 14.0mph /  22.5km/h 19.0mph /  30.6km/h 51% 0.00in /  0mm 0.00 W/m2
06:22 51.9 °F /  11.1 °C 34.4 °F /  1.3 °C 30.08in /  1018.5hPa South 13.0mph /  20.9km/h 29.0mph /  46.7km/h 51% 0.00in /  0mm 0.00 W/m2
06:23 51.9 °F /  11.1 °C 34.4 °F /  1.3 °C 30.08in /  1018.5hPa SSW 18.0mph /  29km/h 29.0mph /  46.7km/h 51% 0.00in /  0mm 0.00 W/m2
06:25 51.9 °F /  11.1 °C 34.4 °F /  1.3 °C 30.08in /  1018.5hPa SSE 20.0mph /  32.2km/h 29.0mph /  46.7km/h 51% 0.00in /  0mm 0.00 W/m2
06:26 51.9 °F /  11.1 °C 34.4 °F /  1.3 °C 30.08in /  1018.5hPa South 27.0mph /  43.5km/h 30.0mph /  48.3km/h 51% 0.00in /  0mm 0.00 W/m2
06:27 51.9 °F /  11.1 °C 34.4 °F /  1.3 °C 30.08in /  1018.5hPa South 18.0mph /  29km/h 30.0mph /  48.3km/h 51% 0.00in /  0mm 0.00 W/m2
06:29 52.0 °F /  11.1 °C 34.5 °F /  1.4 °C 30.08in /  1018.5hPa South 7.0mph /  11.3km/h 30.0mph /  48.3km/h 51% 0.00in /  0mm 5.00 W/m2
06:32 52.0 °F /  11.1 °C 34.5 °F /  1.4 °C 30.08in /  1018.5hPa South 22.0mph /  35.4km/h 25.0mph /  40.2km/h 51% 0.00in /  0mm 5.00 W/m2
06:33 52.0 °F /  11.1 °C 34.5 °F /  1.4 °C 30.08in /  1018.5hPa South 14.0mph /  22.5km/h 25.0mph /  40.2km/h 51% 0.00in /  0mm 5.00 W/m2
06:34 52.0 °F /  11.1 °C 34.5 °F /  1.4 °C 30.07in /  1018.2hPa South 5.0mph /  8km/h 25.0mph /  40.2km/h 51% 0.00in /  0mm 7.00 W/m2
06:35 52.0 °F /  11.1 °C 34.9 °F /  1.6 °C 30.07in /  1018.2hPa South 18.0mph /  29km/h 25.0mph /  40.2km/h 52% 0.00in /  0mm 7.00 W/m2
06:37 52.0 °F /  11.1 °C 34.5 °F /  1.4 °C 30.08in /  1018.5hPa ESE 9.0mph /  14.5km/h 25.0mph /  40.2km/h 51% 0.00in /  0mm 9.00 W/m2
06:38 52.0 °F /  11.1 °C 34.9 °F /  1.6 °C 30.08in /  1018.5hPa South 15.0mph /  24.1km/h 25.0mph /  40.2km/h 52% 0.00in /  0mm 9.00 W/m2
06:39 52.0 °F /  11.1 °C 34.5 °F /  1.4 °C 30.08in /  1018.5hPa South 22.0mph /  35.4km/h 25.0mph /  40.2km/h 51% 0.00in /  0mm 11.00 W/m2
06:40 52.0 °F /  11.1 °C 34.9 °F /  1.6 °C 30.08in /  1018.5hPa SSE 16.0mph /  25.7km/h 20.0mph /  32.2km/h 52% 0.00in /  0mm 11.00 W/m2
06:42 52.0 °F /  11.1 °C 34.9 °F /  1.6 °C 30.08in /  1018.5hPa SSW 10.0mph /  16.1km/h 21.0mph /  33.8km/h 52% 0.00in /  0mm 12.00 W/m2
06:43 52.0 °F /  11.1 °C 34.9 °F /  1.6 °C 30.08in /  1018.5hPa SSW 16.0mph /  25.7km/h 26.0mph /  41.8km/h 52% 0.00in /  0mm 12.00 W/m2
06:45 52.0 °F /  11.1 °C 34.9 °F /  1.6 °C 30.08in /  1018.5hPa SSE 14.0mph /  22.5km/h 26.0mph /  41.8km/h 52% 0.00in /  0mm 14.00 W/m2
06:46 52.0 °F /  11.1 °C 34.9 °F /  1.6 °C 30.08in /  1018.5hPa South 21.0mph /  33.8km/h 26.0mph /  41.8km/h 52% 0.00in /  0mm 14.00 W/m2
06:48 52.0 °F /  11.1 °C 34.9 °F /  1.6 °C 30.08in /  1018.5hPa South 17.0mph /  27.4km/h 26.0mph /  41.8km/h 52% 0.00in /  0mm 12.00 W/m2
06:50 52.0 °F /  11.1 °C 34.9 °F /  1.6 °C 30.08in /  1018.5hPa South 23.0mph /  37km/h 27.0mph /  43.5km/h 52% 0.00in /  0mm 12.00 W/m2
06:52 52.0 °F /  11.1 °C 34.9 °F /  1.6 °C 30.07in /  1018.2hPa SSE 11.0mph /  17.7km/h 24.0mph /  38.6km/h 52% 0.00in /  0mm 11.00 W/m2
06:53 52.0 °F /  11.1 °C 34.9 °F /  1.6 °C 30.08in /  1018.5hPa South 10.0mph /  16.1km/h 24.0mph /  38.6km/h 52% 0.00in /  0mm 11.00 W/m2
06:55 52.0 °F /  11.1 °C 34.9 °F /  1.6 °C 30.08in /  1018.5hPa South 18.0mph /  29km/h 25.0mph /  40.2km/h 52% 0.00in /  0mm 11.00 W/m2
06:56 52.0 °F /  11.1 °C 34.9 °F /  1.6 °C 30.08in /  1018.5hPa SSW 14.0mph /  22.5km/h 25.0mph /  40.2km/h 52% 0.00in /  0mm 11.00 W/m2
06:57 52.0 °F /  11.1 °C 34.9 °F /  1.6 °C 30.08in /  1018.5hPa South 21.0mph /  33.8km/h 29.0mph /  46.7km/h 52% 0.00in /  0mm 11.00 W/m2
06:58 52.0 °F /  11.1 °C 34.9 °F /  1.6 °C 30.08in /  1018.5hPa SSW 16.0mph /  25.7km/h 29.0mph /  46.7km/h 52% 0.00in /  0mm 11.00 W/m2
07:00 52.0 °F /  11.1 °C 34.9 °F /  1.6 °C 30.08in /  1018.5hPa South 16.0mph /  25.7km/h 16.0mph /  25.7km/h 52% 0.00in /  0mm 9.00 W/m2
07:01 52.0 °F /  11.1 °C 35.4 °F /  1.9 °C 30.08in /  1018.5hPa South 12.0mph /  19.3km/h 16.0mph /  25.7km/h 53% 0.00in /  0mm 9.00 W/m2
07:02 52.0 °F /  11.1 °C 34.9 °F /  1.6 °C 30.08in /  1018.5hPa South 6.0mph /  9.7km/h 25.0mph /  40.2km/h 52% 0.00in /  0mm 9.00 W/m2
07:03 52.0 °F /  11.1 °C 34.9 °F /  1.6 °C 30.08in /  1018.5hPa SSE 17.0mph /  27.4km/h 25.0mph /  40.2km/h 52% 0.00in /  0mm 11.00 W/m2
07:05 52.0 °F /  11.1 °C 34.9 °F /  1.6 °C 30.08in /  1018.5hPa SSE 18.0mph /  29km/h 35.0mph /  56.3km/h 52% 0.00in /  0mm 12.00 W/m2
07:06 52.0 °F /  11.1 °C 34.9 °F /  1.6 °C 30.08in /  1018.5hPa South 13.0mph /  20.9km/h 35.0mph /  56.3km/h 52% 0.00in /  0mm 14.00 W/m2
07:07 52.0 °F /  11.1 °C 35.4 °F /  1.9 °C 30.08in /  1018.5hPa South 17.0mph /  27.4km/h 35.0mph /  56.3km/h 53% 0.00in /  0mm 14.00 W/m2
07:08 52.0 °F /  11.1 °C 35.4 °F /  1.9 °C 30.08in /  1018.5hPa South 20.0mph /  32.2km/h 35.0mph /  56.3km/h 53% 0.00in /  0mm 16.00 W/m2
07:10 52.0 °F /  11.1 °C 35.4 °F /  1.9 °C 30.07in /  1018.2hPa South 17.0mph /  27.4km/h 17.0mph /  27.4km/h 53% 0.00in /  0mm 21.00 W/m2
07:12 52.0 °F /  11.1 °C 35.4 °F /  1.9 °C 30.07in /  1018.2hPa South 24.0mph /  38.6km/h 26.0mph /  41.8km/h 53% 0.00in /  0mm 28.00 W/m2
07:13 52.0 °F /  11.1 °C 35.4 °F /  1.9 °C 30.07in /  1018.2hPa SSE 13.0mph /  20.9km/h 26.0mph /  41.8km/h 53% 0.00in /  0mm 33.00 W/m2
07:15 52.0 °F /  11.1 °C 35.4 °F /  1.9 °C 30.07in /  1018.2hPa South 15.0mph /  24.1km/h 26.0mph /  41.8km/h 53% 0.00in /  0mm 39.00 W/m2
07:17 52.0 °F /  11.1 °C 35.4 °F /  1.9 °C 30.07in /  1018.2hPa South 14.0mph /  22.5km/h 26.0mph /  41.8km/h 53% 0.00in /  0mm 42.00 W/m2
07:19 52.0 °F /  11.1 °C 35.9 °F /  2.2 °C 30.07in /  1018.2hPa South 24.0mph /  38.6km/h 29.0mph /  46.7km/h 54% 0.00in /  0mm 46.00 W/m2
07:21 52.0 °F /  11.1 °C 35.9 °F /  2.2 °C 30.07in /  1018.2hPa South 21.0mph /  33.8km/h 21.0mph /  33.8km/h 54% 0.00in /  0mm 42.00 W/m2
07:22 52.0 °F /  11.1 °C 35.9 °F /  2.2 °C 30.07in /  1018.2hPa SSE 14.0mph /  22.5km/h 21.0mph /  33.8km/h 54% 0.00in /  0mm 42.00 W/m2
07:23 52.0 °F /  11.1 °C 35.9 °F /  2.2 °C 30.07in /  1018.2hPa SSE 22.0mph /  35.4km/h 23.0mph /  37km/h 54% 0.00in /  0mm 42.00 W/m2
07:24 52.0 °F /  11.1 °C 35.9 °F /  2.2 °C 30.07in /  1018.2hPa SSE 12.0mph /  19.3km/h 27.0mph /  43.5km/h 54% 0.00in /  0mm 56.00 W/m2
07:26 52.1 °F /  11.2 °C 36.0 °F /  2.2 °C 30.07in /  1018.2hPa South 20.0mph /  32.2km/h 29.0mph /  46.7km/h 54% 0.00in /  0mm 54.00 W/m2
07:27 52.1 °F /  11.2 °C 36.0 °F /  2.2 °C 30.07in /  1018.2hPa South 19.0mph /  30.6km/h 29.0mph /  46.7km/h 54% 0.00in /  0mm 56.00 W/m2
07:28 52.1 °F /  11.2 °C 36.0 °F /  2.2 °C 30.07in /  1018.2hPa SSW 23.0mph /  37km/h 29.0mph /  46.7km/h 54% 0.00in /  0mm 54.00 W/m2
07:29 52.1 °F /  11.2 °C 36.0 °F /  2.2 °C 30.07in /  1018.2hPa South 11.0mph /  17.7km/h 29.0mph /  46.7km/h 54% 0.00in /  0mm 54.00 W/m2
07:33 52.1 °F /  11.2 °C 36.0 °F /  2.2 °C 30.07in /  1018.2hPa South 15.0mph /  24.1km/h 26.0mph /  41.8km/h 54% 0.00in /  0mm 63.00 W/m2
07:34 52.1 °F /  11.2 °C 36.0 °F /  2.2 °C 30.07in /  1018.2hPa South 16.0mph /  25.7km/h 26.0mph /  41.8km/h 54% 0.00in /  0mm 67.00 W/m2
07:38 52.3 °F /  11.3 °C 36.2 °F /  2.3 °C 30.07in /  1018.2hPa South 20.0mph /  32.2km/h 26.0mph /  41.8km/h 54% 0.00in /  0mm 49.00 W/m2
07:39 52.3 °F /  11.3 °C 36.2 °F /  2.3 °C 30.07in /  1018.2hPa South 23.0mph /  37km/h 32.0mph /  51.5km/h 54% 0.00in /  0mm 46.00 W/m2
07:40 52.3 °F /  11.3 °C 36.2 °F /  2.3 °C 30.07in /  1018.2hPa SSW 12.0mph /  19.3km/h 15.0mph /  24.1km/h 54% 0.00in /  0mm 46.00 W/m2
07:43 52.4 °F /  11.3 °C 36.3 °F /  2.4 °C 30.07in /  1018.2hPa SSE 16.0mph /  25.7km/h 27.0mph /  43.5km/h 54% 0.00in /  0mm 49.00 W/m2
07:44 52.4 °F /  11.3 °C 36.3 °F /  2.4 °C 30.07in /  1018.2hPa SSE 16.0mph /  25.7km/h 27.0mph /  43.5km/h 54% 0.00in /  0mm 53.00 W/m2
07:45 52.4 °F /  11.3 °C 36.3 °F /  2.4 °C 30.07in /  1018.2hPa SSE 18.0mph /  29km/h 27.0mph /  43.5km/h 54% 0.00in /  0mm 58.00 W/m2
07:48 52.4 °F /  11.3 °C 36.3 °F /  2.4 °C 30.07in /  1018.2hPa SSE 15.0mph /  24.1km/h 27.0mph /  43.5km/h 54% 0.00in /  0mm 70.00 W/m2
07:49 52.4 °F /  11.3 °C 36.3 °F /  2.4 °C 30.07in /  1018.2hPa South 26.0mph /  41.8km/h 27.0mph /  43.5km/h 54% 0.00in /  0mm 74.00 W/m2
07:50 52.4 °F /  11.3 °C 36.3 °F /  2.4 °C 30.06in /  1017.8hPa South 11.0mph /  17.7km/h 26.0mph /  41.8km/h 54% 0.00in /  0mm 81.00 W/m2
07:52 52.5 °F /  11.4 °C 36.3 °F /  2.4 °C 30.07in /  1018.2hPa SSW 21.0mph /  33.8km/h 31.0mph /  49.9km/h 54% 0.00in /  0mm 86.00 W/m2
07:53 52.5 °F /  11.4 °C 36.3 °F /  2.4 °C 30.07in /  1018.2hPa South 14.0mph /  22.5km/h 31.0mph /  49.9km/h 54% 0.00in /  0mm 90.00 W/m2
07:54 52.5 °F /  11.4 °C 36.3 °F /  2.4 °C 30.07in /  1018.2hPa South 19.0mph /  30.6km/h 31.0mph /  49.9km/h 54% 0.00in /  0mm 88.00 W/m2
07:55 52.6 °F /  11.4 °C 36.9 °F /  2.7 °C 30.07in /  1018.2hPa South 17.0mph /  27.4km/h 31.0mph /  49.9km/h 55% 0.00in /  0mm 88.00 W/m2
07:57 52.6 °F /  11.4 °C 36.5 °F /  2.5 °C 30.06in /  1017.8hPa South 20.0mph /  32.2km/h 31.0mph /  49.9km/h 54% 0.00in /  0mm 86.00 W/m2
07:58 52.7 °F /  11.5 °C 36.5 °F /  2.5 °C 30.07in /  1018.2hPa South 18.0mph /  29km/h 31.0mph /  49.9km/h 54% 0.00in /  0mm 77.00 W/m2
07:59 52.8 °F /  11.6 °C 36.6 °F /  2.6 °C 30.06in /  1017.8hPa South 11.0mph /  17.7km/h 31.0mph /  49.9km/h 54% 0.00in /  0mm 83.00 W/m2
08:00 52.8 °F /  11.6 °C 36.6 °F /  2.6 °C 30.07in /  1018.2hPa SSE 12.0mph /  19.3km/h 14.0mph /  22.5km/h 54% 0.00in /  0mm 90.00 W/m2
08:01 52.8 °F /  11.6 °C 36.6 °F /  2.6 °C 30.07in /  1018.2hPa SSE 18.0mph /  29km/h 26.0mph /  41.8km/h 54% 0.00in /  0mm 90.00 W/m2
08:02 52.9 °F /  11.6 °C 36.7 °F /  2.6 °C 30.06in /  1017.8hPa SSE 11.0mph /  17.7km/h 26.0mph /  41.8km/h 54% 0.00in /  0mm 91.00 W/m2
08:03 52.9 °F /  11.6 °C 36.7 °F /  2.6 °C 30.06in /  1017.8hPa SSW 13.0mph /  20.9km/h 30.0mph /  48.3km/h 54% 0.00in /  0mm 91.00 W/m2
08:04 53.0 °F /  11.7 °C 36.8 °F /  2.7 °C 30.07in /  1018.2hPa SSE 9.0mph /  14.5km/h 30.0mph /  48.3km/h 54% 0.00in /  0mm 98.00 W/m2
08:05 53.0 °F /  11.7 °C 36.8 °F /  2.7 °C 30.06in /  1017.8hPa SSW 22.0mph /  35.4km/h 30.0mph /  48.3km/h 54% 0.00in /  0mm 107.00 W/m2
08:06 53.0 °F /  11.7 °C 36.8 °F /  2.7 °C 30.06in /  1017.8hPa SSE 7.0mph /  11.3km/h 30.0mph /  48.3km/h 54% 0.00in /  0mm 113.00 W/m2
08:07 53.0 °F /  11.7 °C 36.8 °F /  2.7 °C 30.06in /  1017.8hPa SSW 7.0mph /  11.3km/h 30.0mph /  48.3km/h 54% 0.00in /  0mm 118.00 W/m2
08:09 53.1 °F /  11.7 °C 36.9 °F /  2.7 °C 30.07in /  1018.2hPa South 23.0mph /  37km/h 30.0mph /  48.3km/h 54% 0.00in /  0mm 127.00 W/m2
08:10 53.2 °F /  11.8 °C 37.5 °F /  3.1 °C 30.06in /  1017.8hPa South 23.0mph /  37km/h 27.0mph /  43.5km/h 55% 0.00in /  0mm 118.00 W/m2
08:11 53.2 °F /  11.8 °C 37.5 °F /  3.1 °C 30.06in /  1017.8hPa South 5.0mph /  8km/h 27.0mph /  43.5km/h 55% 0.00in /  0mm 105.00 W/m2
08:12 53.3 °F /  11.8 °C 37.6 °F /  3.1 °C 30.06in /  1017.8hPa South 24.0mph /  38.6km/h 27.0mph /  43.5km/h 55% 0.00in /  0mm 118.00 W/m2
08:14 53.4 °F /  11.9 °C 37.2 °F /  2.9 °C 30.07in /  1018.2hPa South 11.0mph /  17.7km/h 27.0mph /  43.5km/h 54% 0.00in /  0mm 118.00 W/m2
08:15 53.4 °F /  11.9 °C 37.7 °F /  3.2 °C 30.06in /  1017.8hPa South 16.0mph /  25.7km/h 27.0mph /  43.5km/h 55% 0.00in /  0mm 105.00 W/m2
08:16 53.5 °F /  11.9 °C 37.8 °F /  3.2 °C 30.06in /  1017.8hPa South 14.0mph /  22.5km/h 27.0mph /  43.5km/h 55% 0.00in /  0mm 109.00 W/m2
08:18 53.6 °F /  12 °C 37.8 °F /  3.2 °C 30.07in /  1018.2hPa South 19.0mph /  30.6km/h 27.0mph /  43.5km/h 55% 0.00in /  0mm 127.00 W/m2
08:19 53.7 °F /  12.1 °C 37.9 °F /  3.3 °C 30.06in /  1017.8hPa South 20.0mph /  32.2km/h 28.0mph /  45.1km/h 55% 0.00in /  0mm 120.00 W/m2
08:20 53.8 °F /  12.1 °C 38.0 °F /  3.3 °C 30.06in /  1017.8hPa SSE 7.0mph /  11.3km/h 14.0mph /  22.5km/h 55% 0.00in /  0mm 116.00 W/m2
08:21 53.9 °F /  12.2 °C 38.1 °F /  3.4 °C 30.06in /  1017.8hPa South 18.0mph /  29km/h 21.0mph /  33.8km/h 55% 0.00in /  0mm 120.00 W/m2
08:23 54.0 °F /  12.2 °C 37.8 °F /  3.2 °C 30.06in /  1017.8hPa SSW 14.0mph /  22.5km/h 27.0mph /  43.5km/h 54% 0.00in /  0mm 98.00 W/m2
08:24 54.1 °F /  12.3 °C 37.8 °F /  3.2 °C 30.07in /  1018.2hPa South 14.0mph /  22.5km/h 27.0mph /  43.5km/h 54% 0.00in /  0mm 97.00 W/m2
08:25 54.1 °F /  12.3 °C 37.8 °F /  3.2 °C 30.06in /  1017.8hPa South 24.0mph /  38.6km/h 27.0mph /  43.5km/h 54% 0.00in /  0mm 97.00 W/m2
08:27 54.2 °F /  12.3 °C 38.4 °F /  3.6 °C 30.06in /  1017.8hPa South 15.0mph /  24.1km/h 27.0mph /  43.5km/h 55% 0.00in /  0mm 102.00 W/m2
08:28 54.3 °F /  12.4 °C 38.5 °F /  3.6 °C 30.06in /  1017.8hPa South 19.0mph /  30.6km/h 27.0mph /  43.5km/h 55% 0.00in /  0mm 114.00 W/m2
08:29 54.3 °F /  12.4 °C 38.0 °F /  3.3 °C 30.06in /  1017.8hPa South 12.0mph /  19.3km/h 32.0mph /  51.5km/h 54% 0.00in /  0mm 120.00 W/m2
08:30 54.3 °F /  12.4 °C 38.0 °F /  3.3 °C 30.06in /  1017.8hPa South 11.0mph /  17.7km/h 32.0mph /  51.5km/h 54% 0.00in /  0mm 120.00 W/m2
08:32 54.6 °F /  12.6 °C 38.3 °F /  3.5 °C 30.07in /  1018.2hPa SSW 16.0mph /  25.7km/h 34.0mph /  54.7km/h 54% 0.00in /  0mm 116.00 W/m2
08:35 54.7 °F /  12.6 °C 38.4 °F /  3.6 °C 30.07in /  1018.2hPa SSW 16.0mph /  25.7km/h 34.0mph /  54.7km/h 54% 0.00in /  0mm 139.00 W/m2
08:37 54.9 °F /  12.7 °C 38.6 °F /  3.7 °C 30.06in /  1017.8hPa South 15.0mph /  24.1km/h 34.0mph /  54.7km/h 54% 0.00in /  0mm 148.00 W/m2
08:40 55.1 °F /  12.8 °C 38.8 °F /  3.8 °C 30.06in /  1017.8hPa SSE 21.0mph /  33.8km/h 31.0mph /  49.9km/h 54% 0.00in /  0mm 167.00 W/m2
08:43 55.3 °F /  12.9 °C 39.4 °F /  4.1 °C 30.06in /  1017.8hPa SSW 24.0mph /  38.6km/h 31.0mph /  49.9km/h 55% 0.00in /  0mm 200.00 W/m2
08:45 55.5 °F /  13.1 °C 39.6 °F /  4.2 °C 30.06in /  1017.8hPa South 25.0mph /  40.2km/h 31.0mph /  49.9km/h 55% 0.00in /  0mm 202.00 W/m2
08:46 55.6 °F /  13.1 °C 40.2 °F /  4.6 °C 30.06in /  1017.8hPa South 18.0mph /  29km/h 32.0mph /  51.5km/h 56% 0.00in /  0mm 202.00 W/m2
08:48 55.8 °F /  13.2 °C 39.4 °F /  4.1 °C 30.06in /  1017.8hPa SSW 14.0mph /  22.5km/h 32.0mph /  51.5km/h 54% 0.00in /  0mm 220.00 W/m2
08:50 56.0 °F /  13.3 °C 39.6 °F /  4.2 °C 30.06in /  1017.8hPa South 31.0mph /  49.9km/h 31.0mph /  49.9km/h 54% 0.00in /  0mm 202.00 W/m2
08:51 56.1 °F /  13.4 °C 39.7 °F /  4.3 °C 30.06in /  1017.8hPa SSW 13.0mph /  20.9km/h 31.0mph /  49.9km/h 54% 0.00in /  0mm 202.00 W/m2
08:52 56.2 °F /  13.4 °C 39.8 °F /  4.3 °C 30.06in /  1017.8hPa SSE 13.0mph /  20.9km/h 31.0mph /  49.9km/h 54% 0.00in /  0mm 381.00 W/m2
08:53 56.3 °F /  13.5 °C 39.9 °F /  4.4 °C 30.06in /  1017.8hPa South 25.0mph /  40.2km/h 31.0mph /  49.9km/h 54% 0.00in /  0mm 185.00 W/m2
08:55 56.4 °F /  13.6 °C 40.0 °F /  4.4 °C 30.05in /  1017.5hPa SSE 9.0mph /  14.5km/h 31.0mph /  49.9km/h 54% 0.00in /  0mm 292.00 W/m2
08:56 56.5 °F /  13.6 °C 40.1 °F /  4.5 °C 30.05in /  1017.5hPa South 12.0mph /  19.3km/h 31.0mph /  49.9km/h 54% 0.00in /  0mm 292.00 W/m2
08:57 56.5 °F /  13.6 °C 40.1 °F /  4.5 °C 30.05in /  1017.5hPa SE 18.0mph /  29km/h 31.0mph /  49.9km/h 54% 0.00in /  0mm 209.00 W/m2
08:58 56.6 °F /  13.7 °C 40.2 °F /  4.6 °C 30.05in /  1017.5hPa South 13.0mph /  20.9km/h 31.0mph /  49.9km/h 54% 0.00in /  0mm 195.00 W/m2
09:01 56.8 °F /  13.8 °C 40.3 °F /  4.6 °C 30.05in /  1017.5hPa South 9.0mph /  14.5km/h 28.0mph /  45.1km/h 54% 0.00in /  0mm 457.00 W/m2
09:02 57.0 °F /  13.9 °C 40.5 °F /  4.7 °C 30.05in /  1017.5hPa SSW 11.0mph /  17.7km/h 28.0mph /  45.1km/h 54% 0.00in /  0mm 457.00 W/m2
09:04 57.1 °F /  13.9 °C 40.2 °F /  4.6 °C 30.05in /  1017.5hPa SSE 15.0mph /  24.1km/h 29.0mph /  46.7km/h 53% 0.00in /  0mm 457.00 W/m2
09:06 57.3 °F /  14.1 °C 40.3 °F /  4.6 °C 30.05in /  1017.5hPa South 12.0mph /  19.3km/h 29.0mph /  46.7km/h 53% 0.00in /  0mm 234.00 W/m2
09:07 57.3 °F /  14.1 °C 40.3 °F /  4.6 °C 30.05in /  1017.5hPa South 14.0mph /  22.5km/h 29.0mph /  46.7km/h 53% 0.00in /  0mm 320.00 W/m2
09:09 57.4 °F /  14.1 °C 40.4 °F /  4.7 °C 30.05in /  1017.5hPa SSW 14.0mph /  22.5km/h 30.0mph /  48.3km/h 53% 0.00in /  0mm 258.00 W/m2
09:11 57.7 °F /  14.3 °C 40.7 °F /  4.8 °C 30.05in /  1017.5hPa SSE 23.0mph /  37km/h 29.0mph /  46.7km/h 53% 0.00in /  0mm 459.00 W/m2
09:12 57.8 °F /  14.3 °C 40.8 °F /  4.9 °C 30.05in /  1017.5hPa SSE 32.0mph /  51.5km/h 32.0mph /  51.5km/h 53% 0.00in /  0mm 464.00 W/m2
09:14 58.0 °F /  14.4 °C 40.5 °F /  4.7 °C 30.05in /  1017.5hPa South 26.0mph /  41.8km/h 33.0mph /  53.1km/h 52% 0.00in /  0mm 483.00 W/m2
09:16 58.2 °F /  14.6 °C 41.2 °F /  5.1 °C 30.05in /  1017.5hPa SSW 17.0mph /  27.4km/h 33.0mph /  53.1km/h 53% 0.00in /  0mm 482.00 W/m2
09:17 58.3 °F /  14.6 °C 40.8 °F /  4.9 °C 30.05in /  1017.5hPa South 26.0mph /  41.8km/h 33.0mph /  53.1km/h 52% 0.00in /  0mm 482.00 W/m2
09:19 58.5 °F /  14.7 °C 41.0 °F /  5 °C 30.05in /  1017.5hPa South 25.0mph /  40.2km/h 34.0mph /  54.7km/h 52% 0.00in /  0mm 577.00 W/m2
09:20 58.5 °F /  14.7 °C 41.0 °F /  5 °C 30.05in /  1017.5hPa South 24.0mph /  38.6km/h 24.0mph /  38.6km/h 52% 0.00in /  0mm 577.00 W/m2
09:21 58.7 °F /  14.8 °C 41.1 °F /  5.1 °C 30.05in /  1017.5hPa South 15.0mph /  24.1km/h 26.0mph /  41.8km/h 52% 0.00in /  0mm 550.00 W/m2
09:22 58.7 °F /  14.8 °C 41.1 °F /  5.1 °C 30.05in /  1017.5hPa SSE 13.0mph /  20.9km/h 26.0mph /  41.8km/h 52% 0.00in /  0mm 357.00 W/m2
09:25 59.0 °F /  15 °C 41.4 °F /  5.2 °C 30.05in /  1017.5hPa SSW 34.0mph /  54.7km/h 34.0mph /  54.7km/h 52% 0.00in /  0mm 471.00 W/m2
09:26 59.0 °F /  15 °C 41.4 °F /  5.2 °C 30.05in /  1017.5hPa SW 20.0mph /  32.2km/h 34.0mph /  54.7km/h 52% 0.00in /  0mm 554.00 W/m2
09:27 59.1 °F /  15.1 °C 41.5 °F /  5.3 °C 30.05in /  1017.5hPa SSE 17.0mph /  27.4km/h 34.0mph /  54.7km/h 52% 0.00in /  0mm 538.00 W/m2
09:31 59.7 °F /  15.4 °C 41.6 °F /  5.3 °C 30.05in /  1017.5hPa South 20.0mph /  32.2km/h 25.0mph /  40.2km/h 51% 0.00in /  0mm 559.00 W/m2
09:32 59.8 °F /  15.4 °C 42.2 °F /  5.7 °C 30.05in /  1017.5hPa South 21.0mph /  33.8km/h 33.0mph /  53.1km/h 52% 0.00in /  0mm 559.00 W/m2
09:33 59.9 °F /  15.5 °C 41.8 °F /  5.4 °C 30.05in /  1017.5hPa SSE 19.0mph /  30.6km/h 33.0mph /  53.1km/h 51% 0.00in /  0mm 559.00 W/m2
09:36 59.6 °F /  15.3 °C 41.5 °F /  5.3 °C 30.05in /  1017.5hPa SSW 15.0mph /  24.1km/h 33.0mph /  53.1km/h 51% 0.00in /  0mm 279.00 W/m2
09:37 59.6 °F /  15.3 °C 42.0 °F /  5.6 °C 30.05in /  1017.5hPa SSE 14.0mph /  22.5km/h 33.0mph /  53.1km/h 52% 0.00in /  0mm 369.00 W/m2
09:38 59.6 °F /  15.3 °C 42.0 °F /  5.6 °C 30.05in /  1017.5hPa SSE 15.0mph /  24.1km/h 33.0mph /  53.1km/h 52% 0.00in /  0mm 302.00 W/m2
09:39 59.5 °F /  15.3 °C 41.9 °F /  5.5 °C 30.05in /  1017.5hPa South 18.0mph /  29km/h 33.0mph /  53.1km/h 52% 0.00in /  0mm 338.00 W/m2
09:41 59.5 °F /  15.3 °C 41.9 °F /  5.5 °C 30.04in /  1017.2hPa South 10.0mph /  16.1km/h 26.0mph /  41.8km/h 52% 0.00in /  0mm 295.00 W/m2
09:43 59.5 °F /  15.3 °C 41.9 °F /  5.5 °C 30.05in /  1017.5hPa South 15.0mph /  24.1km/h 26.0mph /  41.8km/h 52% 0.00in /  0mm 406.00 W/m2
09:44 59.6 °F /  15.3 °C 42.0 °F /  5.6 °C 30.04in /  1017.2hPa South 11.0mph /  17.7km/h 34.0mph /  54.7km/h 52% 0.00in /  0mm 387.00 W/m2
09:45 59.6 °F /  15.3 °C 42.0 °F /  5.6 °C 30.04in /  1017.2hPa SSW 19.0mph /  30.6km/h 34.0mph /  54.7km/h 52% 0.00in /  0mm 387.00 W/m2
09:47 59.7 °F /  15.4 °C 42.6 °F /  5.9 °C 30.05in /  1017.5hPa South 15.0mph /  24.1km/h 34.0mph /  54.7km/h 53% 0.00in /  0mm 411.00 W/m2
09:48 59.9 °F /  15.5 °C 42.7 °F /  5.9 °C 30.04in /  1017.2hPa SSW 21.0mph /  33.8km/h 34.0mph /  54.7km/h 53% 0.00in /  0mm 279.00 W/m2
09:50 59.9 °F /  15.5 °C 42.7 °F /  5.9 °C 30.05in /  1017.5hPa SSE 16.0mph /  25.7km/h 18.0mph /  29km/h 53% 0.00in /  0mm 264.00 W/m2
09:52 60.0 °F /  15.6 °C 42.8 °F /  6 °C 30.04in /  1017.2hPa South 33.0mph /  53.1km/h 33.0mph /  53.1km/h 53% 0.00in /  0mm 396.00 W/m2
09:53 60.2 °F /  15.7 °C 43.0 °F /  6.1 °C 30.04in /  1017.2hPa South 11.0mph /  17.7km/h 33.0mph /  53.1km/h 53% 0.00in /  0mm 599.00 W/m2
09:55 60.5 °F /  15.8 °C 43.3 °F /  6.3 °C 30.04in /  1017.2hPa SSW 14.0mph /  22.5km/h 33.0mph /  53.1km/h 53% 0.00in /  0mm 577.00 W/m2
09:56 60.6 °F /  15.9 °C 42.9 °F /  6.1 °C 30.04in /  1017.2hPa SSW 19.0mph /  30.6km/h 33.0mph /  53.1km/h 52% 0.00in /  0mm 390.00 W/m2
09:57 60.8 °F /  16 °C 43.1 °F /  6.2 °C 30.04in /  1017.2hPa South 20.0mph /  32.2km/h 33.0mph /  53.1km/h 52% 0.00in /  0mm 390.00 W/m2
09:58 60.9 °F /  16.1 °C 43.2 °F /  6.2 °C 30.04in /  1017.2hPa South 14.0mph /  22.5km/h 33.0mph /  53.1km/h 52% 0.00in /  0mm 190.00 W/m2
09:59 60.9 °F /  16.1 °C 43.2 °F /  6.2 °C 30.04in /  1017.2hPa South 17.0mph /  27.4km/h 33.0mph /  53.1km/h 52% 0.00in /  0mm 183.00 W/m2
10:00 60.9 °F /  16.1 °C 43.2 °F /  6.2 °C 30.04in /  1017.2hPa SSW 21.0mph /  33.8km/h 22.0mph /  35.4km/h 52% 0.00in /  0mm 206.00 W/m2
10:01 60.9 °F /  16.1 °C 43.2 °F /  6.2 °C 30.04in /  1017.2hPa SSW 21.0mph /  33.8km/h 29.0mph /  46.7km/h 52% 0.00in /  0mm 258.00 W/m2
10:03 60.7 °F /  15.9 °C 43.5 °F /  6.4 °C 30.04in /  1017.2hPa SW 16.0mph /  25.7km/h 30.0mph /  48.3km/h 53% 0.00in /  0mm 288.00 W/m2
10:04 60.7 °F /  15.9 °C 43.5 °F /  6.4 °C 30.04in /  1017.2hPa SSW 21.0mph /  33.8km/h 30.0mph /  48.3km/h 53% 0.00in /  0mm 311.00 W/m2
10:06 60.8 °F /  16 °C 43.6 °F /  6.4 °C 30.04in /  1017.2hPa South 20.0mph /  32.2km/h 30.0mph /  48.3km/h 53% 0.00in /  0mm 278.00 W/m2
10:08 60.9 °F /  16.1 °C 43.7 °F /  6.5 °C 30.04in /  1017.2hPa SSW 21.0mph /  33.8km/h 30.0mph /  48.3km/h 53% 0.00in /  0mm 327.00 W/m2
10:09 61.0 °F /  16.1 °C 43.8 °F /  6.6 °C 30.04in /  1017.2hPa South 13.0mph /  20.9km/h 30.0mph /  48.3km/h 53% 0.00in /  0mm 327.00 W/m2
10:11 61.2 °F /  16.2 °C 44.0 °F /  6.7 °C 30.04in /  1017.2hPa SSW 15.0mph /  24.1km/h 33.0mph /  53.1km/h 53% 0.00in /  0mm 302.00 W/m2
10:13 61.3 °F /  16.3 °C 44.0 °F /  6.7 °C 30.04in /  1017.2hPa SSW 19.0mph /  30.6km/h 33.0mph /  53.1km/h 53% 0.00in /  0mm 345.00 W/m2
10:14 61.4 °F /  16.3 °C 44.6 °F /  7 °C 30.04in /  1017.2hPa SSW 31.0mph /  49.9km/h 33.0mph /  53.1km/h 54% 0.00in /  0mm 345.00 W/m2
10:16 61.5 °F /  16.4 °C 44.2 °F /  6.8 °C 30.05in /  1017.5hPa SW 12.0mph /  19.3km/h 33.0mph /  53.1km/h 53% 0.00in /  0mm 301.00 W/m2
10:17 61.4 °F /  16.3 °C 44.1 °F /  6.7 °C 30.04in /  1017.2hPa SSE 13.0mph /  20.9km/h 33.0mph /  53.1km/h 53% 0.00in /  0mm 301.00 W/m2
10:19 61.5 °F /  16.4 °C 44.2 °F /  6.8 °C 30.04in /  1017.2hPa SSW 14.0mph /  22.5km/h 33.0mph /  53.1km/h 53% 0.00in /  0mm 322.00 W/m2
10:21 61.6 °F /  16.4 °C 44.8 °F /  7.1 °C 30.04in /  1017.2hPa South 14.0mph /  22.5km/h 20.0mph /  32.2km/h 54% 0.00in /  0mm 355.00 W/m2
10:22 61.7 °F /  16.5 °C 44.9 °F /  7.2 °C 30.04in /  1017.2hPa SW 21.0mph /  33.8km/h 27.0mph /  43.5km/h 54% 0.00in /  0mm 348.00 W/m2
10:24 61.9 °F /  16.6 °C 44.6 °F /  7 °C 30.04in /  1017.2hPa SSW 18.0mph /  29km/h 36.0mph /  57.9km/h 53% 0.00in /  0mm 341.00 W/m2
10:26 61.8 °F /  16.6 °C 44.5 °F /  6.9 °C 30.04in /  1017.2hPa SW 19.0mph /  30.6km/h 37.0mph /  59.5km/h 53% 0.00in /  0mm 322.00 W/m2
10:27 61.8 °F /  16.6 °C 44.5 °F /  6.9 °C 30.04in /  1017.2hPa South 18.0mph /  29km/h 37.0mph /  59.5km/h 53% 0.00in /  0mm 322.00 W/m2
10:29 61.8 °F /  16.6 °C 44.5 °F /  6.9 °C 30.04in /  1017.2hPa SW 19.0mph /  30.6km/h 37.0mph /  59.5km/h 53% 0.00in /  0mm 302.00 W/m2
10:32 61.9 °F /  16.6 °C 45.1 °F /  7.3 °C 30.04in /  1017.2hPa South 20.0mph /  32.2km/h 28.0mph /  45.1km/h 54% 0.00in /  0mm 294.00 W/m2
10:33 61.9 °F /  16.6 °C 45.1 °F /  7.3 °C 30.03in /  1016.8hPa South 16.0mph /  25.7km/h 28.0mph /  45.1km/h 54% 0.00in /  0mm 287.00 W/m2
10:34 62.0 °F /  16.7 °C 45.2 °F /  7.3 °C 30.03in /  1016.8hPa SSW 24.0mph /  38.6km/h 30.0mph /  48.3km/h 54% 0.00in /  0mm 278.00 W/m2
10:35 62.0 °F /  16.7 °C 45.2 °F /  7.3 °C 30.03in /  1016.8hPa SSE 16.0mph /  25.7km/h 30.0mph /  48.3km/h 54% 0.00in /  0mm 269.00 W/m2
10:37 62.2 °F /  16.8 °C 45.4 °F /  7.4 °C 30.03in /  1016.8hPa South 27.0mph /  43.5km/h 30.0mph /  48.3km/h 54% 0.00in /  0mm 288.00 W/m2
10:39 62.2 °F /  16.8 °C 45.4 °F /  7.4 °C 30.03in /  1016.8hPa SSW 33.0mph /  53.1km/h 34.0mph /  54.7km/h 54% 0.00in /  0mm 290.00 W/m2
10:40 62.3 °F /  16.8 °C 46.0 °F /  7.8 °C 30.03in /  1016.8hPa South 17.0mph /  27.4km/h 34.0mph /  54.7km/h 55% 0.00in /  0mm 301.00 W/m2
10:41 62.4 °F /  16.9 °C 46.0 °F /  7.8 °C 30.03in /  1016.8hPa SW 20.0mph /  32.2km/h 34.0mph /  54.7km/h 55% 0.00in /  0mm 290.00 W/m2
10:43 62.5 °F /  16.9 °C 46.1 °F /  7.8 °C 30.03in /  1016.8hPa SSW 11.0mph /  17.7km/h 34.0mph /  54.7km/h 55% 0.00in /  0mm 287.00 W/m2
10:44 62.5 °F /  16.9 °C 46.1 °F /  7.8 °C 30.03in /  1016.8hPa SSW 16.0mph /  25.7km/h 34.0mph /  54.7km/h 55% 0.00in /  0mm 295.00 W/m2
10:45 62.5 °F /  16.9 °C 46.1 °F /  7.8 °C 30.03in /  1016.8hPa SSE 18.0mph /  29km/h 34.0mph /  54.7km/h 55% 0.00in /  0mm 295.00 W/m2
10:46 62.6 °F /  17 °C 46.2 °F /  7.9 °C 30.03in /  1016.8hPa SSW 32.0mph /  51.5km/h 34.0mph /  54.7km/h 55% 0.00in /  0mm 332.00 W/m2
10:47 62.7 °F /  17.1 °C 46.3 °F /  7.9 °C 30.03in /  1016.8hPa South 15.0mph /  24.1km/h 34.0mph /  54.7km/h 55% 0.00in /  0mm 355.00 W/m2
10:49 62.8 °F /  17.1 °C 46.4 °F /  8 °C 30.03in /  1016.8hPa SW 17.0mph /  27.4km/h 34.0mph /  54.7km/h 55% 0.00in /  0mm 362.00 W/m2
10:50 62.8 °F /  17.1 °C 46.4 °F /  8 °C 30.03in /  1016.8hPa South 21.0mph /  33.8km/h 34.0mph /  54.7km/h 55% 0.00in /  0mm 360.00 W/m2
10:51 63.0 °F /  17.2 °C 46.6 °F /  8.1 °C 30.03in /  1016.8hPa WSW 25.0mph /  40.2km/h 36.0mph /  57.9km/h 55% 0.00in /  0mm 308.00 W/m2
10:52 63.0 °F /  17.2 °C 46.6 °F /  8.1 °C 30.03in /  1016.8hPa SW 19.0mph /  30.6km/h 36.0mph /  57.9km/h 55% 0.00in /  0mm 304.00 W/m2
10:54 63.2 °F /  17.3 °C 46.8 °F /  8.2 °C 30.03in /  1016.8hPa South 30.0mph /  48.3km/h 36.0mph /  57.9km/h 55% 0.00in /  0mm 343.00 W/m2
10:55 63.3 °F /  17.4 °C 46.9 °F /  8.3 °C 30.03in /  1016.8hPa SSW 25.0mph /  40.2km/h 36.0mph /  57.9km/h 55% 0.00in /  0mm 292.00 W/m2
10:57 63.7 °F /  17.6 °C 47.2 °F /  8.4 °C 30.03in /  1016.8hPa SW 17.0mph /  27.4km/h 39.0mph /  62.8km/h 55% 0.00in /  0mm 216.00 W/m2
10:59 64.1 °F /  17.8 °C 47.6 °F /  8.7 °C 30.03in /  1016.8hPa SSW 26.0mph /  41.8km/h 39.0mph /  62.8km/h 55% 0.00in /  0mm 211.00 W/m2
11:00 64.3 °F /  17.9 °C 47.8 °F /  8.8 °C 30.03in /  1016.8hPa South 24.0mph /  38.6km/h 39.0mph /  62.8km/h 55% 0.00in /  0mm 253.00 W/m2
11:02 64.4 °F /  18 °C 46.9 °F /  8.3 °C 30.03in /  1016.8hPa SSE 26.0mph /  41.8km/h 32.0mph /  51.5km/h 53% 0.00in /  0mm 236.00 W/m2
11:04 64.3 °F /  17.9 °C 47.3 °F /  8.5 °C 30.03in /  1016.8hPa South 22.0mph /  35.4km/h 35.0mph /  56.3km/h 54% 0.00in /  0mm 236.00 W/m2
11:05 64.3 °F /  17.9 °C 47.3 °F /  8.5 °C 30.03in /  1016.8hPa SW 18.0mph /  29km/h 35.0mph /  56.3km/h 54% 0.00in /  0mm 236.00 W/m2
11:07 64.5 °F /  18.1 °C 47.5 °F /  8.6 °C 30.03in /  1016.8hPa SSE 32.0mph /  51.5km/h 35.0mph /  56.3km/h 54% 0.00in /  0mm 529.00 W/m2
11:08 64.6 °F /  18.1 °C 47.6 °F /  8.7 °C 30.03in /  1016.8hPa South 23.0mph /  37km/h 35.0mph /  56.3km/h 54% 0.00in /  0mm 529.00 W/m2
11:09 64.7 °F /  18.2 °C 47.2 °F /  8.4 °C 30.03in /  1016.8hPa South 18.0mph /  29km/h 35.0mph /  56.3km/h 53% 0.00in /  0mm 731.00 W/m2
11:10 64.7 °F /  18.2 °C 47.2 °F /  8.4 °C 30.03in /  1016.8hPa SSW 18.0mph /  29km/h 35.0mph /  56.3km/h 53% 0.00in /  0mm 731.00 W/m2
11:12 64.7 °F /  18.2 °C 47.2 °F /  8.4 °C 30.03in /  1016.8hPa South 24.0mph /  38.6km/h 34.0mph /  54.7km/h 53% 0.00in /  0mm 304.00 W/m2
11:13 64.6 °F /  18.1 °C 47.1 °F /  8.4 °C 30.03in /  1016.8hPa SSW 24.0mph /  38.6km/h 34.0mph /  54.7km/h 53% 0.00in /  0mm 304.00 W/m2
11:14 64.4 °F /  18 °C 46.9 °F /  8.3 °C 30.03in /  1016.8hPa SW 32.0mph /  51.5km/h 34.0mph /  54.7km/h 53% 0.00in /  0mm 376.00 W/m2
11:15 64.4 °F /  18 °C 46.9 °F /  8.3 °C 30.03in /  1016.8hPa South 32.0mph /  51.5km/h 34.0mph /  54.7km/h 53% 0.00in /  0mm 376.00 W/m2
11:16 64.3 °F /  17.9 °C 46.8 °F /  8.2 °C 30.03in /  1016.8hPa South 15.0mph /  24.1km/h 37.0mph /  59.5km/h 53% 0.00in /  0mm 376.00 W/m2
11:17 64.4 °F /  18 °C 46.9 °F /  8.3 °C 30.03in /  1016.8hPa SSW 33.0mph /  53.1km/h 37.0mph /  59.5km/h 53% 0.00in /  0mm 325.00 W/m2
11:18 64.3 °F /  17.9 °C 46.8 °F /  8.2 °C 30.03in /  1016.8hPa SW 21.0mph /  33.8km/h 37.0mph /  59.5km/h 53% 0.00in /  0mm 306.00 W/m2
11:19 64.3 °F /  17.9 °C 47.3 °F /  8.5 °C 30.03in /  1016.8hPa SSW 24.0mph /  38.6km/h 37.0mph /  59.5km/h 54% 0.00in /  0mm 336.00 W/m2
11:20 64.3 °F /  17.9 °C 47.3 °F /  8.5 °C 30.03in /  1016.8hPa South 27.0mph /  43.5km/h 27.0mph /  43.5km/h 54% 0.00in /  0mm 415.00 W/m2
11:21 64.2 °F /  17.9 °C 47.2 °F /  8.4 °C 30.03in /  1016.8hPa SSW 21.0mph /  33.8km/h 31.0mph /  49.9km/h 54% 0.00in /  0mm 417.00 W/m2
11:24 64.0 °F /  17.8 °C 47.0 °F /  8.3 °C 30.03in /  1016.8hPa South 32.0mph /  51.5km/h 33.0mph /  53.1km/h 54% 0.00in /  0mm 380.00 W/m2
11:25 64.0 °F /  17.8 °C 47.0 °F /  8.3 °C 30.03in /  1016.8hPa SE 16.0mph /  25.7km/h 36.0mph /  57.9km/h 54% 0.00in /  0mm 355.00 W/m2
11:27 63.8 °F /  17.7 °C 46.8 °F /  8.2 °C 30.03in /  1016.8hPa SSW 19.0mph /  30.6km/h 36.0mph /  57.9km/h 54% 0.00in /  0mm 359.00 W/m2
11:29 63.8 °F /  17.7 °C 46.8 °F /  8.2 °C 30.03in /  1016.8hPa SSW 21.0mph /  33.8km/h 36.0mph /  57.9km/h 54% 0.00in /  0mm 278.00 W/m2
11:30 63.7 °F /  17.6 °C 46.8 °F /  8.2 °C 30.02in /  1016.5hPa SSE 27.0mph /  43.5km/h 27.0mph /  43.5km/h 54% 0.00in /  0mm 380.00 W/m2
11:32 63.7 °F /  17.6 °C 47.2 °F /  8.4 °C 30.03in /  1016.8hPa SSE 20.0mph /  32.2km/h 37.0mph /  59.5km/h 55% 0.00in /  0mm 345.00 W/m2
11:33 63.7 °F /  17.6 °C 47.2 °F /  8.4 °C 30.03in /  1016.8hPa SSW 16.0mph /  25.7km/h 37.0mph /  59.5km/h 55% 0.00in /  0mm 297.00 W/m2
11:34 63.7 °F /  17.6 °C 47.2 °F /  8.4 °C 30.02in /  1016.5hPa SSW 12.0mph /  19.3km/h 37.0mph /  59.5km/h 55% 0.00in /  0mm 297.00 W/m2
11:35 63.8 °F /  17.7 °C 47.3 °F /  8.5 °C 30.02in /  1016.5hPa SSE 15.0mph /  24.1km/h 37.0mph /  59.5km/h 55% 0.00in /  0mm 297.00 W/m2
11:37 63.9 °F /  17.7 °C 47.4 °F /  8.6 °C 30.02in /  1016.5hPa South 9.0mph /  14.5km/h 37.0mph /  59.5km/h 55% 0.00in /  0mm 281.00 W/m2
11:39 64.0 °F /  17.8 °C 47.5 °F /  8.6 °C 30.02in /  1016.5hPa South 14.0mph /  22.5km/h 37.0mph /  59.5km/h 55% 0.00in /  0mm 281.00 W/m2
11:40 64.2 °F /  17.9 °C 47.7 °F /  8.7 °C 30.02in /  1016.5hPa South 11.0mph /  17.7km/h 37.0mph /  59.5km/h 55% 0.00in /  0mm 281.00 W/m2
11:41 64.2 °F /  17.9 °C 47.7 °F /  8.7 °C 30.02in /  1016.5hPa SSW 9.0mph /  14.5km/h 18.0mph /  29km/h 55% 0.00in /  0mm 281.00 W/m2
11:43 64.5 °F /  18.1 °C 47.5 °F /  8.6 °C 30.01in /  1016.1hPa South 24.0mph /  38.6km/h 29.0mph /  46.7km/h 54% 0.00in /  0mm 352.00 W/m2
11:44 64.6 °F /  18.1 °C 47.6 °F /  8.7 °C 30.02in /  1016.5hPa SW 11.0mph /  17.7km/h 29.0mph /  46.7km/h 54% 0.00in /  0mm 380.00 W/m2
11:45 64.6 °F /  18.1 °C 47.6 °F /  8.7 °C 30.02in /  1016.5hPa SSW 16.0mph /  25.7km/h 29.0mph /  46.7km/h 54% 0.00in /  0mm 339.00 W/m2
11:46 64.6 °F /  18.1 °C 48.1 °F /  8.9 °C 30.01in /  1016.1hPa SW 15.0mph /  24.1km/h 29.0mph /  46.7km/h 55% 0.00in /  0mm 309.00 W/m2
11:48 64.7 °F /  18.2 °C 47.7 °F /  8.7 °C 30.01in /  1016.1hPa SSE 20.0mph /  32.2km/h 29.0mph /  46.7km/h 54% 0.00in /  0mm 178.00 W/m2
11:49 64.7 °F /  18.2 °C 47.7 °F /  8.7 °C 30.01in /  1016.1hPa South 17.0mph /  27.4km/h 36.0mph /  57.9km/h 54% 0.00in /  0mm 199.00 W/m2
11:50 64.7 °F /  18.2 °C 47.7 °F /  8.7 °C 30.01in /  1016.1hPa South 17.0mph /  27.4km/h 36.0mph /  57.9km/h 54% 0.00in /  0mm 213.00 W/m2
11:51 64.6 °F /  18.1 °C 48.1 °F /  8.9 °C 30.02in /  1016.5hPa SSE 20.0mph /  32.2km/h 25.0mph /  40.2km/h 55% 0.00in /  0mm 197.00 W/m2
11:53 64.5 °F /  18.1 °C 48.0 °F /  8.9 °C 30.01in /  1016.1hPa South 19.0mph /  30.6km/h 30.0mph /  48.3km/h 55% 0.00in /  0mm 118.00 W/m2
11:54 64.5 °F /  18.1 °C 48.0 °F /  8.9 °C 30.01in /  1016.1hPa SSW 25.0mph /  40.2km/h 30.0mph /  48.3km/h 55% 0.00in /  0mm 130.00 W/m2
11:55 64.5 °F /  18.1 °C 48.0 °F /  8.9 °C 30.01in /  1016.1hPa SW 14.0mph /  22.5km/h 30.0mph /  48.3km/h 55% 0.00in /  0mm 153.00 W/m2
11:56 64.5 °F /  18.1 °C 48.5 °F /  9.2 °C 30.01in /  1016.1hPa SW 22.0mph /  35.4km/h 36.0mph /  57.9km/h 56% 0.00in /  0mm 172.00 W/m2
11:58 64.4 °F /  18 °C 48.4 °F /  9.1 °C 30.01in /  1016.1hPa SW 29.0mph /  46.7km/h 36.0mph /  57.9km/h 56% 0.00in /  0mm 216.00 W/m2
12:00 64.5 °F /  18.1 °C 48.5 °F /  9.2 °C 30.01in /  1016.1hPa South 28.0mph /  45.1km/h 28.0mph /  45.1km/h 56% 0.00in /  0mm 192.00 W/m2
12:01 64.5 °F /  18.1 °C 48.5 °F /  9.2 °C 30.01in /  1016.1hPa SSE 12.0mph /  19.3km/h 32.0mph /  51.5km/h 56% 0.00in /  0mm 149.00 W/m2
12:03 64.5 °F /  18.1 °C 48.5 °F /  9.2 °C 30.01in /  1016.1hPa SSW 12.0mph /  19.3km/h 32.0mph /  51.5km/h 56% 0.00in /  0mm 153.00 W/m2
12:05 64.5 °F /  18.1 °C 48.5 °F /  9.2 °C 30.00in /  1015.8hPa SSW 23.0mph /  37km/h 32.0mph /  51.5km/h 56% 0.00in /  0mm 153.00 W/m2
12:06 64.5 °F /  18.1 °C 48.5 °F /  9.2 °C 30.00in /  1015.8hPa SSE 11.0mph /  17.7km/h 32.0mph /  51.5km/h 56% 0.00in /  0mm 153.00 W/m2
12:09 64.6 °F /  18.1 °C 48.6 °F /  9.2 °C 30.00in /  1015.8hPa South 18.0mph /  29km/h 32.0mph /  51.5km/h 56% 0.00in /  0mm 146.00 W/m2
12:11 64.6 °F /  18.1 °C 48.6 °F /  9.2 °C 30.00in /  1015.8hPa SW 12.0mph /  19.3km/h 34.0mph /  54.7km/h 56% 0.00in /  0mm 105.00 W/m2
12:12 64.6 °F /  18.1 °C 48.6 °F /  9.2 °C 30.00in /  1015.8hPa South 12.0mph /  19.3km/h 34.0mph /  54.7km/h 56% 0.00in /  0mm 125.00 W/m2
12:14 64.5 °F /  18.1 °C 49.0 °F /  9.4 °C 30.00in /  1015.8hPa South 15.0mph /  24.1km/h 34.0mph /  54.7km/h 57% 0.00in /  0mm 123.00 W/m2
12:16 64.5 °F /  18.1 °C 49.0 °F /  9.4 °C 30.00in /  1015.8hPa SSW 13.0mph /  20.9km/h 34.0mph /  54.7km/h 57% 0.00in /  0mm 98.00 W/m2
12:17 64.5 °F /  18.1 °C 48.5 °F /  9.2 °C 30.00in /  1015.8hPa South 18.0mph /  29km/h 34.0mph /  54.7km/h 56% 0.00in /  0mm 95.00 W/m2
12:19 64.3 °F /  17.9 °C 48.8 °F /  9.3 °C 29.99in /  1015.5hPa SSW 26.0mph /  41.8km/h 34.0mph /  54.7km/h 57% 0.00in /  0mm 88.00 W/m2
12:21 64.3 °F /  17.9 °C 48.8 °F /  9.3 °C 30.00in /  1015.8hPa South 14.0mph /  22.5km/h 28.0mph /  45.1km/h 57% 0.00in /  0mm 93.00 W/m2
12:22 64.2 °F /  17.9 °C 48.7 °F /  9.3 °C 30.00in /  1015.8hPa South 13.0mph /  20.9km/h 28.0mph /  45.1km/h 57% 0.00in /  0mm 95.00 W/m2
12:24 64.2 °F /  17.9 °C 48.7 °F /  9.3 °C 29.99in /  1015.5hPa SSE 17.0mph /  27.4km/h 28.0mph /  45.1km/h 57% 0.00in /  0mm 118.00 W/m2
12:26 64.2 °F /  17.9 °C 48.7 °F /  9.3 °C 29.99in /  1015.5hPa South 13.0mph /  20.9km/h 30.0mph /  48.3km/h 57% 0.00in /  0mm 120.00 W/m2
12:27 64.2 °F /  17.9 °C 48.7 °F /  9.3 °C 29.99in /  1015.5hPa SSW 24.0mph /  38.6km/h 30.0mph /  48.3km/h 57% 0.00in /  0mm 120.00 W/m2
12:30 64.3 °F /  17.9 °C 49.2 °F /  9.6 °C 29.99in /  1015.5hPa SE 18.0mph /  29km/h 30.0mph /  48.3km/h 58% 0.00in /  0mm 118.00 W/m2
12:32 64.4 °F /  18 °C 49.3 °F /  9.6 °C 29.99in /  1015.5hPa SSW 17.0mph /  27.4km/h 26.0mph /  41.8km/h 58% 0.00in /  0mm 90.00 W/m2
12:34 64.5 °F /  18.1 °C 49.0 °F /  9.4 °C 29.99in /  1015.5hPa South 21.0mph /  33.8km/h 29.0mph /  46.7km/h 57% 0.00in /  0mm 79.00 W/m2
12:35 64.5 °F /  18.1 °C 49.4 °F /  9.7 °C 29.99in /  1015.5hPa South 18.0mph /  29km/h 29.0mph /  46.7km/h 58% 0.00in /  0mm 77.00 W/m2
12:37 64.6 °F /  18.1 °C 49.5 °F /  9.7 °C 29.98in /  1015.1hPa South 25.0mph /  40.2km/h 29.0mph /  46.7km/h 58% 0.00in /  0mm 69.00 W/m2
12:39 64.6 °F /  18.1 °C 49.5 °F /  9.7 °C 29.99in /  1015.5hPa SSW 15.0mph /  24.1km/h 29.0mph /  46.7km/h 58% 0.00in /  0mm 67.00 W/m2
12:40 64.6 °F /  18.1 °C 49.5 °F /  9.7 °C 29.99in /  1015.5hPa SSE 11.0mph /  17.7km/h 33.0mph /  53.1km/h 58% 0.00in /  0mm 65.00 W/m2
12:42 64.5 °F /  18.1 °C 49.0 °F /  9.4 °C 29.98in /  1015.1hPa South 22.0mph /  35.4km/h 29.0mph /  46.7km/h 57% 0.00in /  0mm 56.00 W/m2
12:43 64.5 °F /  18.1 °C 49.0 °F /  9.4 °C 29.98in /  1015.1hPa WSW 21.0mph /  33.8km/h 29.0mph /  46.7km/h 57% 0.00in /  0mm 60.00 W/m2
12:44 64.5 °F /  18.1 °C 49.0 °F /  9.4 °C 29.98in /  1015.1hPa SSW 24.0mph /  38.6km/h 31.0mph /  49.9km/h 57% 0.00in /  0mm 69.00 W/m2
12:45 64.5 °F /  18.1 °C 49.0 °F /  9.4 °C 29.98in /  1015.1hPa SW 10.0mph /  16.1km/h 31.0mph /  49.9km/h 57% 0.00in /  0mm 69.00 W/m2
12:47 64.4 °F /  18 °C 48.8 °F /  9.3 °C 29.98in /  1015.1hPa South 24.0mph /  38.6km/h 32.0mph /  51.5km/h 57% 0.00in /  0mm 83.00 W/m2
12:48 64.5 °F /  18.1 °C 49.0 °F /  9.4 °C 29.98in /  1015.1hPa SW 17.0mph /  27.4km/h 32.0mph /  51.5km/h 57% 0.00in /  0mm 91.00 W/m2
12:50 64.4 °F /  18 °C 48.8 °F /  9.3 °C 29.98in /  1015.1hPa South 33.0mph /  53.1km/h 33.0mph /  53.1km/h 57% 0.00in /  0mm 93.00 W/m2
12:51 64.4 °F /  18 °C 49.3 °F /  9.6 °C 29.98in /  1015.1hPa South 16.0mph /  25.7km/h 29.0mph /  46.7km/h 58% 0.00in /  0mm 97.00 W/m2
12:53 64.4 °F /  18 °C 49.3 °F /  9.6 °C 29.98in /  1015.1hPa South 20.0mph /  32.2km/h 31.0mph /  49.9km/h 58% 0.00in /  0mm 113.00 W/m2
12:55 64.4 °F /  18 °C 49.3 °F /  9.6 °C 29.98in /  1015.1hPa SSW 23.0mph /  37km/h 31.0mph /  49.9km/h 58% 0.00in /  0mm 121.00 W/m2
12:56 64.4 °F /  18 °C 49.3 °F /  9.6 °C 29.98in /  1015.1hPa SSW 17.0mph /  27.4km/h 31.0mph /  49.9km/h 58% 0.00in /  0mm 125.00 W/m2
12:58 64.3 °F /  17.9 °C 49.2 °F /  9.6 °C 29.98in /  1015.1hPa SSW 11.0mph /  17.7km/h 31.0mph /  49.9km/h 58% 0.00in /  0mm 165.00 W/m2
13:00 64.3 °F /  17.9 °C 49.2 °F /  9.6 °C 29.98in /  1015.1hPa South 33.0mph /  53.1km/h 33.0mph /  53.1km/h 58% 0.00in /  0mm 257.00 W/m2
13:01 64.3 °F /  17.9 °C 49.2 °F /  9.6 °C 29.98in /  1015.1hPa SW 20.0mph /  32.2km/h 33.0mph /  53.1km/h 58% 0.00in /  0mm 257.00 W/m2
13:02 64.3 °F /  17.9 °C 49.2 °F /  9.6 °C 29.98in /  1015.1hPa SSE 21.0mph /  33.8km/h 33.0mph /  53.1km/h 58% 0.00in /  0mm 251.00 W/m2
13:03 64.3 °F /  17.9 °C 49.2 °F /  9.6 °C 29.98in /  1015.1hPa South 15.0mph /  24.1km/h 33.0mph /  53.1km/h 58% 0.00in /  0mm 197.00 W/m2
13:04 64.3 °F /  17.9 °C 49.2 °F /  9.6 °C 29.98in /  1015.1hPa South 18.0mph /  29km/h 33.0mph /  53.1km/h 58% 0.00in /  0mm 197.00 W/m2
13:05 64.4 °F /  18 °C 49.3 °F /  9.6 °C 29.98in /  1015.1hPa South 20.0mph /  32.2km/h 33.0mph /  53.1km/h 58% 0.00in /  0mm 151.00 W/m2
13:06 64.4 °F /  18 °C 49.3 °F /  9.6 °C 29.97in /  1014.8hPa SSW 20.0mph /  32.2km/h 33.0mph /  53.1km/h 58% 0.00in /  0mm 144.00 W/m2
13:07 64.4 °F /  18 °C 49.3 °F /  9.6 °C 29.97in /  1014.8hPa South 24.0mph /  38.6km/h 33.0mph /  53.1km/h 58% 0.00in /  0mm 137.00 W/m2
13:08 64.4 °F /  18 °C 49.3 °F /  9.6 °C 29.98in /  1015.1hPa SSW 15.0mph /  24.1km/h 33.0mph /  53.1km/h 58% 0.00in /  0mm 118.00 W/m2
13:09 64.4 °F /  18 °C 49.3 °F /  9.6 °C 29.97in /  1014.8hPa South 15.0mph /  24.1km/h 33.0mph /  53.1km/h 58% 0.00in /  0mm 114.00 W/m2
13:10 64.4 °F /  18 °C 49.3 °F /  9.6 °C 29.97in /  1014.8hPa South 19.0mph /  30.6km/h 23.0mph /  37km/h 58% 0.00in /  0mm 125.00 W/m2
13:12 64.3 °F /  17.9 °C 49.2 °F /  9.6 °C 29.97in /  1014.8hPa South 19.0mph /  30.6km/h 25.0mph /  40.2km/h 58% 0.00in /  0mm 160.00 W/m2
13:13 64.3 °F /  17.9 °C 49.2 °F /  9.6 °C 29.97in /  1014.8hPa South 19.0mph /  30.6km/h 37.0mph /  59.5km/h 58% 0.00in /  0mm 192.00 W/m2
13:14 64.3 °F /  17.9 °C 49.2 °F /  9.6 °C 29.97in /  1014.8hPa SSW 22.0mph /  35.4km/h 37.0mph /  59.5km/h 58% 0.00in /  0mm 229.00 W/m2
13:16 64.4 °F /  18 °C 49.8 °F /  9.9 °C 29.97in /  1014.8hPa SSW 19.0mph /  30.6km/h 37.0mph /  59.5km/h 59% 0.00in /  0mm 211.00 W/m2
13:17 64.4 °F /  18 °C 49.3 °F /  9.6 °C 29.97in /  1014.8hPa SSW 26.0mph /  41.8km/h 37.0mph /  59.5km/h 58% 0.00in /  0mm 209.00 W/m2
13:19 64.5 °F /  18.1 °C 49.4 °F /  9.7 °C 29.97in /  1014.8hPa South 17.0mph /  27.4km/h 37.0mph /  59.5km/h 58% 0.00in /  0mm 174.00 W/m2
13:23 64.6 °F /  18.1 °C 49.5 °F /  9.7 °C 29.97in /  1014.8hPa SSE 15.0mph /  24.1km/h 33.0mph /  53.1km/h 58% 0.00in /  0mm 160.00 W/m2
13:24 64.6 °F /  18.1 °C 49.5 °F /  9.7 °C 29.97in /  1014.8hPa South 21.0mph /  33.8km/h 33.0mph /  53.1km/h 58% 0.00in /  0mm 146.00 W/m2
13:26 64.7 °F /  18.2 °C 49.6 °F /  9.8 °C 29.96in /  1014.4hPa South 16.0mph /  25.7km/h 33.0mph /  53.1km/h 58% 0.00in /  0mm 142.00 W/m2
13:28 64.7 °F /  18.2 °C 49.6 °F /  9.8 °C 29.96in /  1014.4hPa South 10.0mph /  16.1km/h 33.0mph /  53.1km/h 58% 0.00in /  0mm 171.00 W/m2
13:29 64.7 °F /  18.2 °C 49.6 °F /  9.8 °C 29.96in /  1014.4hPa SSE 29.0mph /  46.7km/h 33.0mph /  53.1km/h 58% 0.00in /  0mm 149.00 W/m2
13:33 64.8 °F /  18.2 °C 49.2 °F /  9.6 °C 29.96in /  1014.4hPa South 10.0mph /  16.1km/h 34.0mph /  54.7km/h 57% 0.00in /  0mm 111.00 W/m2
13:34 64.8 °F /  18.2 °C 49.7 °F /  9.8 °C 29.96in /  1014.4hPa South 16.0mph /  25.7km/h 34.0mph /  54.7km/h 58% 0.00in /  0mm 98.00 W/m2
13:38 64.9 °F /  18.3 °C 49.3 °F /  9.6 °C 29.96in /  1014.4hPa South 15.0mph /  24.1km/h 34.0mph /  54.7km/h 57% 0.00in /  0mm 107.00 W/m2
13:39 64.9 °F /  18.3 °C 49.3 °F /  9.6 °C 29.96in /  1014.4hPa SSW 23.0mph /  37km/h 34.0mph /  54.7km/h 57% 0.00in /  0mm 113.00 W/m2
13:40 64.9 °F /  18.3 °C 49.3 °F /  9.6 °C 29.96in /  1014.4hPa SSW 23.0mph /  37km/h 23.0mph /  37km/h 57% 0.00in /  0mm 125.00 W/m2
13:43 64.9 °F /  18.3 °C 49.3 °F /  9.6 °C 29.96in /  1014.4hPa South 25.0mph /  40.2km/h 33.0mph /  53.1km/h 57% 0.00in /  0mm 132.00 W/m2
13:44 64.9 °F /  18.3 °C 49.3 °F /  9.6 °C 29.96in /  1014.4hPa South 7.0mph /  11.3km/h 33.0mph /  53.1km/h 57% 0.00in /  0mm 125.00 W/m2
13:45 65.0 °F /  18.3 °C 49.4 °F /  9.7 °C 29.96in /  1014.4hPa SW 14.0mph /  22.5km/h 33.0mph /  53.1km/h 57% 0.00in /  0mm 125.00 W/m2
13:48 65.1 °F /  18.4 °C 49.0 °F /  9.4 °C 29.96in /  1014.4hPa SSE 16.0mph /  25.7km/h 36.0mph /  57.9km/h 56% 0.00in /  0mm 114.00 W/m2
13:49 65.1 °F /  18.4 °C 49.0 °F /  9.4 °C 29.95in /  1014.1hPa SSW 20.0mph /  32.2km/h 36.0mph /  57.9km/h 56% 0.00in /  0mm 118.00 W/m2
13:50 65.2 °F /  18.4 °C 49.1 °F /  9.5 °C 29.96in /  1014.4hPa South 25.0mph /  40.2km/h 28.0mph /  45.1km/h 56% 0.00in /  0mm 118.00 W/m2
13:53 65.3 °F /  18.5 °C 49.2 °F /  9.6 °C 29.96in /  1014.4hPa SSW 11.0mph /  17.7km/h 33.0mph /  53.1km/h 56% 0.00in /  0mm 100.00 W/m2
13:54 65.3 °F /  18.5 °C 49.2 °F /  9.6 °C 29.96in /  1014.4hPa SSW 26.0mph /  41.8km/h 33.0mph /  53.1km/h 56% 0.00in /  0mm 95.00 W/m2
13:55 65.3 °F /  18.5 °C 49.2 °F /  9.6 °C 29.96in /  1014.4hPa SSW 33.0mph /  53.1km/h 33.0mph /  53.1km/h 56% 0.00in /  0mm 95.00 W/m2
13:56 65.4 °F /  18.6 °C 49.3 °F /  9.6 °C 29.96in /  1014.4hPa South 19.0mph /  30.6km/h 40.0mph /  64.4km/h 56% 0.00in /  0mm 84.00 W/m2
13:58 65.4 °F /  18.6 °C 49.3 °F /  9.6 °C 29.96in /  1014.4hPa South 16.0mph /  25.7km/h 40.0mph /  64.4km/h 56% 0.00in /  0mm 79.00 W/m2
13:59 65.4 °F /  18.6 °C 49.3 °F /  9.6 °C 29.96in /  1014.4hPa SSW 24.0mph /  38.6km/h 40.0mph /  64.4km/h 56% 0.00in /  0mm 76.00 W/m2
14:01 65.4 °F /  18.6 °C 49.3 °F /  9.6 °C 29.96in /  1014.4hPa SSW 26.0mph /  41.8km/h 34.0mph /  54.7km/h 56% 0.00in /  0mm 69.00 W/m2
14:02 65.5 °F /  18.6 °C 49.4 °F /  9.7 °C 29.96in /  1014.4hPa SW 23.0mph /  37km/h 34.0mph /  54.7km/h 56% 0.00in /  0mm 69.00 W/m2
14:03 65.5 °F /  18.6 °C 49.4 °F /  9.7 °C 29.96in /  1014.4hPa SSW 6.0mph /  9.7km/h 34.0mph /  54.7km/h 56% 0.00in /  0mm 81.00 W/m2
14:04 65.5 °F /  18.6 °C 49.4 °F /  9.7 °C 29.96in /  1014.4hPa SSW 22.0mph /  35.4km/h 34.0mph /  54.7km/h 56% 0.00in /  0mm 91.00 W/m2
14:06 65.5 °F /  18.6 °C 49.4 °F /  9.7 °C 29.96in /  1014.4hPa SSW 31.0mph /  49.9km/h 34.0mph /  54.7km/h 56% 0.00in /  0mm 113.00 W/m2
14:07 65.5 °F /  18.6 °C 49.4 °F /  9.7 °C 29.96in /  1014.4hPa South 23.0mph /  37km/h 34.0mph /  54.7km/h 56% 0.00in /  0mm 113.00 W/m2
14:08 65.5 °F /  18.6 °C 49.4 °F /  9.7 °C 29.96in /  1014.4hPa SW 20.0mph /  32.2km/h 34.0mph /  54.7km/h 56% 0.00in /  0mm 113.00 W/m2
14:09 65.6 °F /  18.7 °C 49.0 °F /  9.4 °C 29.96in /  1014.4hPa SW 14.0mph /  22.5km/h 34.0mph /  54.7km/h 55% 0.00in /  0mm 111.00 W/m2
14:11 65.7 °F /  18.7 °C 49.1 °F /  9.5 °C 29.96in /  1014.4hPa South 24.0mph /  38.6km/h 33.0mph /  53.1km/h 55% 0.00in /  0mm 104.00 W/m2
14:12 65.8 °F /  18.8 °C 49.2 °F /  9.6 °C 29.96in /  1014.4hPa SSE 33.0mph /  53.1km/h 38.0mph /  61.2km/h 55% 0.00in /  0mm 93.00 W/m2
14:13 65.8 °F /  18.8 °C 49.2 °F /  9.6 °C 29.96in /  1014.4hPa SW 30.0mph /  48.3km/h 38.0mph /  61.2km/h 55% 0.00in /  0mm 97.00 W/m2
14:14 65.8 °F /  18.8 °C 49.2 °F /  9.6 °C 29.96in /  1014.4hPa SW 23.0mph /  37km/h 38.0mph /  61.2km/h 55% 0.00in /  0mm 97.00 W/m2
14:16 66.0 °F /  18.9 °C 49.4 °F /  9.7 °C 29.96in /  1014.4hPa SSE 14.0mph /  22.5km/h 38.0mph /  61.2km/h 55% 0.00in /  0mm 134.00 W/m2
14:17 66.0 °F /  18.9 °C 49.4 °F /  9.7 °C 29.96in /  1014.4hPa SSW 20.0mph /  32.2km/h 38.0mph /  61.2km/h 55% 0.00in /  0mm 139.00 W/m2
14:18 66.1 °F /  18.9 °C 49.5 °F /  9.7 °C 29.96in /  1014.4hPa SSE 20.0mph /  32.2km/h 38.0mph /  61.2km/h 55% 0.00in /  0mm 137.00 W/m2
14:20 66.1 °F /  18.9 °C 49.5 °F /  9.7 °C 29.95in /  1014.1hPa South 12.0mph /  19.3km/h 23.0mph /  37km/h 55% 0.00in /  0mm 144.00 W/m2
14:21 66.2 °F /  19 °C 49.6 °F /  9.8 °C 29.96in /  1014.4hPa SW 18.0mph /  29km/h 23.0mph /  37km/h 55% 0.00in /  0mm 132.00 W/m2
14:23 66.2 °F /  19 °C 49.6 °F /  9.8 °C 29.96in /  1014.4hPa South 16.0mph /  25.7km/h 36.0mph /  57.9km/h 55% 0.00in /  0mm 121.00 W/m2
14:24 66.3 °F /  19.1 °C 49.7 °F /  9.8 °C 29.95in /  1014.1hPa South 27.0mph /  43.5km/h 36.0mph /  57.9km/h 55% 0.00in /  0mm 127.00 W/m2
14:25 66.3 °F /  19.1 °C 49.7 °F /  9.8 °C 29.95in /  1014.1hPa South 16.0mph /  25.7km/h 36.0mph /  57.9km/h 55% 0.00in /  0mm 160.00 W/m2
14:26 66.4 °F /  19.1 °C 49.8 °F /  9.9 °C 29.95in /  1014.1hPa SSW 14.0mph /  22.5km/h 36.0mph /  57.9km/h 55% 0.00in /  0mm 207.00 W/m2
14:27 66.4 °F /  19.1 °C 49.8 °F /  9.9 °C 29.95in /  1014.1hPa SW 11.0mph /  17.7km/h 36.0mph /  57.9km/h 55% 0.00in /  0mm 207.00 W/m2
14:28 66.5 °F /  19.2 °C 49.8 °F /  9.9 °C 29.95in /  1014.1hPa SSW 19.0mph /  30.6km/h 36.0mph /  57.9km/h 55% 0.00in /  0mm 179.00 W/m2
14:29 66.5 °F /  19.2 °C 49.4 °F /  9.7 °C 29.95in /  1014.1hPa SSW 15.0mph /  24.1km/h 36.0mph /  57.9km/h 54% 0.00in /  0mm 213.00 W/m2
14:31 66.6 °F /  19.2 °C 49.5 °F /  9.7 °C 29.95in /  1014.1hPa SSW 14.0mph /  22.5km/h 34.0mph /  54.7km/h 54% 0.00in /  0mm 214.00 W/m2
14:32 66.7 °F /  19.3 °C 49.5 °F /  9.7 °C 29.95in /  1014.1hPa South 18.0mph /  29km/h 34.0mph /  54.7km/h 54% 0.00in /  0mm 204.00 W/m2
14:34 66.7 °F /  19.3 °C 49.5 °F /  9.7 °C 29.96in /  1014.4hPa SSW 31.0mph /  49.9km/h 37.0mph /  59.5km/h 54% 0.00in /  0mm 137.00 W/m2
14:35 66.7 °F /  19.3 °C 49.0 °F /  9.4 °C 29.96in /  1014.4hPa SSW 16.0mph /  25.7km/h 37.0mph /  59.5km/h 53% 0.00in /  0mm 121.00 W/m2
14:36 66.7 °F /  19.3 °C 49.0 °F /  9.4 °C 29.96in /  1014.4hPa South 22.0mph /  35.4km/h 37.0mph /  59.5km/h 53% 0.00in /  0mm 120.00 W/m2
14:37 66.7 °F /  19.3 °C 49.0 °F /  9.4 °C 29.96in /  1014.4hPa South 27.0mph /  43.5km/h 37.0mph /  59.5km/h 53% 0.00in /  0mm 128.00 W/m2
14:39 66.6 °F /  19.2 °C 49.5 °F /  9.7 °C 29.95in /  1014.1hPa SSW 23.0mph /  37km/h 37.0mph /  59.5km/h 54% 0.00in /  0mm 206.00 W/m2
14:40 66.5 °F /  19.2 °C 49.4 °F /  9.7 °C 29.95in /  1014.1hPa SW 27.0mph /  43.5km/h 37.0mph /  59.5km/h 54% 0.00in /  0mm 214.00 W/m2
14:41 66.5 °F /  19.2 °C 49.4 °F /  9.7 °C 29.95in /  1014.1hPa SSE 41.0mph /  66km/h 41.0mph /  66km/h 54% 0.00in /  0mm 192.00 W/m2
14:42 66.5 °F /  19.2 °C 48.9 °F /  9.4 °C 29.95in /  1014.1hPa SW 15.0mph /  24.1km/h 41.0mph /  66km/h 53% 0.00in /  0mm 171.00 W/m2
14:43 66.5 °F /  19.2 °C 49.4 °F /  9.7 °C 29.95in /  1014.1hPa South 17.0mph /  27.4km/h 41.0mph /  66km/h 54% 0.00in /  0mm 123.00 W/m2
14:45 66.5 °F /  19.2 °C 49.4 °F /  9.7 °C 29.95in /  1014.1hPa SSW 28.0mph /  45.1km/h 41.0mph /  66km/h 54% 0.00in /  0mm 167.00 W/m2
14:46 66.5 °F /  19.2 °C 49.4 °F /  9.7 °C 29.95in /  1014.1hPa South 20.0mph /  32.2km/h 41.0mph /  66km/h 54% 0.00in /  0mm 216.00 W/m2
14:47 66.5 °F /  19.2 °C 49.4 °F /  9.7 °C 29.95in /  1014.1hPa SSW 16.0mph /  25.7km/h 41.0mph /  66km/h 54% 0.00in /  0mm 202.00 W/m2
14:48 66.5 °F /  19.2 °C 49.4 °F /  9.7 °C 29.94in /  1013.8hPa South 21.0mph /  33.8km/h 41.0mph /  66km/h 54% 0.00in /  0mm 155.00 W/m2
14:51 66.5 °F /  19.2 °C 49.4 °F /  9.7 °C 29.94in /  1013.8hPa SSE 19.0mph /  30.6km/h 25.0mph /  40.2km/h 54% 0.00in /  0mm 156.00 W/m2
14:53 66.5 °F /  19.2 °C 49.4 °F /  9.7 °C 29.94in /  1013.8hPa SSW 37.0mph /  59.5km/h 37.0mph /  59.5km/h 54% 0.00in /  0mm 174.00 W/m2
14:54 66.5 °F /  19.2 °C 49.4 °F /  9.7 °C 29.94in /  1013.8hPa South 28.0mph /  45.1km/h 37.0mph /  59.5km/h 54% 0.00in /  0mm 199.00 W/m2
14:56 66.5 °F /  19.2 °C 48.9 °F /  9.4 °C 29.94in /  1013.8hPa SW 27.0mph /  43.5km/h 37.0mph /  59.5km/h 53% 0.00in /  0mm 181.00 W/m2
14:57 66.5 °F /  19.2 °C 49.4 °F /  9.7 °C 29.94in /  1013.8hPa SW 20.0mph /  32.2km/h 37.0mph /  59.5km/h 54% 0.00in /  0mm 167.00 W/m2
14:58 66.5 °F /  19.2 °C 48.9 °F /  9.4 °C 29.94in /  1013.8hPa South 18.0mph /  29km/h 37.0mph /  59.5km/h 53% 0.00in /  0mm 171.00 W/m2
14:59 66.4 °F /  19.1 °C 48.8 °F /  9.3 °C 29.94in /  1013.8hPa SW 33.0mph /  53.1km/h 37.0mph /  59.5km/h 53% 0.00in /  0mm 171.00 W/m2
15:01 66.5 °F /  19.2 °C 49.4 °F /  9.7 °C 29.94in /  1013.8hPa WSW 12.0mph /  19.3km/h 33.0mph /  53.1km/h 54% 0.00in /  0mm 192.00 W/m2
15:02 66.5 °F /  19.2 °C 49.4 °F /  9.7 °C 29.94in /  1013.8hPa WSW 13.0mph /  20.9km/h 33.0mph /  53.1km/h 54% 0.00in /  0mm 192.00 W/m2
15:04 66.5 °F /  19.2 °C 49.4 °F /  9.7 °C 29.94in /  1013.8hPa SW 22.0mph /  35.4km/h 33.0mph /  53.1km/h 54% 0.00in /  0mm 209.00 W/m2
15:06 66.6 °F /  19.2 °C 49.5 °F /  9.7 °C 29.94in /  1013.8hPa South 24.0mph /  38.6km/h 34.0mph /  54.7km/h 54% 0.00in /  0mm 209.00 W/m2
15:07 66.6 °F /  19.2 °C 49.0 °F /  9.4 °C 29.94in /  1013.8hPa South 20.0mph /  32.2km/h 34.0mph /  54.7km/h 53% 0.00in /  0mm 209.00 W/m2
15:09 66.6 °F /  19.2 °C 49.5 °F /  9.7 °C 29.94in /  1013.8hPa SSW 14.0mph /  22.5km/h 34.0mph /  54.7km/h 54% 0.00in /  0mm 185.00 W/m2
15:12 66.6 °F /  19.2 °C 49.0 °F /  9.4 °C 29.94in /  1013.8hPa South 11.0mph /  17.7km/h 31.0mph /  49.9km/h 53% 0.00in /  0mm 148.00 W/m2
15:14 66.6 °F /  19.2 °C 49.0 °F /  9.4 °C 29.94in /  1013.8hPa West 24.0mph /  38.6km/h 31.0mph /  49.9km/h 53% 0.00in /  0mm 123.00 W/m2
15:17 66.4 °F /  19.1 °C 49.3 °F /  9.6 °C 29.95in /  1014.1hPa South 16.0mph /  25.7km/h 34.0mph /  54.7km/h 54% 0.00in /  0mm 98.00 W/m2
15:18 66.4 °F /  19.1 °C 49.3 °F /  9.6 °C 29.95in /  1014.1hPa South 19.0mph /  30.6km/h 34.0mph /  54.7km/h 54% 0.00in /  0mm 105.00 W/m2
15:19 66.3 °F /  19.1 °C 49.2 °F /  9.6 °C 29.95in /  1014.1hPa SSW 24.0mph /  38.6km/h 34.0mph /  54.7km/h 54% 0.00in /  0mm 105.00 W/m2
15:20 66.2 °F /  19 °C 49.1 °F /  9.5 °C 29.95in /  1014.1hPa South 12.0mph /  19.3km/h 22.0mph /  35.4km/h 54% 0.00in /  0mm 105.00 W/m2
15:22 66.2 °F /  19 °C 49.1 °F /  9.5 °C 29.94in /  1013.8hPa SSW 14.0mph /  22.5km/h 22.0mph /  35.4km/h 54% 0.00in /  0mm 93.00 W/m2
15:23 66.1 °F /  18.9 °C 49.0 °F /  9.4 °C 29.94in /  1013.8hPa South 29.0mph /  46.7km/h 37.0mph /  59.5km/h 54% 0.00in /  0mm 83.00 W/m2
15:25 66.0 °F /  18.9 °C 48.9 °F /  9.4 °C 29.94in /  1013.8hPa SSE 13.0mph /  20.9km/h 37.0mph /  59.5km/h 54% 0.00in /  0mm 62.00 W/m2
15:27 65.9 °F /  18.8 °C 48.8 °F /  9.3 °C 29.95in /  1014.1hPa South 15.0mph /  24.1km/h 37.0mph /  59.5km/h 54% 0.00in /  0mm 63.00 W/m2
15:28 65.9 °F /  18.8 °C 48.8 °F /  9.3 °C 29.95in /  1014.1hPa SSW 17.0mph /  27.4km/h 37.0mph /  59.5km/h 54% 0.00in /  0mm 62.00 W/m2
15:31 65.8 °F /  18.8 °C 49.2 °F /  9.6 °C 29.94in /  1013.8hPa SSW 17.0mph /  27.4km/h 31.0mph /  49.9km/h 55% 0.00in /  0mm 49.00 W/m2
15:32 65.7 °F /  18.7 °C 49.1 °F /  9.5 °C 29.94in /  1013.8hPa SSW 11.0mph /  17.7km/h 39.0mph /  62.8km/h 55% 0.00in /  0mm 51.00 W/m2
15:33 65.7 °F /  18.7 °C 49.1 °F /  9.5 °C 29.94in /  1013.8hPa SSW 17.0mph /  27.4km/h 39.0mph /  62.8km/h 55% 0.00in /  0mm 49.00 W/m2
15:36 65.5 °F /  18.6 °C 49.4 °F /  9.7 °C 29.94in /  1013.8hPa SSW 14.0mph /  22.5km/h 39.0mph /  62.8km/h 56% 0.00in /  0mm 44.00 W/m2
15:37 65.5 °F /  18.6 °C 49.4 °F /  9.7 °C 29.94in /  1013.8hPa WSW 11.0mph /  17.7km/h 39.0mph /  62.8km/h 56% 0.00in /  0mm 42.00 W/m2
15:38 65.5 °F /  18.6 °C 49.4 °F /  9.7 °C 29.94in /  1013.8hPa SW 29.0mph /  46.7km/h 39.0mph /  62.8km/h 56% 0.00in /  0mm 44.00 W/m2
15:41 65.4 °F /  18.6 °C 49.3 °F /  9.6 °C 29.94in /  1013.8hPa WSW 26.0mph /  41.8km/h 26.0mph /  41.8km/h 56% 0.00in /  0mm 39.00 W/m2
15:43 65.4 °F /  18.6 °C 49.3 °F /  9.6 °C 29.94in /  1013.8hPa SSW 23.0mph /  37km/h 34.0mph /  54.7km/h 56% 0.00in /  0mm 33.00 W/m2
15:45 65.4 °F /  18.6 °C 49.3 °F /  9.6 °C 29.94in /  1013.8hPa South 21.0mph /  33.8km/h 35.0mph /  56.3km/h 56% 0.00in /  0mm 51.00 W/m2
15:46 65.4 °F /  18.6 °C 49.8 °F /  9.9 °C 29.94in /  1013.8hPa SSW 27.0mph /  43.5km/h 35.0mph /  56.3km/h 57% 0.00in /  0mm 67.00 W/m2
15:48 65.4 °F /  18.6 °C 49.8 °F /  9.9 °C 29.93in /  1013.4hPa South 18.0mph /  29km/h 35.0mph /  56.3km/h 57% 0.00in /  0mm 120.00 W/m2
15:49 65.5 °F /  18.6 °C 49.9 °F /  9.9 °C 29.93in /  1013.4hPa SSE 15.0mph /  24.1km/h 35.0mph /  56.3km/h 57% 0.00in /  0mm 120.00 W/m2
15:50 65.5 °F /  18.6 °C 49.9 °F /  9.9 °C 29.94in /  1013.8hPa SW 20.0mph /  32.2km/h 35.0mph /  56.3km/h 57% 0.00in /  0mm 144.00 W/m2
15:51 65.5 °F /  18.6 °C 49.9 °F /  9.9 °C 29.94in /  1013.8hPa SSW 17.0mph /  27.4km/h 30.0mph /  48.3km/h 57% 0.00in /  0mm 151.00 W/m2
15:53 65.6 °F /  18.7 °C 50.0 °F /  10 °C 29.94in /  1013.8hPa South 23.0mph /  37km/h 32.0mph /  51.5km/h 57% 0.00in /  0mm 139.00 W/m2
15:54 65.6 °F /  18.7 °C 50.0 °F /  10 °C 29.94in /  1013.8hPa SW 24.0mph /  38.6km/h 32.0mph /  51.5km/h 57% 0.00in /  0mm 139.00 W/m2
15:55 65.6 °F /  18.7 °C 50.0 °F /  10 °C 29.94in /  1013.8hPa WSW 22.0mph /  35.4km/h 32.0mph /  51.5km/h 57% 0.00in /  0mm 139.00 W/m2
15:56 65.6 °F /  18.7 °C 50.0 °F /  10 °C 29.94in /  1013.8hPa South 13.0mph /  20.9km/h 32.0mph /  51.5km/h 57% 0.00in /  0mm 128.00 W/m2
15:58 65.7 °F /  18.7 °C 50.1 °F /  10.1 °C 29.94in /  1013.8hPa SSW 22.0mph /  35.4km/h 32.0mph /  51.5km/h 57% 0.00in /  0mm 113.00 W/m2
15:59 65.7 °F /  18.7 °C 50.1 °F /  10.1 °C 29.94in /  1013.8hPa South 15.0mph /  24.1km/h 32.0mph /  51.5km/h 57% 0.00in /  0mm 113.00 W/m2
16:00 65.7 °F /  18.7 °C 50.1 °F /  10.1 °C 29.95in /  1014.1hPa South 17.0mph /  27.4km/h 20.0mph /  32.2km/h 57% 0.00in /  0mm 105.00 W/m2
16:01 65.7 °F /  18.7 °C 50.1 °F /  10.1 °C 29.94in /  1013.8hPa SSW 20.0mph /  32.2km/h 26.0mph /  41.8km/h 57% 0.00in /  0mm 105.00 W/m2
16:02 65.7 °F /  18.7 °C 50.1 °F /  10.1 °C 29.94in /  1013.8hPa South 19.0mph /  30.6km/h 28.0mph /  45.1km/h 57% 0.00in /  0mm 93.00 W/m2
16:04 65.6 °F /  18.7 °C 50.0 °F /  10 °C 29.94in /  1013.8hPa SSW 17.0mph /  27.4km/h 33.0mph /  53.1km/h 57% 0.00in /  0mm 90.00 W/m2
16:05 65.6 °F /  18.7 °C 50.0 °F /  10 °C 29.94in /  1013.8hPa South 25.0mph /  40.2km/h 33.0mph /  53.1km/h 57% 0.00in /  0mm 62.00 W/m2
16:07 65.6 °F /  18.7 °C 50.0 °F /  10 °C 29.94in /  1013.8hPa SSW 20.0mph /  32.2km/h 33.0mph /  53.1km/h 57% 0.00in /  0mm 53.00 W/m2
16:09 65.6 °F /  18.7 °C 50.0 °F /  10 °C 29.94in /  1013.8hPa SSW 26.0mph /  41.8km/h 33.0mph /  53.1km/h 57% 0.00in /  0mm 53.00 W/m2
16:10 65.5 °F /  18.6 °C 49.9 °F /  9.9 °C 29.94in /  1013.8hPa South 28.0mph /  45.1km/h 32.0mph /  51.5km/h 57% 0.00in /  0mm 56.00 W/m2
16:12 65.5 °F /  18.6 °C 49.9 °F /  9.9 °C 29.95in /  1014.1hPa SW 27.0mph /  43.5km/h 37.0mph /  59.5km/h 57% 0.00in /  0mm 51.00 W/m2
16:13 65.4 °F /  18.6 °C 49.8 °F /  9.9 °C 29.94in /  1013.8hPa SSE 18.0mph /  29km/h 37.0mph /  59.5km/h 57% 0.00in /  0mm 44.00 W/m2
16:14 65.4 °F /  18.6 °C 50.2 °F /  10.1 °C 29.94in /  1013.8hPa SSW 19.0mph /  30.6km/h 37.0mph /  59.5km/h 58% 0.00in /  0mm 44.00 W/m2
16:15 65.4 °F /  18.6 °C 50.2 °F /  10.1 °C 29.94in /  1013.8hPa SSW 18.0mph /  29km/h 37.0mph /  59.5km/h 58% 0.00in /  0mm 44.00 W/m2
16:17 65.3 °F /  18.5 °C 50.2 °F /  10.1 °C 29.95in /  1014.1hPa SSW 34.0mph /  54.7km/h 40.0mph /  64.4km/h 58% 0.00in /  0mm 51.00 W/m2
16:18 65.3 °F /  18.5 °C 50.2 °F /  10.1 °C 29.94in /  1013.8hPa ESE 13.0mph /  20.9km/h 40.0mph /  64.4km/h 58% 0.00in /  0mm 49.00 W/m2
16:20 65.2 °F /  18.4 °C 50.1 °F /  10.1 °C 29.94in /  1013.8hPa SSW 14.0mph /  22.5km/h 40.0mph /  64.4km/h 58% 0.00in /  0mm 46.00 W/m2
16:21 65.1 °F /  18.4 °C 50.0 °F /  10 °C 29.94in /  1013.8hPa South 21.0mph /  33.8km/h 28.0mph /  45.1km/h 58% 0.00in /  0mm 40.00 W/m2
16:24 65.0 °F /  18.3 °C 49.9 °F /  9.9 °C 29.95in /  1014.1hPa SSW 31.0mph /  49.9km/h 31.0mph /  49.9km/h 58% 0.00in /  0mm 26.00 W/m2
16:25 64.9 °F /  18.3 °C 49.8 °F /  9.9 °C 29.95in /  1014.1hPa SW 24.0mph /  38.6km/h 31.0mph /  49.9km/h 58% 0.00in /  0mm 25.00 W/m2
16:26 64.9 °F /  18.3 °C 49.8 °F /  9.9 °C 29.95in /  1014.1hPa SSW 17.0mph /  27.4km/h 31.0mph /  49.9km/h 58% 0.00in /  0mm 23.00 W/m2
16:29 64.8 °F /  18.2 °C 50.2 °F /  10.1 °C 29.95in /  1014.1hPa SSW 22.0mph /  35.4km/h 36.0mph /  57.9km/h 59% 0.00in /  0mm 28.00 W/m2
16:31 64.7 °F /  18.2 °C 50.1 °F /  10.1 °C 29.95in /  1014.1hPa South 11.0mph /  17.7km/h 29.0mph /  46.7km/h 59% 0.00in /  0mm 30.00 W/m2
16:32 64.7 °F /  18.2 °C 50.1 °F /  10.1 °C 29.95in /  1014.1hPa SW 22.0mph /  35.4km/h 33.0mph /  53.1km/h 59% 0.00in /  0mm 40.00 W/m2
16:34 64.7 °F /  18.2 °C 50.1 °F /  10.1 °C 29.94in /  1013.8hPa SSW 21.0mph /  33.8km/h 35.0mph /  56.3km/h 59% 0.00in /  0mm 53.00 W/m2
16:35 64.6 °F /  18.1 °C 50.0 °F /  10 °C 29.94in /  1013.8hPa SSW 20.0mph /  32.2km/h 35.0mph /  56.3km/h 59% 0.00in /  0mm 56.00 W/m2
16:37 64.6 °F /  18.1 °C 50.0 °F /  10 °C 29.94in /  1013.8hPa South 21.0mph /  33.8km/h 35.0mph /  56.3km/h 59% 0.00in /  0mm 53.00 W/m2
16:38 64.6 °F /  18.1 °C 50.0 °F /  10 °C 29.94in /  1013.8hPa SSE 21.0mph /  33.8km/h 35.0mph /  56.3km/h 59% 0.00in /  0mm 51.00 W/m2
16:39 64.6 °F /  18.1 °C 50.0 °F /  10 °C 29.94in /  1013.8hPa South 22.0mph /  35.4km/h 35.0mph /  56.3km/h 59% 0.00in /  0mm 49.00 W/m2
16:41 64.6 °F /  18.1 °C 50.0 °F /  10 °C 29.94in /  1013.8hPa South 17.0mph /  27.4km/h 28.0mph /  45.1km/h 59% 0.00in /  0mm 44.00 W/m2
16:43 64.6 °F /  18.1 °C 50.0 °F /  10 °C 29.94in /  1013.8hPa SW 16.0mph /  25.7km/h 28.0mph /  45.1km/h 59% 0.00in /  0mm 39.00 W/m2
16:44 64.6 °F /  18.1 °C 50.0 °F /  10 °C 29.94in /  1013.8hPa South 21.0mph /  33.8km/h 33.0mph /  53.1km/h 59% 0.00in /  0mm 37.00 W/m2
16:46 64.5 °F /  18.1 °C 49.9 °F /  9.9 °C 29.94in /  1013.8hPa South 16.0mph /  25.7km/h 33.0mph /  53.1km/h 59% 0.00in /  0mm 35.00 W/m2
16:48 64.5 °F /  18.1 °C 49.9 °F /  9.9 °C 29.93in /  1013.4hPa SW 23.0mph /  37km/h 33.0mph /  53.1km/h 59% 0.00in /  0mm 28.00 W/m2
16:49 64.5 °F /  18.1 °C 49.9 °F /  9.9 °C 29.93in /  1013.4hPa SSW 21.0mph /  33.8km/h 33.0mph /  53.1km/h 59% 0.00in /  0mm 26.00 W/m2
16:51 64.4 °F /  18 °C 49.8 °F /  9.9 °C 29.93in /  1013.4hPa South 21.0mph /  33.8km/h 37.0mph /  59.5km/h 59% 0.00in /  0mm 21.00 W/m2
16:53 64.4 °F /  18 °C 49.8 °F /  9.9 °C 29.93in /  1013.4hPa SSW 13.0mph /  20.9km/h 37.0mph /  59.5km/h 59% 0.00in /  0mm 18.00 W/m2
16:54 64.3 °F /  17.9 °C 49.7 °F /  9.8 °C 29.93in /  1013.4hPa South 25.0mph /  40.2km/h 37.0mph /  59.5km/h 59% 0.00in /  0mm 18.00 W/m2
16:55 64.3 °F /  17.9 °C 49.7 °F /  9.8 °C 29.93in /  1013.4hPa South 14.0mph /  22.5km/h 37.0mph /  59.5km/h 59% 0.00in /  0mm 16.00 W/m2
16:56 64.3 °F /  17.9 °C 49.7 °F /  9.8 °C 29.93in /  1013.4hPa SW 19.0mph /  30.6km/h 37.0mph /  59.5km/h 59% 0.00in /  0mm 16.00 W/m2
16:58 64.2 °F /  17.9 °C 49.6 °F /  9.8 °C 29.93in /  1013.4hPa SSW 17.0mph /  27.4km/h 37.0mph /  59.5km/h 59% 0.00in /  0mm 18.00 W/m2
16:59 64.2 °F /  17.9 °C 49.6 °F /  9.8 °C 29.94in /  1013.8hPa South 21.0mph /  33.8km/h 37.0mph /  59.5km/h 59% 0.00in /  0mm 16.00 W/m2
17:00 64.2 °F /  17.9 °C 49.6 °F /  9.8 °C 29.94in /  1013.8hPa SSE 24.0mph /  38.6km/h 26.0mph /  41.8km/h 59% 0.00in /  0mm 14.00 W/m2
17:01 64.1 °F /  17.8 °C 49.5 °F /  9.7 °C 29.94in /  1013.8hPa South 18.0mph /  29km/h 26.0mph /  41.8km/h 59% 0.00in /  0mm 14.00 W/m2
17:03 64.0 °F /  17.8 °C 49.4 °F /  9.7 °C 29.94in /  1013.8hPa SSW 17.0mph /  27.4km/h 27.0mph /  43.5km/h 59% 0.00in /  0mm 14.00 W/m2
17:04 64.0 °F /  17.8 °C 49.4 °F /  9.7 °C 29.94in /  1013.8hPa SSW 27.0mph /  43.5km/h 30.0mph /  48.3km/h 59% 0.00in /  0mm 14.00 W/m2
17:05 64.0 °F /  17.8 °C 49.4 °F /  9.7 °C 29.94in /  1013.8hPa SW 23.0mph /  37km/h 30.0mph /  48.3km/h 59% 0.00in /  0mm 16.00 W/m2
17:06 64.0 °F /  17.8 °C 49.8 °F /  9.9 °C 29.94in /  1013.8hPa SSW 37.0mph /  59.5km/h 37.0mph /  59.5km/h 60% 0.00in /  0mm 18.00 W/m2
17:09 63.9 °F /  17.7 °C 49.3 °F /  9.6 °C 29.94in /  1013.8hPa SSW 20.0mph /  32.2km/h 37.0mph /  59.5km/h 59% 0.00in /  0mm 21.00 W/m2
17:10 63.9 °F /  17.7 °C 49.3 °F /  9.6 °C 29.94in /  1013.8hPa SSW 20.0mph /  32.2km/h 28.0mph /  45.1km/h 59% 0.00in /  0mm 21.00 W/m2
17:11 63.9 °F /  17.7 °C 49.3 °F /  9.6 °C 29.94in /  1013.8hPa SSW 19.0mph /  30.6km/h 40.0mph /  64.4km/h 59% 0.00in /  0mm 21.00 W/m2
17:14 63.8 °F /  17.7 °C 49.7 °F /  9.8 °C 29.94in /  1013.8hPa West 17.0mph /  27.4km/h 40.0mph /  64.4km/h 60% 0.00in /  0mm 18.00 W/m2
17:16 63.8 °F /  17.7 °C 49.2 °F /  9.6 °C 29.94in /  1013.8hPa South 18.0mph /  29km/h 40.0mph /  64.4km/h 59% 0.00in /  0mm 14.00 W/m2
17:17 63.8 °F /  17.7 °C 49.2 °F /  9.6 °C 29.94in /  1013.8hPa South 23.0mph /  37km/h 40.0mph /  64.4km/h 59% 0.00in /  0mm 14.00 W/m2
17:19 63.8 °F /  17.7 °C 49.2 °F /  9.6 °C 29.93in /  1013.4hPa South 27.0mph /  43.5km/h 40.0mph /  64.4km/h 59% 0.00in /  0mm 12.00 W/m2
17:20 63.8 °F /  17.7 °C 49.2 °F /  9.6 °C 29.93in /  1013.4hPa SSE 7.0mph /  11.3km/h 21.0mph /  33.8km/h 59% 0.00in /  0mm 12.00 W/m2
17:21 63.7 °F /  17.6 °C 49.1 °F /  9.5 °C 29.93in /  1013.4hPa South 19.0mph /  30.6km/h 21.0mph /  33.8km/h 59% 0.00in /  0mm 12.00 W/m2
17:22 63.7 °F /  17.6 °C 49.1 °F /  9.5 °C 29.93in /  1013.4hPa SW 10.0mph /  16.1km/h 21.0mph /  33.8km/h 59% 0.00in /  0mm 11.00 W/m2
17:23 63.7 °F /  17.6 °C 49.6 °F /  9.8 °C 29.93in /  1013.4hPa SSW 26.0mph /  41.8km/h 38.0mph /  61.2km/h 60% 0.00in /  0mm 11.00 W/m2
17:25 63.7 °F /  17.6 °C 49.6 °F /  9.8 °C 29.94in /  1013.8hPa SSW 14.0mph /  22.5km/h 38.0mph /  61.2km/h 60% 0.00in /  0mm 9.00 W/m2
17:26 63.6 °F /  17.6 °C 49.5 °F /  9.7 °C 29.94in /  1013.8hPa SSW 39.0mph /  62.8km/h 39.0mph /  62.8km/h 60% 0.00in /  0mm 9.00 W/m2
17:27 63.7 °F /  17.6 °C 49.6 °F /  9.8 °C 29.94in /  1013.8hPa SSW 31.0mph /  49.9km/h 39.0mph /  62.8km/h 60% 0.00in /  0mm 9.00 W/m2
17:28 63.6 °F /  17.6 °C 49.5 °F /  9.7 °C 29.94in /  1013.8hPa South 17.0mph /  27.4km/h 39.0mph /  62.8km/h 60% 0.00in /  0mm 9.00 W/m2
17:32 63.7 °F /  17.6 °C 49.6 °F /  9.8 °C 29.94in /  1013.8hPa SSW 17.0mph /  27.4km/h 36.0mph /  57.9km/h 60% 0.00in /  0mm 5.00 W/m2
17:33 63.7 °F /  17.6 °C 49.6 °F /  9.8 °C 29.93in /  1013.4hPa SSE 19.0mph /  30.6km/h 36.0mph /  57.9km/h 60% 0.00in /  0mm 0.00 W/m2
17:36 63.7 °F /  17.6 °C 49.6 °F /  9.8 °C 29.94in /  1013.8hPa SSW 13.0mph /  20.9km/h 36.0mph /  57.9km/h 60% 0.00in /  0mm 0.00 W/m2
17:37 63.8 °F /  17.7 °C 49.7 °F /  9.8 °C 29.94in /  1013.8hPa South 14.0mph /  22.5km/h 36.0mph /  57.9km/h 60% 0.00in /  0mm 0.00 W/m2
17:38 63.8 °F /  17.7 °C 49.7 °F /  9.8 °C 29.93in /  1013.4hPa South 13.0mph /  20.9km/h 36.0mph /  57.9km/h 60% 0.00in /  0mm 0.00 W/m2
17:41 63.8 °F /  17.7 °C 49.7 °F /  9.8 °C 29.94in /  1013.8hPa SW 26.0mph /  41.8km/h 26.0mph /  41.8km/h 60% 0.00in /  0mm 0.00 W/m2
17:42 63.8 °F /  17.7 °C 49.7 °F /  9.8 °C 29.94in /  1013.8hPa South 18.0mph /  29km/h 28.0mph /  45.1km/h 60% 0.00in /  0mm 0.00 W/m2
17:43 63.8 °F /  17.7 °C 49.7 °F /  9.8 °C 29.94in /  1013.8hPa SSE 14.0mph /  22.5km/h 28.0mph /  45.1km/h 60% 0.00in /  0mm 0.00 W/m2
17:46 63.8 °F /  17.7 °C 49.7 °F /  9.8 °C 29.94in /  1013.8hPa South 17.0mph /  27.4km/h 28.0mph /  45.1km/h 60% 0.00in /  0mm 0.00 W/m2
17:48 63.7 °F /  17.6 °C 49.6 °F /  9.8 °C 29.95in /  1014.1hPa South 16.0mph /  25.7km/h 28.0mph /  45.1km/h 60% 0.00in /  0mm 0.00 W/m2
17:49 63.7 °F /  17.6 °C 49.6 °F /  9.8 °C 29.95in /  1014.1hPa South 24.0mph /  38.6km/h 28.0mph /  45.1km/h 60% 0.00in /  0mm 0.00 W/m2
17:51 63.6 °F /  17.6 °C 49.5 °F /  9.7 °C 29.95in /  1014.1hPa SSW 19.0mph /  30.6km/h 21.0mph /  33.8km/h 60% 0.00in /  0mm 0.00 W/m2
17:53 63.6 °F /  17.6 °C 49.5 °F /  9.7 °C 29.95in /  1014.1hPa SSW 20.0mph /  32.2km/h 25.0mph /  40.2km/h 60% 0.00in /  0mm 0.00 W/m2
17:54 63.6 °F /  17.6 °C 49.5 °F /  9.7 °C 29.95in /  1014.1hPa SW 12.0mph /  19.3km/h 25.0mph /  40.2km/h 60% 0.00in /  0mm 0.00 W/m2
17:56 63.5 °F /  17.5 °C 49.8 °F /  9.9 °C 29.95in /  1014.1hPa SSW 21.0mph /  33.8km/h 26.0mph /  41.8km/h 61% 0.00in /  0mm 0.00 W/m2
17:58 63.5 °F /  17.5 °C 49.8 °F /  9.9 °C 29.95in /  1014.1hPa South 13.0mph /  20.9km/h 33.0mph /  53.1km/h 61% 0.00in /  0mm 0.00 W/m2
17:59 63.5 °F /  17.5 °C 49.8 °F /  9.9 °C 29.95in /  1014.1hPa SW 18.0mph /  29km/h 33.0mph /  53.1km/h 61% 0.00in /  0mm 0.00 W/m2
18:00 63.6 °F /  17.6 °C 49.9 °F /  9.9 °C 29.95in /  1014.1hPa SSW 26.0mph /  41.8km/h 26.0mph /  41.8km/h 61% 0.00in /  0mm 0.00 W/m2
18:02 63.6 °F /  17.6 °C 49.9 °F /  9.9 °C 29.95in /  1014.1hPa SSW 16.0mph /  25.7km/h 32.0mph /  51.5km/h 61% 0.00in /  0mm 0.00 W/m2
18:03 63.5 °F /  17.5 °C 49.8 °F /  9.9 °C 29.95in /  1014.1hPa SSW 14.0mph /  22.5km/h 32.0mph /  51.5km/h 61% 0.00in /  0mm 0.00 W/m2
18:04 63.5 °F /  17.5 °C 49.8 °F /  9.9 °C 29.95in /  1014.1hPa SSW 25.0mph /  40.2km/h 32.0mph /  51.5km/h 61% 0.00in /  0mm 0.00 W/m2
18:05 63.5 °F /  17.5 °C 49.8 °F /  9.9 °C 29.95in /  1014.1hPa SSW 14.0mph /  22.5km/h 32.0mph /  51.5km/h 61% 0.00in /  0mm 0.00 W/m2
18:07 63.5 °F /  17.5 °C 49.8 °F /  9.9 °C 29.95in /  1014.1hPa SSW 21.0mph /  33.8km/h 32.0mph /  51.5km/h 61% 0.00in /  0mm 0.00 W/m2
18:09 63.5 °F /  17.5 °C 49.8 °F /  9.9 °C 29.95in /  1014.1hPa SW 18.0mph /  29km/h 32.0mph /  51.5km/h 61% 0.00in /  0mm 0.00 W/m2
18:10 63.5 °F /  17.5 °C 49.8 °F /  9.9 °C 29.95in /  1014.1hPa South 20.0mph /  32.2km/h 20.0mph /  32.2km/h 61% 0.00in /  0mm 0.00 W/m2
18:12 63.4 °F /  17.4 °C 49.7 °F /  9.8 °C 29.95in /  1014.1hPa WSW 19.0mph /  30.6km/h 38.0mph /  61.2km/h 61% 0.00in /  0mm 0.00 W/m2
18:14 63.4 °F /  17.4 °C 49.7 °F /  9.8 °C 29.94in /  1013.8hPa South 20.0mph /  32.2km/h 38.0mph /  61.2km/h 61% 0.00in /  0mm 0.00 W/m2
18:15 63.4 °F /  17.4 °C 49.7 °F /  9.8 °C 29.94in /  1013.8hPa South 9.0mph /  14.5km/h 38.0mph /  61.2km/h 61% 0.00in /  0mm 0.00 W/m2
18:17 63.4 °F /  17.4 °C 49.7 °F /  9.8 °C 29.94in /  1013.8hPa SW 26.0mph /  41.8km/h 38.0mph /  61.2km/h 61% 0.00in /  0mm 0.00 W/m2
18:19 63.3 °F /  17.4 °C 49.6 °F /  9.8 °C 29.95in /  1014.1hPa South 12.0mph /  19.3km/h 38.0mph /  61.2km/h 61% 0.00in /  0mm 0.00 W/m2
18:20 63.3 °F /  17.4 °C 49.6 °F /  9.8 °C 29.95in /  1014.1hPa SSW 17.0mph /  27.4km/h 17.0mph /  27.4km/h 61% 0.00in /  0mm 0.00 W/m2
18:21 63.3 °F /  17.4 °C 49.6 °F /  9.8 °C 29.95in /  1014.1hPa SSW 13.0mph /  20.9km/h 23.0mph /  37km/h 61% 0.00in /  0mm 0.00 W/m2
18:25 63.2 °F /  17.3 °C 50.0 °F /  10 °C 29.95in /  1014.1hPa SSE 11.0mph /  17.7km/h 24.0mph /  38.6km/h 62% 0.00in /  0mm 0.00 W/m2
18:26 63.2 °F /  17.3 °C 50.0 °F /  10 °C 29.95in /  1014.1hPa South 7.0mph /  11.3km/h 24.0mph /  38.6km/h 62% 0.00in /  0mm 0.00 W/m2
18:28 63.1 °F /  17.3 °C 49.9 °F /  9.9 °C 29.95in /  1014.1hPa SSW 24.0mph /  38.6km/h 24.0mph /  38.6km/h 62% 0.00in /  0mm 0.00 W/m2
18:30 63.1 °F /  17.3 °C 49.9 °F /  9.9 °C 29.95in /  1014.1hPa SSW 15.0mph /  24.1km/h 18.0mph /  29km/h 62% 0.00in /  0mm 0.00 W/m2
18:31 63.0 °F /  17.2 °C 49.8 °F /  9.9 °C 29.95in /  1014.1hPa South 13.0mph /  20.9km/h 18.0mph /  29km/h 62% 0.00in /  0mm 0.00 W/m2
18:34 62.9 °F /  17.2 °C 49.7 °F /  9.8 °C 29.95in /  1014.1hPa South 16.0mph /  25.7km/h 27.0mph /  43.5km/h 62% 0.00in /  0mm 0.00 W/m2
18:35 62.9 °F /  17.2 °C 50.1 °F /  10.1 °C 29.95in /  1014.1hPa South 19.0mph /  30.6km/h 27.0mph /  43.5km/h 63% 0.00in /  0mm 0.00 W/m2
18:36 62.8 °F /  17.1 °C 50.0 °F /  10 °C 29.95in /  1014.1hPa South 17.0mph /  27.4km/h 27.0mph /  43.5km/h 63% 0.00in /  0mm 0.00 W/m2
18:40 62.7 °F /  17.1 °C 49.9 °F /  9.9 °C 29.94in /  1013.8hPa SE 9.0mph /  14.5km/h 15.0mph /  24.1km/h 63% 0.00in /  0mm 0.00 W/m2
18:41 62.7 °F /  17.1 °C 49.9 °F /  9.9 °C 29.94in /  1013.8hPa SSW 17.0mph /  27.4km/h 18.0mph /  29km/h 63% 0.00in /  0mm 0.00 W/m2
18:45 62.6 °F /  17 °C 49.8 °F /  9.9 °C 29.95in /  1014.1hPa South 22.0mph /  35.4km/h 29.0mph /  46.7km/h 63% 0.00in /  0mm 0.00 W/m2
18:46 62.6 °F /  17 °C 49.8 °F /  9.9 °C 29.95in /  1014.1hPa South 13.0mph /  20.9km/h 29.0mph /  46.7km/h 63% 0.00in /  0mm 0.00 W/m2
18:47 62.6 °F /  17 °C 49.8 °F /  9.9 °C 29.95in /  1014.1hPa SSE 14.0mph /  22.5km/h 29.0mph /  46.7km/h 63% 0.00in /  0mm 0.00 W/m2
18:50 62.5 °F /  16.9 °C 49.8 °F /  9.9 °C 29.95in /  1014.1hPa South 14.0mph /  22.5km/h 22.0mph /  35.4km/h 63% 0.00in /  0mm 0.00 W/m2
18:51 62.5 °F /  16.9 °C 49.8 °F /  9.9 °C 29.95in /  1014.1hPa SSE 13.0mph /  20.9km/h 23.0mph /  37km/h 63% 0.00in /  0mm 0.00 W/m2
18:52 62.5 °F /  16.9 °C 49.8 °F /  9.9 °C 29.95in /  1014.1hPa South 17.0mph /  27.4km/h 23.0mph /  37km/h 63% 0.00in /  0mm 0.00 W/m2
18:55 62.3 °F /  16.8 °C 50.0 °F /  10 °C 29.95in /  1014.1hPa South 21.0mph /  33.8km/h 27.0mph /  43.5km/h 64% 0.00in /  0mm 0.00 W/m2
18:56 62.2 °F /  16.8 °C 49.9 °F /  9.9 °C 29.95in /  1014.1hPa SSE 24.0mph /  38.6km/h 27.0mph /  43.5km/h 64% 0.00in /  0mm 0.00 W/m2
18:57 62.2 °F /  16.8 °C 49.9 °F /  9.9 °C 29.95in /  1014.1hPa SSE 11.0mph /  17.7km/h 27.0mph /  43.5km/h 64% 0.00in /  0mm 0.00 W/m2
18:58 62.1 °F /  16.7 °C 49.8 °F /  9.9 °C 29.95in /  1014.1hPa SSE 18.0mph /  29km/h 27.0mph /  43.5km/h 64% 0.00in /  0mm 0.00 W/m2
19:00 62.0 °F /  16.7 °C 49.7 °F /  9.8 °C 29.95in /  1014.1hPa South 9.0mph /  14.5km/h 17.0mph /  27.4km/h 64% 0.00in /  0mm 0.00 W/m2
19:02 62.0 °F /  16.7 °C 50.1 °F /  10.1 °C 29.95in /  1014.1hPa South 11.0mph /  17.7km/h 24.0mph /  38.6km/h 65% 0.00in /  0mm 0.00 W/m2
19:04 61.8 °F /  16.6 °C 49.9 °F /  9.9 °C 29.95in /  1014.1hPa SSE 10.0mph /  16.1km/h 24.0mph /  38.6km/h 65% 0.00in /  0mm 0.00 W/m2
19:05 61.7 °F /  16.5 °C 49.8 °F /  9.9 °C 29.95in /  1014.1hPa SSE 16.0mph /  25.7km/h 28.0mph /  45.1km/h 65% 0.00in /  0mm 0.00 W/m2
19:07 61.7 °F /  16.5 °C 49.8 °F /  9.9 °C 29.95in /  1014.1hPa SSW 10.0mph /  16.1km/h 28.0mph /  45.1km/h 65% 0.00in /  0mm 0.00 W/m2
19:09 61.7 °F /  16.5 °C 49.8 °F /  9.9 °C 29.95in /  1014.1hPa SSW 16.0mph /  25.7km/h 28.0mph /  45.1km/h 65% 0.00in /  0mm 0.00 W/m2
19:11 61.6 °F /  16.4 °C 49.7 °F /  9.8 °C 29.95in /  1014.1hPa South 17.0mph /  27.4km/h 19.0mph /  30.6km/h 65% 0.00in /  0mm 0.00 W/m2
19:12 61.6 °F /  16.4 °C 49.7 °F /  9.8 °C 29.95in /  1014.1hPa South 8.0mph /  12.9km/h 23.0mph /  37km/h 65% 0.00in /  0mm 0.00 W/m2
19:14 61.6 °F /  16.4 °C 49.7 °F /  9.8 °C 29.95in /  1014.1hPa SSE 12.0mph /  19.3km/h 24.0mph /  38.6km/h 65% 0.00in /  0mm 0.00 W/m2
19:16 61.6 °F /  16.4 °C 49.7 °F /  9.8 °C 29.95in /  1014.1hPa South 13.0mph /  20.9km/h 24.0mph /  38.6km/h 65% 0.00in /  0mm 0.00 W/m2
19:17 61.5 °F /  16.4 °C 49.6 °F /  9.8 °C 29.95in /  1014.1hPa South 20.0mph /  32.2km/h 26.0mph /  41.8km/h 65% 0.00in /  0mm 0.00 W/m2
19:18 61.5 °F /  16.4 °C 50.0 °F /  10 °C 29.95in /  1014.1hPa SSW 14.0mph /  22.5km/h 26.0mph /  41.8km/h 66% 0.00in /  0mm 0.00 W/m2
19:19 61.5 °F /  16.4 °C 50.0 °F /  10 °C 29.95in /  1014.1hPa South 10.0mph /  16.1km/h 26.0mph /  41.8km/h 66% 0.00in /  0mm 0.00 W/m2
19:21 61.5 °F /  16.4 °C 50.0 °F /  10 °C 29.95in /  1014.1hPa SSW 12.0mph /  19.3km/h 16.0mph /  25.7km/h 66% 0.00in /  0mm 0.00 W/m2
19:22 61.5 °F /  16.4 °C 50.0 °F /  10 °C 29.95in /  1014.1hPa South 17.0mph /  27.4km/h 17.0mph /  27.4km/h 66% 0.00in /  0mm 0.00 W/m2
19:23 61.5 °F /  16.4 °C 50.0 °F /  10 °C 29.95in /  1014.1hPa South 25.0mph /  40.2km/h 25.0mph /  40.2km/h 66% 0.00in /  0mm 0.00 W/m2
19:25 61.5 °F /  16.4 °C 50.0 °F /  10 °C 29.95in /  1014.1hPa SSE 12.0mph /  19.3km/h 25.0mph /  40.2km/h 66% 0.00in /  0mm 0.00 W/m2
19:27 61.5 °F /  16.4 °C 50.0 °F /  10 °C 29.95in /  1014.1hPa SSE 20.0mph /  32.2km/h 25.0mph /  40.2km/h 66% 0.00in /  0mm 0.00 W/m2
19:28 61.5 °F /  16.4 °C 50.0 °F /  10 °C 29.95in /  1014.1hPa South 18.0mph /  29km/h 25.0mph /  40.2km/h 66% 0.00in /  0mm 0.00 W/m2
19:30 61.5 °F /  16.4 °C 50.0 °F /  10 °C 29.95in /  1014.1hPa South 12.0mph /  19.3km/h 14.0mph /  22.5km/h 66% 0.00in /  0mm 0.00 W/m2
19:32 61.5 °F /  16.4 °C 50.0 °F /  10 °C 29.95in /  1014.1hPa South 14.0mph /  22.5km/h 20.0mph /  32.2km/h 66% 0.00in /  0mm 0.00 W/m2
19:33 61.4 °F /  16.3 °C 50.0 °F /  10 °C 29.95in /  1014.1hPa South 14.0mph /  22.5km/h 20.0mph /  32.2km/h 66% 0.00in /  0mm 0.00 W/m2
19:34 61.5 °F /  16.4 °C 50.0 °F /  10 °C 29.94in /  1013.8hPa South 15.0mph /  24.1km/h 20.0mph /  32.2km/h 66% 0.00in /  0mm 0.00 W/m2
19:35 61.4 °F /  16.3 °C 50.0 °F /  10 °C 29.94in /  1013.8hPa South 7.0mph /  11.3km/h 27.0mph /  43.5km/h 66% 0.00in /  0mm 0.00 W/m2
19:38 61.4 °F /  16.3 °C 50.0 °F /  10 °C 29.95in /  1014.1hPa SSE 10.0mph /  16.1km/h 27.0mph /  43.5km/h 66% 0.00in /  0mm 0.00 W/m2
19:39 61.4 °F /  16.3 °C 50.0 °F /  10 °C 29.95in /  1014.1hPa South 16.0mph /  25.7km/h 27.0mph /  43.5km/h 66% 0.00in /  0mm 0.00 W/m2
19:41 61.4 °F /  16.3 °C 50.0 °F /  10 °C 29.94in /  1013.8hPa South 10.0mph /  16.1km/h 22.0mph /  35.4km/h 66% 0.00in /  0mm 0.00 W/m2
19:43 61.5 °F /  16.4 °C 50.0 °F /  10 °C 29.94in /  1013.8hPa South 8.0mph /  12.9km/h 24.0mph /  38.6km/h 66% 0.00in /  0mm 0.00 W/m2
19:44 61.5 °F /  16.4 °C 50.0 °F /  10 °C 29.94in /  1013.8hPa SSE 13.0mph /  20.9km/h 24.0mph /  38.6km/h 66% 0.00in /  0mm 0.00 W/m2
19:45 61.5 °F /  16.4 °C 50.0 °F /  10 °C 29.94in /  1013.8hPa South 13.0mph /  20.9km/h 26.0mph /  41.8km/h 66% 0.00in /  0mm 0.00 W/m2
19:46 61.5 °F /  16.4 °C 50.0 °F /  10 °C 29.94in /  1013.8hPa South 20.0mph /  32.2km/h 26.0mph /  41.8km/h 66% 0.00in /  0mm 0.00 W/m2
19:48 61.5 °F /  16.4 °C 50.0 °F /  10 °C 29.94in /  1013.8hPa South 19.0mph /  30.6km/h 26.0mph /  41.8km/h 66% 0.00in /  0mm 0.00 W/m2
19:49 61.5 °F /  16.4 °C 50.0 °F /  10 °C 29.94in /  1013.8hPa South 16.0mph /  25.7km/h 26.0mph /  41.8km/h 66% 0.00in /  0mm 0.00 W/m2
19:50 61.5 °F /  16.4 °C 50.0 °F /  10 °C 29.94in /  1013.8hPa SSW 12.0mph /  19.3km/h 15.0mph /  24.1km/h 66% 0.00in /  0mm 0.00 W/m2
19:51 61.5 °F /  16.4 °C 50.0 °F /  10 °C 29.94in /  1013.8hPa South 16.0mph /  25.7km/h 21.0mph /  33.8km/h 66% 0.00in /  0mm 0.00 W/m2
19:53 61.5 °F /  16.4 °C 50.0 °F /  10 °C 29.94in /  1013.8hPa South 17.0mph /  27.4km/h 21.0mph /  33.8km/h 66% 0.00in /  0mm 0.00 W/m2
19:54 61.5 °F /  16.4 °C 50.0 °F /  10 °C 29.94in /  1013.8hPa South 24.0mph /  38.6km/h 24.0mph /  38.6km/h 66% 0.00in /  0mm 0.00 W/m2
19:55 61.5 °F /  16.4 °C 50.0 °F /  10 °C 29.94in /  1013.8hPa South 15.0mph /  24.1km/h 24.0mph /  38.6km/h 66% 0.00in /  0mm 0.00 W/m2
19:56 61.5 °F /  16.4 °C 50.0 °F /  10 °C 29.94in /  1013.8hPa South 9.0mph /  14.5km/h 26.0mph /  41.8km/h 66% 0.00in /  0mm 0.00 W/m2
19:58 61.5 °F /  16.4 °C 50.0 °F /  10 °C 29.94in /  1013.8hPa SSW 17.0mph /  27.4km/h 26.0mph /  41.8km/h 66% 0.00in /  0mm 0.00 W/m2
19:59 61.5 °F /  16.4 °C 50.0 °F /  10 °C 29.94in /  1013.8hPa SSW 16.0mph /  25.7km/h 28.0mph /  45.1km/h 66% 0.00in /  0mm 0.00 W/m2
20:01 61.6 °F /  16.4 °C 50.1 °F /  10.1 °C 29.94in /  1013.8hPa South 16.0mph /  25.7km/h 19.0mph /  30.6km/h 66% 0.00in /  0mm 0.00 W/m2
20:03 61.6 °F /  16.4 °C 50.1 °F /  10.1 °C 29.94in /  1013.8hPa South 13.0mph /  20.9km/h 28.0mph /  45.1km/h 66% 0.00in /  0mm 0.00 W/m2
20:04 61.5 °F /  16.4 °C 50.0 °F /  10 °C 29.94in /  1013.8hPa South 12.0mph /  19.3km/h 28.0mph /  45.1km/h 66% 0.00in /  0mm 0.00 W/m2
20:06 61.6 °F /  16.4 °C 50.1 °F /  10.1 °C 29.94in /  1013.8hPa South 15.0mph /  24.1km/h 28.0mph /  45.1km/h 66% 0.00in /  0mm 0.00 W/m2
20:07 61.6 °F /  16.4 °C 50.1 °F /  10.1 °C 29.94in /  1013.8hPa South 9.0mph /  14.5km/h 28.0mph /  45.1km/h 66% 0.00in /  0mm 0.00 W/m2
20:08 61.6 °F /  16.4 °C 50.1 °F /  10.1 °C 29.94in /  1013.8hPa SSE 16.0mph /  25.7km/h 28.0mph /  45.1km/h 66% 0.00in /  0mm 0.00 W/m2
20:10 61.6 °F /  16.4 °C 50.1 °F /  10.1 °C 29.93in /  1013.4hPa SSW 22.0mph /  35.4km/h 24.0mph /  38.6km/h 66% 0.00in /  0mm 0.00 W/m2
20:11 61.6 °F /  16.4 °C 50.1 °F /  10.1 °C 29.94in /  1013.8hPa South 24.0mph /  38.6km/h 24.0mph /  38.6km/h 66% 0.00in /  0mm 0.00 W/m2
20:13 61.6 °F /  16.4 °C 50.1 °F /  10.1 °C 29.93in /  1013.4hPa SSE 14.0mph /  22.5km/h 34.0mph /  54.7km/h 66% 0.00in /  0mm 0.00 W/m2
20:16 61.7 °F /  16.5 °C 49.8 °F /  9.9 °C 29.94in /  1013.8hPa South 15.0mph /  24.1km/h 34.0mph /  54.7km/h 65% 0.00in /  0mm 0.00 W/m2
20:18 61.8 °F /  16.6 °C 49.9 °F /  9.9 °C 29.93in /  1013.4hPa South 18.0mph /  29km/h 34.0mph /  54.7km/h 65% 0.00in /  0mm 0.00 W/m2
20:21 61.9 °F /  16.6 °C 50.0 °F /  10 °C 29.93in /  1013.4hPa SSE 15.0mph /  24.1km/h 22.0mph /  35.4km/h 65% 0.00in /  0mm 0.00 W/m2
20:22 61.9 °F /  16.6 °C 50.0 °F /  10 °C 29.93in /  1013.4hPa SSW 16.0mph /  25.7km/h 32.0mph /  51.5km/h 65% 0.00in /  0mm 0.00 W/m2
20:24 61.9 °F /  16.6 °C 50.0 °F /  10 °C 29.93in /  1013.4hPa South 21.0mph /  33.8km/h 32.0mph /  51.5km/h 65% 0.00in /  0mm 0.00 W/m2
20:26 62.0 °F /  16.7 °C 50.1 °F /  10.1 °C 29.94in /  1013.8hPa SSW 11.0mph /  17.7km/h 32.0mph /  51.5km/h 65% 0.00in /  0mm 0.00 W/m2
20:27 62.0 °F /  16.7 °C 50.1 °F /  10.1 °C 29.94in /  1013.8hPa South 15.0mph /  24.1km/h 32.0mph /  51.5km/h 65% 0.00in /  0mm 0.00 W/m2
20:29 62.0 °F /  16.7 °C 50.1 °F /  10.1 °C 29.94in /  1013.8hPa SW 21.0mph /  33.8km/h 32.0mph /  51.5km/h 65% 0.00in /  0mm 0.00 W/m2
20:31 62.1 °F /  16.7 °C 50.2 °F /  10.1 °C 29.93in /  1013.4hPa SSE 11.0mph /  17.7km/h 28.0mph /  45.1km/h 65% 0.00in /  0mm 0.00 W/m2
20:32 62.1 °F /  16.7 °C 50.2 °F /  10.1 °C 29.93in /  1013.4hPa SSW 18.0mph /  29km/h 28.0mph /  45.1km/h 65% 0.00in /  0mm 0.00 W/m2
20:34 62.1 °F /  16.7 °C 50.2 °F /  10.1 °C 29.93in /  1013.4hPa SSE 17.0mph /  27.4km/h 29.0mph /  46.7km/h 65% 0.00in /  0mm 0.00 W/m2
20:36 62.2 °F /  16.8 °C 50.3 °F /  10.2 °C 29.93in /  1013.4hPa South 16.0mph /  25.7km/h 29.0mph /  46.7km/h 65% 0.00in /  0mm 0.00 W/m2
20:37 62.1 °F /  16.7 °C 50.2 °F /  10.1 °C 29.93in /  1013.4hPa South 11.0mph /  17.7km/h 29.0mph /  46.7km/h 65% 0.00in /  0mm 0.00 W/m2
20:39 62.1 °F /  16.7 °C 50.2 °F /  10.1 °C 29.93in /  1013.4hPa SSW 11.0mph /  17.7km/h 29.0mph /  46.7km/h 65% 0.00in /  0mm 0.00 W/m2
20:41 62.1 °F /  16.7 °C 50.2 °F /  10.1 °C 29.93in /  1013.4hPa SSW 12.0mph /  19.3km/h 25.0mph /  40.2km/h 65% 0.00in /  0mm 0.00 W/m2
20:42 62.1 °F /  16.7 °C 50.2 °F /  10.1 °C 29.93in /  1013.4hPa South 13.0mph /  20.9km/h 25.0mph /  40.2km/h 65% 0.00in /  0mm 0.00 W/m2
20:44 62.2 °F /  16.8 °C 50.3 °F /  10.2 °C 29.93in /  1013.4hPa South 14.0mph /  22.5km/h 26.0mph /  41.8km/h 65% 0.00in /  0mm 0.00 W/m2
20:45 62.2 °F /  16.8 °C 50.3 °F /  10.2 °C 29.93in /  1013.4hPa SSW 24.0mph /  38.6km/h 26.0mph /  41.8km/h 65% 0.00in /  0mm 0.00 W/m2
20:46 62.2 °F /  16.8 °C 50.3 °F /  10.2 °C 29.93in /  1013.4hPa SSW 12.0mph /  19.3km/h 26.0mph /  41.8km/h 65% 0.00in /  0mm 0.00 W/m2
20:47 62.2 °F /  16.8 °C 50.3 °F /  10.2 °C 29.93in /  1013.4hPa South 13.0mph /  20.9km/h 26.0mph /  41.8km/h 65% 0.00in /  0mm 0.00 W/m2
20:50 62.2 °F /  16.8 °C 50.3 °F /  10.2 °C 29.93in /  1013.4hPa SW 19.0mph /  30.6km/h 28.0mph /  45.1km/h 65% 0.00in /  0mm 0.00 W/m2
20:51 62.2 °F /  16.8 °C 50.3 °F /  10.2 °C 29.93in /  1013.4hPa SSW 12.0mph /  19.3km/h 26.0mph /  41.8km/h 65% 0.00in /  0mm 0.00 W/m2
20:52 62.2 °F /  16.8 °C 50.3 °F /  10.2 °C 29.93in /  1013.4hPa SSW 14.0mph /  22.5km/h 26.0mph /  41.8km/h 65% 0.00in /  0mm 0.00 W/m2
20:55 62.1 °F /  16.7 °C 50.2 °F /  10.1 °C 29.93in /  1013.4hPa South 12.0mph /  19.3km/h 26.0mph /  41.8km/h 65% 0.00in /  0mm 0.00 W/m2
20:56 62.1 °F /  16.7 °C 50.2 °F /  10.1 °C 29.93in /  1013.4hPa SSW 24.0mph /  38.6km/h 26.0mph /  41.8km/h 65% 0.00in /  0mm 0.00 W/m2
20:57 62.0 °F /  16.7 °C 50.1 °F /  10.1 °C 29.93in /  1013.4hPa SSE 28.0mph /  45.1km/h 28.0mph /  45.1km/h 65% 0.00in /  0mm 0.00 W/m2
20:59 62.0 °F /  16.7 °C 50.1 °F /  10.1 °C 29.93in /  1013.4hPa South 24.0mph /  38.6km/h 28.0mph /  45.1km/h 65% 0.00in /  0mm 0.00 W/m2
21:00 62.0 °F /  16.7 °C 50.1 °F /  10.1 °C 29.93in /  1013.4hPa South 9.0mph /  14.5km/h 28.0mph /  45.1km/h 65% 0.00in /  0mm 0.00 W/m2
21:02 62.0 °F /  16.7 °C 50.1 °F /  10.1 °C 29.93in /  1013.4hPa South 12.0mph /  19.3km/h 20.0mph /  32.2km/h 65% 0.00in /  0mm 0.00 W/m2
21:03 62.0 °F /  16.7 °C 50.1 °F /  10.1 °C 29.93in /  1013.4hPa South 5.0mph /  8km/h 20.0mph /  32.2km/h 65% 0.00in /  0mm 0.00 W/m2
21:04 62.0 °F /  16.7 °C 50.5 °F /  10.3 °C 29.93in /  1013.4hPa South 19.0mph /  30.6km/h 21.0mph /  33.8km/h 66% 0.00in /  0mm 0.00 W/m2
21:05 62.0 °F /  16.7 °C 50.5 °F /  10.3 °C 29.93in /  1013.4hPa South 10.0mph /  16.1km/h 21.0mph /  33.8km/h 66% 0.00in /  0mm 0.00 W/m2
21:07 62.0 °F /  16.7 °C 50.5 °F /  10.3 °C 29.93in /  1013.4hPa South 21.0mph /  33.8km/h 23.0mph /  37km/h 66% 0.00in /  0mm 0.00 W/m2
21:08 62.0 °F /  16.7 °C 50.5 °F /  10.3 °C 29.93in /  1013.4hPa South 15.0mph /  24.1km/h 23.0mph /  37km/h 66% 0.00in /  0mm 0.00 W/m2
21:09 61.9 °F /  16.6 °C 50.4 °F /  10.2 °C 29.93in /  1013.4hPa South 25.0mph /  40.2km/h 25.0mph /  40.2km/h 66% 0.00in /  0mm 0.00 W/m2
21:10 61.9 °F /  16.6 °C 50.4 °F /  10.2 °C 29.93in /  1013.4hPa SSW 14.0mph /  22.5km/h 17.0mph /  27.4km/h 66% 0.00in /  0mm 0.00 W/m2
21:11 61.9 °F /  16.6 °C 50.4 °F /  10.2 °C 29.93in /  1013.4hPa South 13.0mph /  20.9km/h 17.0mph /  27.4km/h 66% 0.00in /  0mm 0.00 W/m2
21:12 61.9 °F /  16.6 °C 50.4 °F /  10.2 °C 29.92in /  1013.1hPa South 21.0mph /  33.8km/h 21.0mph /  33.8km/h 66% 0.00in /  0mm 0.00 W/m2
21:13 61.9 °F /  16.6 °C 50.4 °F /  10.2 °C 29.92in /  1013.1hPa SSE 7.0mph /  11.3km/h 21.0mph /  33.8km/h 66% 0.00in /  0mm 0.00 W/m2
21:15 61.9 °F /  16.6 °C 50.4 °F /  10.2 °C 29.92in /  1013.1hPa South 9.0mph /  14.5km/h 21.0mph /  33.8km/h 66% 0.00in /  0mm 0.00 W/m2
21:16 61.9 °F /  16.6 °C 50.4 °F /  10.2 °C 29.92in /  1013.1hPa SSE 13.0mph /  20.9km/h 26.0mph /  41.8km/h 66% 0.00in /  0mm 0.00 W/m2
21:19 61.9 °F /  16.6 °C 50.4 °F /  10.2 °C 29.92in /  1013.1hPa SSW 15.0mph /  24.1km/h 27.0mph /  43.5km/h 66% 0.00in /  0mm 0.00 W/m2
21:20 61.9 °F /  16.6 °C 50.4 °F /  10.2 °C 29.92in /  1013.1hPa SSW 18.0mph /  29km/h 27.0mph /  43.5km/h 66% 0.00in /  0mm 0.00 W/m2
21:21 61.9 °F /  16.6 °C 50.4 °F /  10.2 °C 29.92in /  1013.1hPa South 17.0mph /  27.4km/h 22.0mph /  35.4km/h 66% 0.00in /  0mm 0.00 W/m2
21:24 61.9 °F /  16.6 °C 50.4 °F /  10.2 °C 29.92in /  1013.1hPa South 13.0mph /  20.9km/h 30.0mph /  48.3km/h 66% 0.00in /  0mm 0.00 W/m2
21:25 61.9 °F /  16.6 °C 50.8 °F /  10.4 °C 29.92in /  1013.1hPa SSW 23.0mph /  37km/h 30.0mph /  48.3km/h 67% 0.00in /  0mm 0.00 W/m2
21:26 61.9 °F /  16.6 °C 50.8 °F /  10.4 °C 29.92in /  1013.1hPa SE 14.0mph /  22.5km/h 30.0mph /  48.3km/h 67% 0.00in /  0mm 0.00 W/m2
21:30 62.0 °F /  16.7 °C 50.9 °F /  10.5 °C 29.92in /  1013.1hPa South 11.0mph /  17.7km/h 15.0mph /  24.1km/h 67% 0.00in /  0mm 0.00 W/m2
21:31 62.0 °F /  16.7 °C 50.9 °F /  10.5 °C 29.92in /  1013.1hPa South 18.0mph /  29km/h 21.0mph /  33.8km/h 67% 0.00in /  0mm 0.00 W/m2
21:32 62.0 °F /  16.7 °C 50.9 °F /  10.5 °C 29.91in /  1012.8hPa South 18.0mph /  29km/h 24.0mph /  38.6km/h 67% 0.00in /  0mm 0.00 W/m2
21:35 62.1 °F /  16.7 °C 51.0 °F /  10.6 °C 29.91in /  1012.8hPa SSE 17.0mph /  27.4km/h 26.0mph /  41.8km/h 67% 0.00in /  0mm 0.00 W/m2
21:36 62.1 °F /  16.7 °C 51.0 °F /  10.6 °C 29.91in /  1012.8hPa South 13.0mph /  20.9km/h 26.0mph /  41.8km/h 67% 0.00in /  0mm 0.00 W/m2
21:37 62.1 °F /  16.7 °C 51.0 °F /  10.6 °C 29.91in /  1012.8hPa SSW 17.0mph /  27.4km/h 26.0mph /  41.8km/h 67% 0.00in /  0mm 0.00 W/m2
21:38 62.0 °F /  16.7 °C 50.9 °F /  10.5 °C 29.91in /  1012.8hPa SSW 16.0mph /  25.7km/h 26.0mph /  41.8km/h 67% 0.00in /  0mm 0.00 W/m2
21:40 62.0 °F /  16.7 °C 50.9 °F /  10.5 °C 29.91in /  1012.8hPa South 12.0mph /  19.3km/h 17.0mph /  27.4km/h 67% 0.00in /  0mm 0.00 W/m2
21:41 62.0 °F /  16.7 °C 50.9 °F /  10.5 °C 29.91in /  1012.8hPa SSE 14.0mph /  22.5km/h 28.0mph /  45.1km/h 67% 0.00in /  0mm 0.00 W/m2
21:42 62.0 °F /  16.7 °C 50.9 °F /  10.5 °C 29.91in /  1012.8hPa SSW 16.0mph /  25.7km/h 28.0mph /  45.1km/h 67% 0.00in /  0mm 0.00 W/m2
21:43 62.0 °F /  16.7 °C 50.9 °F /  10.5 °C 29.91in /  1012.8hPa SW 15.0mph /  24.1km/h 28.0mph /  45.1km/h 67% 0.00in /  0mm 0.00 W/m2
21:44 62.0 °F /  16.7 °C 50.9 °F /  10.5 °C 29.91in /  1012.8hPa South 12.0mph /  19.3km/h 28.0mph /  45.1km/h 67% 0.00in /  0mm 0.00 W/m2
21:45 62.0 °F /  16.7 °C 50.9 °F /  10.5 °C 29.91in /  1012.8hPa SSW 14.0mph /  22.5km/h 29.0mph /  46.7km/h 67% 0.00in /  0mm 0.00 W/m2
21:47 62.1 °F /  16.7 °C 51.0 °F /  10.6 °C 29.90in /  1012.4hPa South 17.0mph /  27.4km/h 29.0mph /  46.7km/h 67% 0.00in /  0mm 0.00 W/m2
21:48 62.0 °F /  16.7 °C 50.9 °F /  10.5 °C 29.90in /  1012.4hPa SSW 13.0mph /  20.9km/h 29.0mph /  46.7km/h 67% 0.00in /  0mm 0.00 W/m2
21:49 62.1 °F /  16.7 °C 51.0 °F /  10.6 °C 29.91in /  1012.8hPa SW 20.0mph /  32.2km/h 29.0mph /  46.7km/h 67% 0.00in /  0mm 0.00 W/m2
21:50 62.1 °F /  16.7 °C 51.0 °F /  10.6 °C 29.90in /  1012.4hPa South 14.0mph /  22.5km/h 23.0mph /  37km/h 67% 0.00in /  0mm 0.00 W/m2
21:52 62.2 °F /  16.8 °C 51.1 °F /  10.6 °C 29.91in /  1012.8hPa South 14.0mph /  22.5km/h 23.0mph /  37km/h 67% 0.00in /  0mm 0.00 W/m2
21:53 62.2 °F /  16.8 °C 51.1 °F /  10.6 °C 29.90in /  1012.4hPa South 14.0mph /  22.5km/h 23.0mph /  37km/h 67% 0.00in /  0mm 0.00 W/m2
21:54 62.2 °F /  16.8 °C 51.1 °F /  10.6 °C 29.90in /  1012.4hPa South 18.0mph /  29km/h 27.0mph /  43.5km/h 67% 0.00in /  0mm 0.00 W/m2
21:56 62.2 °F /  16.8 °C 51.1 °F /  10.6 °C 29.90in /  1012.4hPa South 26.0mph /  41.8km/h 27.0mph /  43.5km/h 67% 0.00in /  0mm 0.00 W/m2
21:57 62.2 °F /  16.8 °C 51.1 °F /  10.6 °C 29.90in /  1012.4hPa South 13.0mph /  20.9km/h 27.0mph /  43.5km/h 67% 0.00in /  0mm 0.00 W/m2
21:58 62.2 °F /  16.8 °C 51.1 °F /  10.6 °C 29.90in /  1012.4hPa South 16.0mph /  25.7km/h 27.0mph /  43.5km/h 67% 0.00in /  0mm 0.00 W/m2
21:59 62.2 °F /  16.8 °C 51.1 °F /  10.6 °C 29.90in /  1012.4hPa South 12.0mph /  19.3km/h 27.0mph /  43.5km/h 67% 0.00in /  0mm 0.00 W/m2
22:01 62.2 °F /  16.8 °C 51.1 °F /  10.6 °C 29.90in /  1012.4hPa SSW 13.0mph /  20.9km/h 31.0mph /  49.9km/h 67% 0.00in /  0mm 0.00 W/m2
22:02 62.2 °F /  16.8 °C 51.1 °F /  10.6 °C 29.90in /  1012.4hPa SSE 15.0mph /  24.1km/h 31.0mph /  49.9km/h 67% 0.00in /  0mm 0.00 W/m2
22:03 62.2 °F /  16.8 °C 51.1 °F /  10.6 °C 29.90in /  1012.4hPa South 28.0mph /  45.1km/h 31.0mph /  49.9km/h 67% 0.00in /  0mm 0.00 W/m2
22:04 62.2 °F /  16.8 °C 51.1 °F /  10.6 °C 29.90in /  1012.4hPa South 15.0mph /  24.1km/h 31.0mph /  49.9km/h 67% 0.00in /  0mm 0.00 W/m2
22:05 62.2 °F /  16.8 °C 51.1 °F /  10.6 °C 29.90in /  1012.4hPa South 20.0mph /  32.2km/h 31.0mph /  49.9km/h 67% 0.00in /  0mm 0.00 W/m2
22:06 62.2 °F /  16.8 °C 51.1 °F /  10.6 °C 29.90in /  1012.4hPa SSW 18.0mph /  29km/h 31.0mph /  49.9km/h 67% 0.00in /  0mm 0.00 W/m2
22:07 62.2 °F /  16.8 °C 51.1 °F /  10.6 °C 29.90in /  1012.4hPa SSW 21.0mph /  33.8km/h 31.0mph /  49.9km/h 67% 0.00in /  0mm 0.00 W/m2
22:08 62.2 °F /  16.8 °C 51.1 °F /  10.6 °C 29.90in /  1012.4hPa South 18.0mph /  29km/h 31.0mph /  49.9km/h 67% 0.00in /  0mm 0.00 W/m2
22:09 62.2 °F /  16.8 °C 51.1 °F /  10.6 °C 29.90in /  1012.4hPa South 13.0mph /  20.9km/h 31.0mph /  49.9km/h 67% 0.00in /  0mm 0.00 W/m2
22:10 62.2 °F /  16.8 °C 51.1 °F /  10.6 °C 29.90in /  1012.4hPa SSW 14.0mph /  22.5km/h 14.0mph /  22.5km/h 67% 0.00in /  0mm 0.00 W/m2
22:12 62.2 °F /  16.8 °C 51.1 °F /  10.6 °C 29.90in /  1012.4hPa SSW 17.0mph /  27.4km/h 28.0mph /  45.1km/h 67% 0.00in /  0mm 0.00 W/m2
22:14 62.2 °F /  16.8 °C 51.1 °F /  10.6 °C 29.90in /  1012.4hPa South 29.0mph /  46.7km/h 30.0mph /  48.3km/h 67% 0.00in /  0mm 0.00 W/m2
22:15 62.2 °F /  16.8 °C 51.1 °F /  10.6 °C 29.90in /  1012.4hPa SSW 24.0mph /  38.6km/h 30.0mph /  48.3km/h 67% 0.00in /  0mm 0.00 W/m2
22:17 62.3 °F /  16.8 °C 51.2 °F /  10.7 °C 29.90in /  1012.4hPa SSW 19.0mph /  30.6km/h 30.0mph /  48.3km/h 67% 0.00in /  0mm 0.00 W/m2
22:20 62.2 °F /  16.8 °C 51.1 °F /  10.6 °C 29.89in /  1012.1hPa SSW 17.0mph /  27.4km/h 17.0mph /  27.4km/h 67% 0.00in /  0mm 0.00 W/m2
22:21 62.2 °F /  16.8 °C 51.1 °F /  10.6 °C 29.89in /  1012.1hPa SSW 13.0mph /  20.9km/h 25.0mph /  40.2km/h 67% 0.00in /  0mm 0.00 W/m2
22:22 62.2 °F /  16.8 °C 51.1 °F /  10.6 °C 29.89in /  1012.1hPa South 14.0mph /  22.5km/h 25.0mph /  40.2km/h 67% 0.00in /  0mm 0.00 W/m2
22:25 62.1 °F /  16.7 °C 51.0 °F /  10.6 °C 29.89in /  1012.1hPa SSW 13.0mph /  20.9km/h 27.0mph /  43.5km/h 67% 0.00in /  0mm 0.00 W/m2
22:26 62.1 °F /  16.7 °C 51.0 °F /  10.6 °C 29.89in /  1012.1hPa South 19.0mph /  30.6km/h 27.0mph /  43.5km/h 67% 0.00in /  0mm 0.00 W/m2
22:27 62.1 °F /  16.7 °C 51.0 °F /  10.6 °C 29.89in /  1012.1hPa South 11.0mph /  17.7km/h 27.0mph /  43.5km/h 67% 0.00in /  0mm 0.00 W/m2
22:28 62.1 °F /  16.7 °C 51.0 °F /  10.6 °C 29.89in /  1012.1hPa South 17.0mph /  27.4km/h 27.0mph /  43.5km/h 67% 0.00in /  0mm 0.00 W/m2
22:30 62.1 °F /  16.7 °C 51.0 °F /  10.6 °C 29.89in /  1012.1hPa South 14.0mph /  22.5km/h 14.0mph /  22.5km/h 67% 0.00in /  0mm 0.00 W/m2
22:31 62.1 °F /  16.7 °C 51.0 °F /  10.6 °C 29.89in /  1012.1hPa SSW 10.0mph /  16.1km/h 14.0mph /  22.5km/h 67% 0.00in /  0mm 0.00 W/m2
22:32 62.1 °F /  16.7 °C 51.0 °F /  10.6 °C 29.89in /  1012.1hPa South 18.0mph /  29km/h 24.0mph /  38.6km/h 67% 0.00in /  0mm 0.00 W/m2
22:33 62.0 °F /  16.7 °C 50.9 °F /  10.5 °C 29.89in /  1012.1hPa South 12.0mph /  19.3km/h 25.0mph /  40.2km/h 67% 0.00in /  0mm 0.00 W/m2
22:36 62.0 °F /  16.7 °C 50.9 °F /  10.5 °C 29.89in /  1012.1hPa SSE 15.0mph /  24.1km/h 31.0mph /  49.9km/h 67% 0.00in /  0mm 0.00 W/m2
22:38 62.0 °F /  16.7 °C 50.9 °F /  10.5 °C 29.89in /  1012.1hPa SW 12.0mph /  19.3km/h 31.0mph /  49.9km/h 67% 0.00in /  0mm 0.00 W/m2
22:41 62.0 °F /  16.7 °C 50.9 °F /  10.5 °C 29.88in /  1011.7hPa SSW 13.0mph /  20.9km/h 16.0mph /  25.7km/h 67% 0.00in /  0mm 0.00 W/m2
22:42 62.1 °F /  16.7 °C 51.0 °F /  10.6 °C 29.88in /  1011.7hPa SSW 18.0mph /  29km/h 24.0mph /  38.6km/h 67% 0.00in /  0mm 0.00 W/m2
22:43 62.0 °F /  16.7 °C 50.9 °F /  10.5 °C 29.88in /  1011.7hPa SSE 17.0mph /  27.4km/h 24.0mph /  38.6km/h 67% 0.00in /  0mm 0.00 W/m2
22:44 62.0 °F /  16.7 °C 50.9 °F /  10.5 °C 29.88in /  1011.7hPa South 22.0mph /  35.4km/h 24.0mph /  38.6km/h 67% 0.00in /  0mm 0.00 W/m2
22:46 62.0 °F /  16.7 °C 50.9 °F /  10.5 °C 29.88in /  1011.7hPa SSE 17.0mph /  27.4km/h 30.0mph /  48.3km/h 67% 0.00in /  0mm 0.00 W/m2
22:47 62.0 °F /  16.7 °C 50.9 °F /  10.5 °C 29.88in /  1011.7hPa SSW 22.0mph /  35.4km/h 30.0mph /  48.3km/h 67% 0.00in /  0mm 0.00 W/m2
22:49 62.0 °F /  16.7 °C 50.9 °F /  10.5 °C 29.88in /  1011.7hPa SSW 10.0mph /  16.1km/h 30.0mph /  48.3km/h 67% 0.00in /  0mm 0.00 W/m2
22:52 62.0 °F /  16.7 °C 50.9 °F /  10.5 °C 29.88in /  1011.7hPa SSW 11.0mph /  17.7km/h 26.0mph /  41.8km/h 67% 0.00in /  0mm 0.00 W/m2
22:54 61.9 °F /  16.6 °C 50.8 °F /  10.4 °C 29.88in /  1011.7hPa South 18.0mph /  29km/h 26.0mph /  41.8km/h 67% 0.00in /  0mm 0.00 W/m2
22:57 62.0 °F /  16.7 °C 50.9 °F /  10.5 °C 29.88in /  1011.7hPa South 12.0mph /  19.3km/h 29.0mph /  46.7km/h 67% 0.00in /  0mm 0.00 W/m2
22:59 62.0 °F /  16.7 °C 50.9 °F /  10.5 °C 29.88in /  1011.7hPa South 26.0mph /  41.8km/h 29.0mph /  46.7km/h 67% 0.00in /  0mm 0.00 W/m2
23:00 62.0 °F /  16.7 °C 50.9 °F /  10.5 °C 29.88in /  1011.7hPa South 17.0mph /  27.4km/h 29.0mph /  46.7km/h 67% 0.00in /  0mm 0.00 W/m2
23:01 62.0 °F /  16.7 °C 50.9 °F /  10.5 °C 29.88in /  1011.7hPa South 13.0mph /  20.9km/h 31.0mph /  49.9km/h 67% 0.00in /  0mm 0.00 W/m2
23:05 62.1 °F /  16.7 °C 51.0 °F /  10.6 °C 29.88in /  1011.7hPa South 13.0mph /  20.9km/h 33.0mph /  53.1km/h 67% 0.00in /  0mm 0.00 W/m2
23:06 62.1 °F /  16.7 °C 51.0 °F /  10.6 °C 29.88in /  1011.7hPa SSW 29.0mph /  46.7km/h 33.0mph /  53.1km/h 67% 0.00in /  0mm 0.00 W/m2
23:10 62.3 °F /  16.8 °C 51.2 °F /  10.7 °C 29.88in /  1011.7hPa SW 13.0mph /  20.9km/h 26.0mph /  41.8km/h 67% 0.00in /  0mm 0.00 W/m2
23:11 62.3 °F /  16.8 °C 51.2 °F /  10.7 °C 29.88in /  1011.7hPa SSW 16.0mph /  25.7km/h 29.0mph /  46.7km/h 67% 0.00in /  0mm 0.00 W/m2
23:12 62.3 °F /  16.8 °C 51.2 °F /  10.7 °C 29.88in /  1011.7hPa SSW 17.0mph /  27.4km/h 29.0mph /  46.7km/h 67% 0.00in /  0mm 0.00 W/m2
23:15 62.3 °F /  16.8 °C 51.2 °F /  10.7 °C 29.88in /  1011.7hPa South 12.0mph /  19.3km/h 32.0mph /  51.5km/h 67% 0.00in /  0mm 0.00 W/m2
23:16 62.4 °F /  16.9 °C 51.3 °F /  10.7 °C 29.88in /  1011.7hPa SSW 18.0mph /  29km/h 32.0mph /  51.5km/h 67% 0.00in /  0mm 0.00 W/m2
23:17 62.4 °F /  16.9 °C 51.3 °F /  10.7 °C 29.88in /  1011.7hPa South 22.0mph /  35.4km/h 32.0mph /  51.5km/h 67% 0.00in /  0mm 0.00 W/m2
23:20 62.4 °F /  16.9 °C 51.3 °F /  10.7 °C 29.88in /  1011.7hPa SSW 17.0mph /  27.4km/h 31.0mph /  49.9km/h 67% 0.00in /  0mm 0.00 W/m2
23:21 62.4 °F /  16.9 °C 51.3 °F /  10.7 °C 29.88in /  1011.7hPa South 9.0mph /  14.5km/h 31.0mph /  49.9km/h 67% 0.00in /  0mm 0.00 W/m2
23:22 62.4 °F /  16.9 °C 51.3 °F /  10.7 °C 29.88in /  1011.7hPa SSW 11.0mph /  17.7km/h 31.0mph /  49.9km/h 67% 0.00in /  0mm 0.00 W/m2
23:24 62.4 °F /  16.9 °C 51.3 °F /  10.7 °C 29.88in /  1011.7hPa SSW 19.0mph /  30.6km/h 31.0mph /  49.9km/h 67% 0.00in /  0mm 0.00 W/m2
23:25 62.4 °F /  16.9 °C 51.3 °F /  10.7 °C 29.88in /  1011.7hPa South 18.0mph /  29km/h 31.0mph /  49.9km/h 67% 0.00in /  0mm 0.00 W/m2
23:26 62.5 °F /  16.9 °C 51.4 °F /  10.8 °C 29.88in /  1011.7hPa SW 12.0mph /  19.3km/h 31.0mph /  49.9km/h 67% 0.00in /  0mm 0.00 W/m2
23:27 62.4 °F /  16.9 °C 51.3 °F /  10.7 °C 29.88in /  1011.7hPa SSW 19.0mph /  30.6km/h 31.0mph /  49.9km/h 67% 0.00in /  0mm 0.00 W/m2
23:30 62.4 °F /  16.9 °C 51.7 °F /  10.9 °C 29.88in /  1011.7hPa South 30.0mph /  48.3km/h 30.0mph /  48.3km/h 68% 0.00in /  0mm 0.00 W/m2
23:31 62.5 °F /  16.9 °C 51.8 °F /  11 °C 29.88in /  1011.7hPa SSW 20.0mph /  32.2km/h 30.0mph /  48.3km/h 68% 0.00in /  0mm 0.00 W/m2
23:32 62.4 °F /  16.9 °C 51.7 °F /  10.9 °C 29.88in /  1011.7hPa SSW 21.0mph /  33.8km/h 30.0mph /  48.3km/h 68% 0.00in /  0mm 0.00 W/m2
23:33 62.4 °F /  16.9 °C 51.7 °F /  10.9 °C 29.88in /  1011.7hPa SW 23.0mph /  37km/h 30.0mph /  48.3km/h 68% 0.00in /  0mm 0.00 W/m2
23:35 62.4 °F /  16.9 °C 51.7 °F /  10.9 °C 29.88in /  1011.7hPa South 17.0mph /  27.4km/h 30.0mph /  48.3km/h 68% 0.00in /  0mm 0.00 W/m2
23:36 62.4 °F /  16.9 °C 51.7 °F /  10.9 °C 29.88in /  1011.7hPa South 13.0mph /  20.9km/h 34.0mph /  54.7km/h 68% 0.00in /  0mm 0.00 W/m2
23:37 62.4 °F /  16.9 °C 51.7 °F /  10.9 °C 29.88in /  1011.7hPa SW 20.0mph /  32.2km/h 34.0mph /  54.7km/h 68% 0.00in /  0mm 0.00 W/m2
23:39 62.4 °F /  16.9 °C 51.7 °F /  10.9 °C 29.88in /  1011.7hPa South 24.0mph /  38.6km/h 34.0mph /  54.7km/h 68% 0.00in /  0mm 0.00 W/m2
23:40 62.4 °F /  16.9 °C 51.7 °F /  10.9 °C 29.88in /  1011.7hPa SSW 17.0mph /  27.4km/h 30.0mph /  48.3km/h 68% 0.00in /  0mm 0.00 W/m2
23:41 62.4 °F /  16.9 °C 51.7 °F /  10.9 °C 29.88in /  1011.7hPa South 19.0mph /  30.6km/h 30.0mph /  48.3km/h 68% 0.00in /  0mm 0.00 W/m2
23:42 62.4 °F /  16.9 °C 51.7 °F /  10.9 °C 29.88in /  1011.7hPa SSW 18.0mph /  29km/h 30.0mph /  48.3km/h 68% 0.00in /  0mm 0.00 W/m2
23:44 62.4 °F /  16.9 °C 52.1 °F /  11.2 °C 29.88in /  1011.7hPa South 11.0mph /  17.7km/h 30.0mph /  48.3km/h 69% 0.00in /  0mm 0.00 W/m2
23:45 62.4 °F /  16.9 °C 52.1 °F /  11.2 °C 29.88in /  1011.7hPa South 29.0mph /  46.7km/h 32.0mph /  51.5km/h 69% 0.00in /  0mm 0.00 W/m2
23:46 62.4 °F /  16.9 °C 52.1 °F /  11.2 °C 29.88in /  1011.7hPa South 22.0mph /  35.4km/h 32.0mph /  51.5km/h 69% 0.00in /  0mm 0.00 W/m2
23:48 62.3 °F /  16.8 °C 52.0 °F /  11.1 °C 29.88in /  1011.7hPa SSW 24.0mph /  38.6km/h 32.0mph /  51.5km/h 69% 0.00in /  0mm 0.00 W/m2
23:49 62.3 °F /  16.8 °C 52.0 °F /  11.1 °C 29.88in /  1011.7hPa SW 14.0mph /  22.5km/h 32.0mph /  51.5km/h 69% 0.00in /  0mm 0.00 W/m2
23:51 62.2 °F /  16.8 °C 52.3 °F /  11.3 °C 29.88in /  1011.7hPa South 18.0mph /  29km/h 29.0mph /  46.7km/h 70% 0.00in /  0mm 0.00 W/m2
23:53 62.2 °F /  16.8 °C 52.3 °F /  11.3 °C 29.87in /  1011.4hPa South 18.0mph /  29km/h 30.0mph /  48.3km/h 70% 0.00in /  0mm 0.00 W/m2
23:54 62.1 °F /  16.7 °C 52.2 °F /  11.2 °C 29.87in /  1011.4hPa SSW 25.0mph /  40.2km/h 30.0mph /  48.3km/h 70% 0.00in /  0mm 0.00 W/m2
23:56 62.0 °F /  16.7 °C 52.1 °F /  11.2 °C 29.87in /  1011.4hPa SSW 16.0mph /  25.7km/h 31.0mph /  49.9km/h 70% 0.00in /  0mm 0.00 W/m2
23:58 61.9 °F /  16.6 °C 52.4 °F /  11.3 °C 29.88in /  1011.7hPa SSW 25.0mph /  40.2km/h 31.0mph /  49.9km/h 71% 0.00in /  0mm 0.00 W/m2
23:59 61.9 °F /  16.6 °C 52.4 °F /  11.3 °C 29.87in /  1011.4hPa SW 12.0mph /  19.3km/h 31.0mph /  49.9km/h 71% 0.00in /  0mm 0.00 W/m2
Peotone Weather Data
Compliments of Weather Underground